Aviation Digital Data Service (ADDS)

Output produced by METARs form (0940 UTC 23 November 2014)
found at http://aviationweather.gov/adds/metars/
 
K04V 230934Z AUTO 32006KT 10SM -SN SCT004 BKN020 OVC060 M01/M02 A2972 RMK AO2 P0002
K04W 230946Z AUTO 19003KT 1/4SM FG OVC002 04/04 A2943 RMK AO2
K05U 230935Z AUTO 00000KT 10SM BKN035 M03/M05 A3020 RMK AO1
K06D 230935Z AUTO 21004KT 10SM FEW110 00/M02 A2929 RMK AO2
K08D 230915Z AUTO 27015G25KT 10SM FEW012 FEW017 BKN025 02/02 A2931 RMK AO2
K0A9 230935Z AUTO 06005KT 10SM CLR 04/M01 A3017 RMK
K0CO 230934Z AUTO 32022G31KT 1/2SM -SN OVC002 M12/M14 A2970 RMK AO2
K0E0 230935Z AUTO 25013KT 10SM SCT100 04/M07 A2978 RMK AO2 T00431070
K0F2 230915Z AUTO 13004KT 10SM CLR 11/11 A2961 RMK AO2 T01100109
K0J4 230908Z AUTO VRB05KT 3SM BR OVC002 17/16 A2992 RMK AO2 RAE06 P0000 $
K0V4 230935Z AUTO 00000KT 10SM CLR M02/M03 A3026 RMK AO1 T10201032
K0VG 230935Z AUTO 00000KT 10SM CLR 00/M02 A3016 RMK AO2
K11R 230935Z AUTO 23004KT 5SM BR CLR 16/15 A2965 RMK AO2 T01550150
K12N 230854Z AUTO 00000KT 03/M06 A3016 RMK AO1 SLP221 T00281056 55004
K14Y 230945Z AUTO 20006KT 5SM BR OVC110 01/01 A2939 RMK AO2
K19A 230935Z AUTO 07006KT 10SM -RA OVC012 06/05 A3016 RMK AO2
K1A5 230935Z AUTO 00000KT 10SM RA 05/03 A3021 RMK AO2 P0001 T00520028
K1A6 230935Z AUTO 00000KT 10SM CLR 03/00 A3012 RMK AO2 T00250002
K1A9 230935Z AUTO 09009G15KT 10SM OVC006 13/13 A2994 RMK AO2 T01330127
K1F0 230935Z AUTO 19005KT 4SM BR OVC004 13/12 A2961 RMK AO2
K1H2 230935Z AUTO 15009KT CLR 10/03 A2985 RMK AO2 T00950025 PWINO
K1II 230935Z AUTO 14004KT 10SM OVC075 09/03 A2996 RMK AO2
K1J0 230858Z AUTO 10007KT 7SM OVC006 17/16 A2993 RMK AO2 RAE09 SLP092 6//// T01670161 56037 PNO $
K1L0 230935Z AUTO 07006KT 4SM BR OVC002 17/16 A2977 RMK AO2 LTG DSNT SE S AND NW T01720160
K1M4 230923Z AUTO 14011G18KT 10SM BKN012 BKN018 13/11 A2993 RMK AO2
K1P1 230935Z AUTO 00000KT 5SM BR SCT031 BKN060 OVC110 02/02 A3000 RMK AO2 T00170017
K1R7 230935Z AUTO 11005KT 5SM BR OVC003 16/16 A2979 RMK AO2
K1V4 230854Z AUTO 03/01 A2995 RMK AO1 SLP152 P0001 60001 T00330011 51012
K1V6 230935Z AUTO 30010KT 10SM CLR 07/M03 A2957 RMK AO2
K1YT 230856Z AUTO 17006KT 10SM CLR 02/M01 A3010 RMK AO2 LTG DSNT NW SLPNO T00191012 51017
K20U 230935Z AUTO 27027G34KT 10SM BKN030 OVC035 02/00 A2947 RMK AO2
K20V 230934Z AUTO 36003KT 10SM SCT037 BKN100 M01/M06 A2976 RMK AO2
K21D 230931Z AUTO 19008KT 2 1/2SM BR OVC004 07/07 A2947 RMK AO2
K24J 230935Z AUTO 12006G14KT 6SM BKN008 BKN013 OVC020 20/20 A3000 RMK AO1
K28J 230915Z AUTO 20003KT 3SM -RA BKN006 OVC010 20/20 A3002 RMK AO2 P0004
K2C8 230935Z AUTO 18009G14KT 4SM BR CLR 00/M01 A2931 RMK AO2
K2D5 230935Z AUTO 24006KT 10SM 02/02 A2940 RMK AO2
K2DP 230856Z AUTO 36001KT 10SM CLR 00/00 A3031 RMK AO2 SLPNO T00040002 57010
K2G4 230920Z AUTO 23010G14KT 10SM SCT065 07/M10 A3013 RMK AO1
K2I0 230935Z AUTO 16007KT 10SM BKN024 OVC036 14/06 A2994 RMK AO2 T01360058
K2J9 230935Z AUTO 10005KT 6SM OVC004 17/17 A2996 RMK AO1
K2V5 230935Z AUTO 33016G28KT 10SM SCT048 BKN060 OVC085 10/M01 A2959 RMK AO2 T01011012
K2W6 230920Z AUTO 22006KT 10SM CLR 06/M08 A3025 RMK AO1
K2WX 230856Z AUTO 29026G38KT 02/M02 A2948 RMK AO1 PK WND 28038/0854 SLP993 T00221017 53023
K33V 230935Z AUTO 33011KT 4SM SCT014 BKN033 OVC055 M03/M06 A2974 RMK AO2
K36U 230935Z AUTO 00000KT 7SM -SN SCT020 BKN025 OVC048 00/M03 A2993 RMK AO2
K3I2 230935Z AUTO 00000KT 10SM BKN095 03/01 A3010 RMK AO2
K3J7 230935Z AUTO 04004KT 3SM RA SCT003 SCT035 OVC048 10/09 A3011 RMK AO2
K3K3 230935Z AUTO 29011KT 10SM CLR 05/M03 A2942 RMK AO2
K3LF 230935Z AUTO 16014KT 10SM OVC100 10/06 A2978 RMK AO2 T00980057
K3N8 230915Z AUTO 20007KT 4SM BR OVC003 01/00 A2938 RMK AO2 T00060001
K3R7 230935Z AUTO 10021G29KT 5SM RA OVC006 18/18 A2960 RMK AO2 LTG DSNT SW P0019 T01800175
K3T5 230935Z AUTO 24004KT 10SM OVC012 17/16 A2967 RMK AO2 T01660162
K40J 230935Z AUTO 13014G19KT 4SM +RA SCT010 BKN014 OVC038 20/19 A2996 RMK AO2 P0011 T01960191
K42J 230935Z AUTO 19005KT 3SM BKN002 BKN006 OVC012 19/19 A3001 RMK AO1 P0009 TSNO
K46D 230935Z AUTO 25008G15KT 10SM FEW030 SCT044 03/02 A2938 RMK AO2
K4A6 230915Z AUTO 10008KT 10SM BKN022 12/05 A3001 RMK AO2
K4A9 230935Z AUTO 11013G20KT 10SM SCT060 BKN075 OVC120 11/03 A2999 RMK AO2
K4BM 230935Z AUTO 30011G19KT 260V340 10SM SCT100 BKN110 M06/M08 A2971 RMK AO2
K4I3 230935Z AUTO 00000KT 10SM SCT080 07/01 A3004 RMK AO2
K4I7 230935Z AUTO 18009KT 10SM CLR 11/05 A2991 RMK AO2
K4M9 230915Z AUTO 13008KT 10SM FEW022 BKN044 10/09 A2982 RMK AO2
K4MR 230856Z AUTO 24013KT 10SM SCT190 09/M08 A2970 RMK AO2 SLP020 T00911076 55001
K4O4 230935Z AUTO 09004KT 10SM OVC012 15/13 A2963 RMK AO2
K54J 230935Z AUTO 08007KT 3SM RA OVC003 17/17 A2989 RMK AO2 T01710170
K5C1 230935Z AUTO 23003KT 10SM SCT085 12/11 A2973 RMK AO1
K5H4 230935Z AUTO 26011G17KT 10SM BKN100 04/00 A2936 RMK AO2
K5M9 230935Z AUTO 15008G17KT 10SM OVC034 12/07 A2988 RMK AO2 T01150065
K5R8 230935Z AUTO 29009G17KT 2 1/2SM +RA BKN006 BKN012 OVC023 16/16 A2970 RMK AO2 LTG DSNT S P0046 T01570157
K5SM 230936Z AUTO 00000KT 1SM -SN OVC002 M05/M06 A2978 RMK AO2
K5W8 230935Z AUTO 00000KT 10SM BKN010 OVC050 04/M02 A3026 RMK AO2 T00401016
K65S 230935Z AUTO 23008KT 210V270 10SM CLR 01/M01 A2996 RMK AO2
K66R 230935Z AUTO 27005KT 10SM OVC010 15/15 A2968 RMK AO2 T01500150
K6A2 230935Z AUTO 09005KT 4SM OVC002 10/09 A3007 RMK AO2
K6B0 230935Z AUTO 17008KT 10SM OVC024 05/03 A3002 RMK AO2 T00480030
K6L4 230935Z AUTO 17006KT 10SM FEW075 OVC110 10/M03 A3011 RMK AO2
K6R3 230835Z AUTO 00000KT 10SM -RA SCT023 BKN065 OVC120 16/16 A2962 RMK AO2 P0006 T01600157
K6R6 230853Z AUTO 28008KT 12/04 A2974 RMK AO1 SLP045 T01170039 58020 $
K79J 230938Z AUTO 14008KT 3SM BR OVC005 18/16 A2989 RMK AO2 RAB10E35 P0001
K7BM 230934Z AUTO 31003KT SCT019 BKN031 OVC070 M01/M03 A2969 RMK AO2 PWINO
K7L2 230935Z AUTO 23006KT 10SM SCT034 BKN042 03/03 A2945 RMK AO2
K7W4 230935Z AUTO 21005KT 10SM CLR 04/M08 A3022 RMK AO1 T00411077
K82V 230935Z AUTO 35009KT 10SM CLR 00/M02 A2968 RMK AO2
K8A0 230935Z AUTO 11010G16KT 10SM BKN039 BKN050 BKN080 10/09 A2998 RMK AO2
K8D3 230856Z AUTO 29007KT 04/01 A2939 RMK AO1 SLP962 T00440006 53008
K8S0 230915Z 25008KT
K8W2 230935Z AUTO 00000KT 10SM CLR 01/M06 A3018 RMK AO1 T00051056
K96D 230935Z AUTO 18005KT 10SM 00/00 A2930 RMK AO2
K9D7 230935Z AUTO 24007KT 10SM CLR 00/M02 A2931 RMK AO2
K9L2 230855Z AUTO 29022G28KT 10SM CLR 13/06 A3003 RMK AO2 PK WND 28036/0810 SLP165 T01280056 53006 TSNO $
K9MN 230934Z AUTO 17010G18KT 7SM OVC005 10/09 A2951 RMK AO1 T00980091
K9V9 230935Z AUTO 33010KT 10SM OVC090 04/00 A2948 RMK AO2 T00360004
KAAA 230935Z AUTO 18008KT 10SM CLR 10/07 A2977 RMK AO2 T01020065
KAAF 230853Z AUTO 13011KT 7SM OVC005 21/18 A2992 RMK AO2 SLP131 60018 T02060183 55027 TSNO
KAAO 230901Z AUTO 18011KT 10SM BKN010 OVC018 12/11 A2950 RMK AO2 CIG 007V012 T01220111
KAAT 230855Z AUTO 27005KT 10SM FEW023 OVC032 01/M02 A3030 RMK AO2 SLP269 T00061017 51023
KABE 230851Z 00000KT 10SM FEW080 BKN100 02/M05 A3017 RMK AO2 SLP218 T00221050 58007
KABI 230852Z 21010KT 10SM CLR 12/11 A2962 RMK AO2 SLP019 T01170106 56032
KABQ 230852Z 28006KT 10SM SCT090 BKN170 BKN230 09/M08 A2979 RMK AO2 SLP047 T00891078 58015
KABR 230853Z AUTO 25005KT 10SM SCT060 BKN100 OVC120 03/01 A2942 RMK AO2 SLP973 T00280006 51009
KABY 230938Z 08012KT 2SM SCT006 BKN011 OVC018 16/16 A2999 RMK AO2 P0021
KACB 230936Z AUTO 19004KT 2SM BR OVC006 06/05 A2976 RMK AO2 T00580052
KACJ 230935Z AUTO 08009G14KT 10SM SCT007 BKN013 OVC026 14/14 A3003 RMK AO2
KACK 230853Z AUTO 24020G28KT 10SM BKN085 OVC120 11/05 A3015 RMK AO2 PK WND 24029/0817 SLP209 T01060050 53005 $
KACP 230915Z AUTO 12008KT 4SM VCTSRA BKN007 BKN010 OVC018 18/17 A2970 RMK AO2 LTG DSNT ALQS T01810171
KACQ 230935Z AUTO 19013G19KT 7SM OVC011 10/08 A2948 RMK AO2
KACT 230931Z 00000KT 10SM SCT010 13/13 A2964 RMK AO2 T01330128
KACV 230853Z AUTO 09005KT 10SM CLR 08/06 A3032 RMK AO2 SLP274 T00780061 51004
KACY 230854Z 21008KT 10SM CLR 06/M04 A3022 RMK AO2 SLP234 T00561044 58009
KADC 230934Z AUTO 21004KT 1 1/2SM BR OVC002 01/01 A2938 RMK AO2
KADF 230856Z AUTO 13010KT 9SM -RA FEW009 SCT038 BKN048 14/14 A2970 RMK AO2 58048 60011 T01440144 BKN V SCT RAE0759B29 P0000 SLP071
KADG 230926Z AUTO 22008KT 10SM OVC029 07/05 A2995 RMK AO2 RAB0856E06 P0000 T00670050
KADH 230935Z AUTO 17010KT 10SM BKN008 OVC014 13/13 A2960 RMK AO2
KADM 230935Z AUTO 17006KT 10SM OVC006 15/14 A2961 RMK AO2 P0001 T01450141
KADS 230935Z AUTO 19004KT 10SM BKN005 15/15 A2964 RMK AO2 T01470147
KADU 230935Z AUTO 20009KT 3SM DZ CLR 11/08 A2954 RMK AO2
KADW 230858Z AUTO 21011KT 10SM CLR 05/M08 A3019 RMK AO2 SLP232 T00471081 58011 $
KAEG 230935Z AUTO 25012KT 10SM CLR 05/M08 A2980 RMK AO2 T00511085
KAEJ 230935Z AUTO 28004KT 10SM SCT021 SCT029 BKN100 00/M03 A2968 RMK AO2 T10031028
KAEL 230933Z AUTO 19010G14KT 7SM OVC008 11/11 A2949 RMK AO2
KAEX 230853Z 14011KT 6SM -RA BR OVC007 17/17 A2972 RMK AO2 LTG DSNT S SLP067 P0005 60005 T01720167 56023
KAFF 230858Z AUTO 01011KT 10SM CLR 05/M07 A2957 RMK AO2 SLP971 T00511072 55014
KAFJ 230935Z 00000KT 10SM OVC070 08/M03 A3011 RMK AO1
KAFK 230935Z AUTO 19011KT 10SM OVC020 12/11 A2952 RMK AO2 T01200108
KAFN 230922Z AUTO 19007KT 10SM BKN025 BKN070 OVC120 03/M02 A3004 RMK AO2 RAB01E10 P0000 T00281022
KAFO 230935Z AUTO 15004KT 1 1/4SM -SN OVC004 M02/M03 A2985 RMK AO2
KAFP 230935Z AUTO 00000KT 10SM BKN033 BKN042 BKN120 05/01 A3025 RMK AO2 T00470009
KAFW 230853Z 00000KT 10SM SCT250 12/11 A2962 RMK AO2 SLP026 T01170111 56018
KAGC 230853Z AUTO 17005KT 10SM SCT043 BKN055 OVC100 08/M04 A3009 RMK AO2 SLP199 60000 T00831044 57001 TSNO
KAGS 230919Z AUTO 34003KT 3SM -RA BR BKN060 BKN070 OVC110 11/10 A3018 RMK AO2 P0006 T01060100
KAHN 230851Z AUTO 06010KT 8SM -RA BKN011 BKN034 OVC095 07/04 A3018 RMK AO2 SLP220 P0002 60002 T00670039 57015 $
KAHQ 230935Z AUTO 17007KT 10SM OVC037 12/10 A2948 RMK AO2 T01210098
KAIA 230853Z AUTO 33015KT 10SM SCT065 OVC085 04/M05 A2961 RMK AO2 PK WND 32030/0755 SLP017 T00391050 51035
KAIB 230935Z AUTO 00000KT 10SM OVC100 03/00 A2985 RMK AO2
KAIG 230915Z AUTO 16008KT 1/4SM DZ OVC003 02/02 A2961 RMK AO2 T00230023
KAIK 230935Z AUTO 00000KT 3SM -RA BKN002 OVC006 10/10 A3022 RMK AO2 PNO
KAIO 230935Z AUTO 19012G17KT 5SM BR OVC012 12/11 A2952 RMK AO2
KAIT 230934Z AUTO 17003KT M1/4SM HZ OVC002 04/01 A2938 RMK AO2
KAIZ 230935Z AUTO 15005KT 10SM FEW025 12/09 A2968 RMK AO1
KAJG 230915Z AUTO 16009KT 10SM BKN035 11/02 A2991 RMK AO2
KAJO 230856Z AUTO 00000KT 10SM CLR 07/05 A3006 RMK AO2 51002 T00660050 SLP174 $
KAJZ 230935Z AUTO 11005KT 10SM SCT100 SCT120 03/01 A2981 RMK AO2 T00320012
KAKH 230924Z AUTO 02004KT 8SM -RA SCT020 BKN033 OVC060 08/M02 A3024 RMK AO2 RAB20 P0000 T00781022
KAKO 230853Z AUTO 34024G29KT 10SM SCT055 OVC075 07/M03 A2961 RMK AO2 PK WND 33029/0851 SLP996 T00721028 52021
KAKQ 230854Z AUTO 00000KT 10SM CLR M01/M04 A3030 RMK AO2 SLP260 T10061039 58007 TSNO $
KAKR 230854Z AUTO 20010KT 10SM OVC039 09/01 A3004 RMK AO2 SLP176 60000 T00890011 56004
KALB 230851Z COR 16006KT 9SM -RA OVC038 03/M01 A3008 RMK AO2 SLP189 P0002 60010 T00331006 58003
KALI 230921Z AUTO 00000KT 6SM BR BKN003 14/14 A2975 RMK AO2 T01440139
KALK 230856Z AUTO 22014G21KT 10SM CLR 10/M03 A3004 RMK AO2 SLP106 T01001028 58008 TSNO
KALM 230935Z AUTO 10SM CLR 06/M07 A2981 RMK AO2
KALN 230935Z AUTO 15009KT 10SM OVC100 11/06 A2978 RMK AO2 T01130060
KALO 230854Z 18010KT 4SM BR OVC006 10/09 A2959 RMK AO2 SLP022 T01000094 58015 $
KALS 230852Z AUTO 17005KT 10SM FEW080 M07/M10 A2971 RMK AO2 SLP052 T10721100 58011
KALW 230853Z AUTO 19010KT 10SM BKN070 BKN080 06/01 A3016 RMK AO2 SLP218 T00560011 51025
KALX 230935Z AUTO 10010G15KT 10SM BKN008 OVC013 15/13 A2998 RMK AO2 T01510125
KAMA 230853Z AUTO 25015KT 10SM CLR 11/M07 A2947 RMK AO2 PK WND 25027/0804 SLP941 T01061067 56037
KAMG 230938Z AUTO 06004KT 2SM +RA BR OVC004 16/15 A3004 RMK AO2 P0016 T01560150
KAMN 230932Z AUTO 20007KT 7SM OVC017 08/07 A2985 RMK AO2 T00830071
KAMW 230853Z AUTO 19011KT 9SM SCT016 OVC025 12/09 A2956 RMK AO2 SLP006 T01170094 56023 $
KANB 230920Z AUTO 04009KT 4SM -RA BR BKN009 BKN025 OVC050 12/11 A3000 RMK AO2 RAB0857 P0001 T01170106 $
KAND 230856Z AUTO 05005KT 10SM -RA OVC014 07/03 A3021 RMK AO2 SLP229 P0002 60002 T00720028 56014
KANE 230921Z AUTO 18006KT 2SM BKN014 07/07 A2943 RMK AO2
KANJ 230921Z AUTO 09004KT 1/2SM FG VV002 02/01 A2976 RMK AO2 T00170011
KANK 230915Z AUTO 28006KT 10SM SCT042 SCT060 BKN120 02/M02 A2975 RMK AO1 T00231023
KANQ 230935Z AUTO 18004KT 10SM OVC024 07/02 A2991 RMK
KANW 230935Z AUTO 31019G26KT 10SM CLR 05/01 A2950 RMK AO2 T00450010
KAOH 230853Z AUTO 18010KT 10SM -RA FEW036 BKN055 OVC080 08/05 A2999 RMK AO2 SLP157 P0005 60012 T00780050 58004
KAOO 230853Z AUTO 25004KT 10SM BKN090 07/M03 A3011 RMK AO2 SLP202 T00671033 58004
KAPA 230853Z 03008KT 10SM SCT055 BKN070 OVC120 06/M04 A2960 RMK AO2 SLP991 T00611039 53007
KAPC 230854Z AUTO 02007KT 10SM CLR 06/06 A3026 RMK AO2 SLP237 T00610056 50004 $
KAPF 230853Z AUTO 12006KT 9SM OVC020 22/22 A2999 RMK AO2 SLP155 T02220217 57011
KAPN 230934Z AUTO 14006KT 2SM BR OVC010 03/03 A2983 RMK AO2 VIS 1 RY 19 CIG 007V011 T00280028
KAPY 230850Z AUTO 00000KT 3/4SM BR OVC001 12/12 A2976 RMK AO2 T01300130
KAQO 230915Z AUTO 26003KT 10SM CLR 12/12 A2973 RMK AO2
KAQP 230934Z AUTO 00000KT 10SM CLR 04/00 A2939 RMK AO2
KAQR 230935Z AUTO 17006KT 10SM OVC008 15/15 A2963 RMK AO2
KAQV 230924Z AUTO VRB03KT 3SM RA BR OVC005 18/17 A2969 RMK AO2 CIG 003V009 P0003 T01780172
KAQW 230852Z AUTO 10008KT 5SM UP BR FEW028 OVC033 02/01 A3009 RMK AO2 RAE49UPB49 SLP196 P0002 60010 T00170006 50001
KARA 230927Z AUTO 09011KT 6SM RA BR BKN008 OVC012 19/18 A2971 RMK AO2 LTG DSNT ALQDS TSB00 P0005 T01890178
KARB 230853Z AUTO 20007KT 10SM -RA OVC025 08/04 A2994 RMK AO2 RAB46 SLP143 P0000 60000 T00780044 58002
KARG 230935Z AUTO 13012KT 10SM BKN047 11/07 A2975 RMK AO1
KARM 230915Z AUTO 19003KT 10SM CLR 16/15 A2967 RMK AO2 T01600152
KARR 230852Z AUTO 18010KT 6SM HZ OVC011 11/08 A2979 RMK AO2 SLP089 T01110078 56017 $
KART 230856Z AUTO 21006KT 6SM HZ OVC011 07/04 A2998 RMK AO2 RAE55 SLP156 P0003 60008 T00720044 51008
KARV 230935Z AUTO 17008KT 1/2SM -RA OVC002 05/05 A2953 RMK AO2 T00530046
KARW 230935Z AUTO 05008KT 7SM -RA SCT024 SCT033 OVC046 14/14 A3012 RMK AO2
KASD 230919Z AUTO 08004KT 6SM BR OVC003 18/17 A2977 RMK AO2 T01780167
KASE 230936Z AUTO 02005KT 9SM -SN FEW010 BKN020 OVC050 M02/M04 A2975 RMK AO2 P0000 T10171039
KASH 230851Z AUTO 00000KT 10SM CLR 03/M04 A3007 RMK AO2 51006 T00271038 SLP437
KASJ 230915Z AUTO 00000KT 10SM CLR M01/M02 A3030 RMK AO2 T10061025
KASL 230935Z AUTO 15003KT 7SM SCT004 BKN010 OVC014 15/14 A2967 RMK AO1 P0007 T01460135
KASN 230935Z AUTO 07006KT 10SM -DZ OVC016 13/11 A2999 RMK AO2 T01280112
KAST 230855Z AUTO 22009KT 10SM SCT060 SCT095 BKN120 12/08 A3020 RMK AO2 SLP227 T01170083 51015
KASW 230935Z AUTO 19005KT 10SM -RA SCT040 OVC070 08/06 A2991 RMK AO2
KASX 230853Z AUTO 33003KT 7SM OVC007 02/01 A2951 RMK AO2 SLP002 T00170006 56015
KATL 230852Z 08011KT 5SM RA BR BKN009 OVC043 08/06 A3011 RMK AO2 SLP195 P0020 60027 T00780061 58025 $
KATP 230935Z AUTO 17020G27KT 10SM SCT015 BKN021 BKN027 24/21 A2977 RMK A01
KATT 230851Z AUTO 00000KT 10SM CLR 14/13 A2968 RMK AO2 SLP047 T01390133 55013
KATW 230935Z AUTO 18009KT 5SM BR OVC006 07/07 A2965 RMK AO2
KATY 230853Z AUTO 00000KT 10SM FEW060 BKN090 OVC100 01/M01 A2940 RMK AO2 SLP972 T00111006 50002
KAUG 230853Z AUTO 18005KT 10SM SCT037 OVC065 02/M07 A2995 RMK AO2 SLP146 T00171072 52005
KAUH 230935Z AUTO 18005KT 10SM CLR 11/10 A2944 RMK AO2 T01060098
KAUM 230935Z AUTO 19010G15KT 3SM BR OVC004 09/09 A2951 RMK AO2
KAUN 230935Z AUTO 00000KT 10SM CLR 06/06 A3024 RMK AO1
KAUO 230935Z AUTO 10008G16KT 10SM OVC005 12/11 A3001 RMK AO1 P0003
KAUS 230853Z 23004KT 10SM OVC008 14/14 A2968 RMK AO2 SLP046 T01390139 $
KAUW 230854Z AUTO 12005KT 1/4SM -RA FG VV002 04/04 A2959 RMK AO2 RAB44 SLP036 P0000 60000 T00440044 56022
KAVC 230936Z AUTO 00000KT 10SM SCT015 00/M03 A3034 RMK AO2 T10041028
KAVK 230930Z AUTO 18010KT 10SM FEW026 09/09 A2944 RMK AO2
KAVL 230854Z AUTO 12003KT 10SM OVC022 08/M06 A3022 RMK AO2 SLP227 T00781056 56014
KAVP 230854Z AUTO 10SM OVC095 04/M07 A3013 RMK AO2 RAB24E34 SLP208 P0000 60000 T00391067 58002
KAVX 230851Z AUTO 27007KT 1/2SM FG VV002 14/13 A3006 RMK AO2 SLP165 T01390128 56002
KAWG 230935Z AUTO 19009KT 5SM BR OVC005 11/11 A2966 RMK AO2
KAWM 230907Z AUTO 15011KT 10SM SCT019 BKN026 14/13 A2981 RMK AO2 PRESFR T01440128
KAWO 230935Z AUTO 14010KT 10SM BKN018 OVC025 08/05 A3014 RMK AO1
KAXA 230935Z AUTO 17012KT 5SM BR OVC008 10/10 A2949 RMK AO2
KAXH 230935Z AUTO 14003KT 10SM CLR 11/11 A2965 RMK AO2 LTG DSNT E AND SE T01100110
KAXN 230853Z AUTO 23008KT 6SM BR OVC120 02/01 A2940 RMK AO2 SLP969 T00170006 55001
KAXS 230935Z AUTO 15010KT 1SM BR OVC003 12/11 A2952 RMK AO2 T01150106
KAXV 230933Z AUTO 16009KT 10SM OVC043 07/05 A2998 RMK AO2
KAXX 230935Z AUTO 24011KT 10SM SCT042 BKN048 00/M05 A2977 RMK AO2 T00021055
KAYS 230935Z AUTO 10005KT 5SM RA BKN006 OVC011 19/19 A3003 RMK AO2 T01900187
KAZC 230935Z AUTO 33013G20KT 10SM BKN055 OVC070 09/M06 A3001 RMK AO2 T00891059
KAZE 230935Z AUTO 06008KT 5SM +RA OVC004 15/15 A3005 RMK AO2 T01500150
KAZO 230853Z AUTO 19009KT 7SM -RA OVC016 09/07 A2989 RMK AO2 RAE23B40 SLP125 P0001 60003 T00890067 58007
KBAB 230928Z AUTO 30005KT M1/4SM R15/0400FT UP FG VV001 05/05 A3026 RMK AO2 UPB0926 $
KBAC 230935Z AUTO 25011KT 10SM BKN060 OVC080 02/02 A2937 RMK AO2
KBAD 230915Z AUTO 14006KT 10SM OVC006 16/16 A2968 RMK AO2
KBAF 230853Z 00000KT 10SM -RA OVC060 02/01 A3009 RMK AO2 RAE12B31 SLP196 P0000 60000 T00220006 58001
KBAN 230852Z AUTO 00000KT CLR M04/M08 A3024 RMK AO2 SLP234 T10441078 51016 FZRANO $
KBAX 230935Z AUTO 18003KT 5SM BR OVC022 07/07 A2988 RMK AO2 T00660066
KBAZ 230851Z AUTO 27006KT 10SM FEW095 14/14 A2970 RMK AO2 SLP051 T01390139 55011 $
KBBB 230934Z AUTO 00000KT 10SM SCT110 03/01 A2940 RMK AO2
KBBD 230935Z AUTO 20006KT 10SM CLR 11/10 A2965 RMK
KBBF 230935Z AUTO 26020KT 10SM CLR 21/16 A2970 RMK A01
KBBG 230915Z AUTO 15009KT 10SM OVC016 13/11 A2969 RMK AO2
KBBP 230935Z AUTO 29003KT 7SM RA OVC110 07/05 A3026 RMK AO2 P0001
KBBW 230853Z AUTO 30013KT 10SM SCT120 11/00 A2942 RMK AO2 WSHFT 0816 SLP952 T01110000 56022 PWINO $
KBCB 230935Z AUTO 00000KT 10SM BKN120 M01/M04 A3025 RMK AO2
KBCE 230938Z AUTO 32017G25KT 1/2SM SN FZFG VV017 M02/M04 A2996 RMK AO2 P0000 T10221039
KBCK 230935Z AUTO 18006KT 3SM BR OVC011 11/11 A2956 RMK AO2 T01050105
KBCT 230353Z 13021G30KT 6SM -RA BKN014 BKN021 OVC029 24/22 A3009 RMK LAST
KBDE 230853Z AUTO 17004KT 6SM BR OVC008 01/M01 A2939 RMK AO2 SLP965 T00061011 50001 TSNO
KBDG 230935Z AUTO 31013G18KT 10SM SCT060 BKN080 OVC090 03/M02 A2990 RMK AO1 T00301016
KBDH 230935Z AUTO 28004KT 10SM SCT041 SCT110 04/01 A2940 RMK AO2
KBDL 230851Z 18009KT 10SM BKN090 BKN120 OVC150 07/M07 A3011 RMK AO2 SLP196 60000 T00671067 50002
KBDN 230935Z AUTO 00000KT 10SM CLR M02/M03 A3023 RMK AO2
KBDR 230852Z 24008KT 10SM OVC110 07/M03 A3016 RMK AO2 SLP213 T00721033 55004
KBDU 230937Z AUTO 12003KT 10SM OVC100 06/M02 A2960 RMK AO2
KBEA 230935Z AUTO 00000KT 10SM CLR 13/13 A2974 RMK AO2 T01290129
KBED 230856Z AUTO 22006KT 10SM BKN110 06/M04 A3006 RMK AO2 SLP195 T00611039 51007 TSNO
KBEH 230853Z AUTO 19007KT 8SM SCT019 BKN041 OVC070 09/07 A2985 RMK AO2 SLP112 60000 T00940072 56009
KBFD 230853Z AUTO 23006KT 10SM OVC029 06/M01 A3005 RMK AO2 SLP187 60000 T00611011 56004
KBFF 230853Z AUTO 32012KT 10SM OVC090 03/M03 A2965 RMK AO2 SLP030 T00281028 51042
KBFI 230853Z 17010KT 10SM BKN110 10/06 A3014 RMK AO2 SLP206 T01000061 51012
KBFL 230931Z AUTO 30005KT 7SM FEW027 SCT033 OVC050 13/09 A3019 RMK AO2 T01330089
KBFM 230853Z AUTO 04006KT 9SM OVC006 17/17 A2986 RMK AO2 SLP110 T01720167 56016
KBFW 230934Z AUTO 06006KT 1 1/4SM -DZ OVC002 02/02 A2945 RMK AO2
KBGD 230851Z AUTO 23006KT 10SM CLR 06/M04 A2946 RMK AO2 SLP953 T00611039 56033
KBGE 230935Z AUTO 09009KT 5SM DZ OVC006 17/17 A2995 RMK AO2
KBGF 230935Z AUTO 13021KT 10SM FEW021 12/08 A2997 RMK
KBGM 230853Z AUTO 21006KT 10SM -RA OVC038 04/M01 A3006 RMK AO2 RAB35 SLP191 P0000 60000 T00441011 58001
KBGR 230853Z 20003KT 10SM OVC040 02/M07 A2993 RMK AO2 SLP137 T00221072 51005
KBHB 230935Z AUTO 24003KT 10SM OVC042 04/M02 A2995 RMK AO1
KBHC 230935Z AUTO 06008KT 5SM RA OVC005 16/15 A3004 RMK AO2
KBHK 230851Z AUTO 28017G25KT 10SM CLR 02/M03 A2951 RMK AO2 PK WND 27032/0807 SLP004 60000 T00171028 51015
KBHM 230908Z 09007KT 10SM BKN010 OVC015 13/11 A2999 RMK AO2 CIG 008V012 T01280111
KBID 230935Z AUTO 25017G22KT 10SM BKN090 OVC110 08/M02 A3015 RMK AO1
KBIE 230935Z AUTO 17008KT 10SM SCT021 OVC028 12/10 A2949 RMK AO2 T01230098
KBIF 230858Z AUTO 20006KT 10SM CLR 13/M07 A2987 RMK AO2 SLP071 T01281072 55005 $
KBIH 230856Z AUTO 35018G24KT 10SM CLR 07/M06 A3017 RMK AO2 PK WND 35027/0825 SLP193 T00721056 51027
KBIJ 230935Z AUTO 09007KT 5SM RA BKN007 OVC012 17/17 A2996 RMK AO2
KBIL 230853Z 27013KT 10SM CLR 02/M09 A2971 RMK AO2 SLP069 T00171089 53022 $
KBIS 230852Z 25006KT 10SM BKN100 OVC120 03/02 A2942 RMK AO2 RAE12 SLP974 P0000 60000 T00330017 53015
KBIV 230853Z AUTO 19015G22KT 10SM OVC016 12/08 A2984 RMK AO2 SLP107 T01170078 58011
KBIX 230938Z AUTO 08008KT 4SM R03/4000FT BR BKN002 17/17 A2979 RMK AO2
KBJC 230935Z AUTO 00000KT 10SM SCT060 SCT070 06/M03 A2963 RMK AO2
KBJI 230932Z AUTO 17003KT 1/2SM -SN OVC003 00/00 A2937 RMK AO2 T00000000
KBJJ 230856Z AUTO 19005KT 10SM -RA OVC040 A3005 RMK AO2 RAB21 SLPNO P0000 60000 58003 TSNO
KBKD 230915Z AUTO 16006KT 7SM CLR 11/11 A2959 RMK AO2 T01130109
KBKE 230853Z AUTO 00000KT 10SM CLR M01/M06 A3013 RMK AO2 SLP221 T10061056 51028 $
KBKF 230858Z 35005KT 10SM OVC060 04/M03 A2961 RMK AO2A SLP991 T00431033 53007
KBKL 230853Z AUTO 19013G24KT 10SM OVC042 11/01 A3001 RMK AO2 SLP162 T01060011 56005
KBKN 230935Z AUTO 15010KT 10SM OVC014 13/12 A2951 RMK AO2
KBKS 230935Z AUTO 20003KT 5SM SCT002 15/14 A2975 RMK AO1 T01450136
KBKT 230935Z AUTO 21004KT 10SM CLR 00/M04 A3027 RMK AO1 T10011040
KBKV 230853Z 12010KT 10SM OVC009 22/21 A3001 RMK AO2 CIG 008V012 SLP159 60000 T02170206 58016
KBKW 230851Z AUTO 13007KT 10SM FEW080 OVC095 07/M07 A3017 RMK AO2 SLP215 T00671067 56003
KBLF 230852Z AUTO 11004KT 10SM SCT095 06/M07 A3019 RMK AO2 SLP213 T00611072 56003
KBLH 230852Z AUTO 32005KT 10SM CLR 13/01 A2992 RMK AO2 SLP128 T01330006 51009
KBLI 230853Z AUTO 15007KT 10SM BKN037 OVC050 09/06 A3008 RMK AO2 RAB14E31 SLP193 P0000 60000 T00890056 50010 TSNO
KBLM 230935Z AUTO 25007KT 10SM CLR 05/M07 A3019 RMK AO1
KBLU 230852Z AUTO 04005KT 10SM CLR 02/M04 A3026 RMK AO2 SLP234 T00171039 50005
KBLV 230858Z AUTO 17008KT 10SM CLR 11/07 A2982 RMK AO2 SLP101 T01060067 57020
KBMC 230935Z AUTO 03004KT 10SM SCT035 OVC041 02/M02 A3000 RMK AO1 T00231020
KBMG 230853Z 15007KT 10SM SCT032 OVC075 11/04 A2994 RMK AO2 SLP138 60000 T01060044 56019
KBMI 230856Z AUTO 17011KT 10SM FEW034 SCT049 BKN060 09/07 A2981 RMK AO2 58017 60000 T00880072 BKN V SCT RAB16E44 P0000 SLP097
KBML 230852Z AUTO 00000KT 10SM OVC019 02/M01 A2994 RMK AO2 SLP151 T00171011 51013
KBMQ 230853Z AUTO CLR 12/11 A2970 RMK AO2 SLP050 T01170111 55014 $
KBMT 230935Z AUTO 03009G19KT 10SM -RA SCT060 BKN100 OVC120 16/15 A2961 RMK AO2 LTG DSNT SE AND S T01600150
KBNA 230853Z 14008KT 10SM FEW039 OVC050 13/03 A2998 RMK AO2 PRESFR SLP148 T01280033 58028
KBNL 230935Z AUTO 09005KT -RA BKN002 BKN019 OVC047 12/12 A3018 RMK AO2 P0005
KBNO 230853Z AUTO 30007KT 10SM CLR M02/M04 A3020 RMK AO2 SLP245 T10221044 51019
KBNW 230935Z AUTO 9SM OVC012 12/11 A2953 RMK AO2
KBOI 230853Z 36005KT 10SM CLR 01/M03 A3015 RMK AO2 SLP220 T00061028 51033
KBOK 230856Z AUTO 00000KT 10SM CLR 08/08 A3034 RMK AO2 51008 T00830083 SLP276
KBOS 230854Z 24011KT 10SM FEW060 SCT085 BKN120 OVC250 07/M04 A3008 RMK AO2 SLP185 T00721039 51005
KBOW 230935Z AUTO 12005KT 10SM BKN005 BKN019 21/ A3002 RMK AO2
KBPC 230935Z AUTO 23005KT 10SM CLR 03/01 A2943 RMK AO2
KBPG 230935Z AUTO 18009KT 10SM CLR 08/05 A2966 RMK AO2 T00770046
KBPI 230853Z AUTO 07006KT 10SM CLR M04/M08 A2981 RMK AO2 SLP061 60000 T10391083 51007
KBPK 230920Z AUTO 13006KT 9SM BKN032 BKN065 12/11 A2970 RMK AO2 T01170106
KBPT 230853Z AUTO 29004KT 3SM +RA BR BKN065 OVC085 17/16 A2969 RMK AO2 SLP054 P0036 60109 T01670161 58023
KBQK 230935Z AUTO 09011KT 7SM SCT022 BKN030 OVC050 19/17 A3005 RMK AO1
KBQP 230935Z AUTO 00000KT 10SM -RA OVC010 15/14 A2974 RMK AO2 T01500142
KBRD 230853Z AUTO 17003KT 1/4SM FG VV002 01/01 A2940 RMK AO2 SLP969 T00110011 56013
KBRL 230910Z AUTO 18008KT 10SM OVC030 11/09 A2970 RMK AO2 T01110094 $
KBRO 230853Z 18004KT 10SM CLR 17/17 A2976 RMK AO2 SLP077 60002 T01720167 58011
KBTA 230935Z AUTO 17011KT 10SM OVC012 13/11 A2948 RMK AO2 T01250107
KBTL 230853Z 20013KT 5SM -RA SCT014 BKN020 OVC031 09/07 A2990 RMK AO2 RAB06E34B50 SLP127 P0002 60002 T00940067 58005 $
KBTM 230906Z AUTO 34005KT 9SM BKN029 BKN040 OVC050 M03/M04 A2985 RMK AO2 SNE04 P0000 T10331044
KBTP 230935Z AUTO 23005KT 10SM SCT042 BKN048 OVC060 07/01 A3011 RMK AO1 P0002
KBTR 230853Z AUTO 11012KT 10SM OVC006 18/16 A2978 RMK AO2 RAB02E12 SLP082 P0000 60000 T01780161 56033 TSNO $
KBTV 230854Z 18013G19KT 10SM OVC031 04/01 A2997 RMK AO2 RAB26E47 SLP153 P0000 60003 T00440011 51004
KBUF 230854Z 22009KT 10SM FEW022 BKN034 07/03 A2998 RMK AO2 SLP158 60002 T00670028 58005
KBUR 230853Z 13003KT 10SM CLR 14/08 A3003 RMK AO2 SLP159 T01390083 58003
KBUU 230915Z AUTO 19012G17KT 4SM BR OVC007 09/08 A2973 RMK AO2 T00850081
KBUY 230921Z AUTO 00000KT 10SM BKN014 BKN024 OVC055 04/M03 A3027 RMK AO2 T00441028
KBVE 230934Z AUTO 12004KT 9SM SCT009 BKN013 BKN120 19/19 A2978 RMK AO2 T01940194
KBVN 230935Z AUTO 00000KT 1SM BR BKN002 OVC010 08/07 A2944 RMK AO2 T00770067
KBVO 230924Z AUTO 17011KT 6SM BR OVC005 13/12 A2959 RMK AO2 T01280122
KBVS 230935Z AUTO 14005KT 10SM FEW016 BKN043 OVC050 08/07 A3012 RMK A01 P000
KBVU 230935Z AUTO 36013G19KT 10SM CLR 16/M01 A3002 RMK AO2
KBVX 230935Z AUTO 12007KT 10SM BKN017 BKN050 12/09 A2976 RMK AO1
KBVY 230853Z AUTO 23008KT 10SM FEW100 BKN110 06/M04 A3006 RMK AO2 SLP174 T00611044 51007
KBWD 230915Z AUTO 12005KT 5SM BR SCT033 SCT040 09/09 A2965 RMK AO2
KBWG 230853Z AUTO 11004KT 10SM SCT038 11/03 A3000 RMK AO2 SLP156 T01060028 58018
KBWI 230854Z 22005KT 10SM FEW095 SCT200 06/M08 A3019 RMK AO2 SLP222 T00611078 58013
KBWP 230935Z AUTO 20004KT 5SM BKN100 00/00 A2941 RMK AO1
KBXA 230935Z AUTO 07003KT 4SM BR 17/15 A2980 RMK AO2 T01710153
KBXK 230935Z AUTO 34004KT 10SM FEW060 07/M04 A2994 RMK AO1
KBYG 230853Z AUTO 31019G27KT 10SM CLR 02/M14 A2965 RMK AO2 PK WND 32033/0839 SLP032 T00221139 53015 $
KBYI 230853Z AUTO 27022G34KT 9SM -SN CLR 01/M04 A2998 RMK AO2 PK WND 27035/0838 SNB03E16B32 SLP156 P0000 60000 T00061039 53015
KBYS 230855Z AUTO 02007KT 10SM CLR 11/04 A3002 RMK AO2 SLP158 T01130036 51023 $
KBYY 230935Z AUTO 20006KT 10SM 16/16 A2967 RMK AO2 T01630162
KBZN 230856Z AUTO 24010KT 10SM CLR M01/M03 A2982 RMK AO2 SNB07E24 SLP119 P0000 60000 T10111033 51021
KC09 230935Z AUTO 17005KT 10SM BKN029 OVC050 09/08 A2978 RMK AO2 T00930077
KC29 230915Z AUTO 19010KT 2 1/2SM OVC004 10/09 A2968 RMK AO1 T00960093
KC35 230935Z AUTO 19009G14KT 4SM BR OVC007 09/09 A2964 RMK AO2 T00910086
KC75 230935Z AUTO 18008KT 10SM SCT050 10/07 A2975 RMK AO2 T00970073
KCAD 230934Z AUTO 19006KT 1/4SM FG OVC001 05/05 A2978 RMK AO2 T00510051
KCAE 230856Z 06005KT 6SM -RA BR FEW034 SCT080 OVC110 09/08 A3021 RMK AO2 RAB0758 SLP229 P0003 60008 T00890078 58016
KCAG 230853Z AUTO 26004KT 10SM BKN041 OVC050 M01/M02 A2981 RMK AO2 SLP094 60000 T10061022 53012
KCAK 230851Z 20007KT 10SM -RA OVC037 08/01 A3005 RMK AO2 RAE20B48 SLP183 P0000 60000 T00780011 56003 $
KCAO 230855Z AUTO 26018G27KT 10SM CLR 12/M07 A2953 RMK AO2 PK WND 28030/0828 SLP948 T01221067 55009
KCAR 230854Z AUTO 24005KT 10SM OVC021 01/M03 A2981 RMK AO2 SLP106 T00061028 53016
KCAV 230935Z AUTO 18010KT 1 3/4SM BR OVC004 10/10 A2952 RMK AO2
KCBE 230920Z AUTO 00000KT 10SM CLR 00/M04 A3018 RMK AO1
KCBF 230935Z AUTO 21009KT 3SM BR BKN008 OVC012 12/12 A2951 RMK AO2
KCBG 230936Z AUTO 16004KT 3/4SM HZ BKN003 BKN007 OVC100 06/03 A2941 RMK AO2
KCBK 230935Z AUTO 33011G20KT 10SM BKN075 OVC100 08/01 A2947 RMK AO2
KCBM 230918Z AUTO 13016KT 10SM OVC014 15/12 A2987 RMK AO2 $
KCCA 230935Z AUTO 00000KT 5SM BR OVC019 11/11 A2974 RMK AO2
KCCO 230935Z AUTO 11010G14KT 7SM -RA OVC003 11/11 A3004 RMK AO2 T01080108
KCCR 230937Z 00000KT 3SM BR SCT003 08/08 A3026 RMK AO2 T00830078
KCCU 230935Z AUTO 27018G24KT OVC003 M07/M10 A2972 RMK AO2 PWINO
KCCY 230935Z AUTO 17012KT 1 1/4SM BR OVC004 10/10 A2955 RMK AO2
KCDA 230935Z AUTO 11005KT 7SM -RA SCT014 BKN021 OVC027 02/00 A2997 RMK AO2 T00180000
KCDC 230853Z AUTO 23003KT 10SM BKN050 OVC085 01/01 A3000 RMK AO2 SLP133 60002 T00110006 50000
KCDD 230931Z AUTO 00000KT 1 1/2SM BR OVC007 00/M01 A2945 RMK AO2
KCDH 230935Z AUTO 03006KT 4SM -RA SCT004 OVC013 13/12 A2972 RMK AO2
KCDJ 230852Z AUTO 17006KT 12/10 A2966 RMK AO1 SLP041 T01220100 56022
KCDN 230935Z AUTO 00000KT 3SM -RA FEW002 SCT023 BKN040 08/08 A3024 RMK AO2 P0003 TSNO
KCDR 230853Z AUTO 27012KT 10SM OVC100 03/M02 A2964 RMK AO2 SLP044 T00281022 53036
KCDS 230929Z AUTO 21010KT 3SM BR SCT002 08/08 A2949 RMK AO2 T00830078
KCDW 230853Z AUTO 25004KT 10SM BKN110 05/M07 A3018 RMK AO2 SLP224 T00501067 58003 TSNO
KCEC 230856Z AUTO 10004KT 10SM CLR 09/08 A3034 RMK AO2 SLP276 T00890078 51009
KCEF 230858Z AUTO 19005KT 10SM -DZ FEW006 SCT041 OVC065 05/M05 A3011 RMK AO2 DZB0708 SLP204
KCEU 230854Z AUTO 04006KT 10SM -RA OVC018 08/01 A3023 RMK AO2 SLP233 P0001 60001 T00830006 56014
KCEW 230933Z AUTO 12007G14KT 3SM BR OVC004 18/18 A2989 RMK AO2 T01780178 $
KCEY 230935Z AUTO 14004KT 10SM BKN022 OVC032 12/07 A2989 RMK AO1
KCEZ 230853Z AUTO 34018G25KT 10SM OVC065 04/M01 A2983 RMK AO2 SLP070 T00391011 55003
KCFD 230935Z AUTO 23004KT 10SM OVC003 15/14 A2967 RMK AO2 T01450142
KCFE 230934Z AUTO 00000KT 1 1/2SM BR OVC007 06/05 A2943 RMK AO2 T00550046
KCFS 230905Z AUTO 19005KT 7SM OVC019 08/07 A2987 RMK AO2
KCFV 230852Z AUTO 16010KT 10SM OVC012 13/12 A2958 RMK AO2 RAB0753E02 SLP016 P0000 60000 T01330117 58032
KCGC 230935Z AUTO 13003KT 10SM OVC008 21/20 A2998 RMK AO2
KCGE 230919Z AUTO 18005KT 10SM CLR 03/M04 A3023 RMK AO1
KCGF 230345Z 20014G20KT 7SM -RA SCT035 OVC060 11/03 A3002
KCGI 230853Z AUTO 12008KT 10SM FEW040 10/06 A2985 RMK AO2 PRESFR SLP108 T01000061 58028 TSNO
KCGS 230915Z AUTO 00000KT 10SM CLR 06/M07 A3020 RMK AO1
KCGZ 230935Z AUTO 00000KT 10SM CLR 07/M04 A2996 RMK AO1
KCHA 230853Z 17004KT 5SM -RA OVC023 12/07 A3010 RMK AO2 RAB41 SLP190 P0001 60001 T01170072 58017
KCHD 230347Z 10006KT 15SM SKC 13/01 A2995 RMK LAST
KCHK 230935Z AUTO 15011KT 5SM BR OVC004 12/12 A2955 RMK AO2
KCHO 230853Z AUTO 20006KT 10SM BKN100 02/M07 A3020 RMK AO2 SLP226 T00221067 58013
KCHS 230856Z 05005KT 10SM OVC037 14/13 A3019 RMK AO2 RAE05 SLP221 P0000 60002 T01390128 58020 $
KCIC 230935Z AUTO 00000KT 10SM CLR 05/05 A3029 RMK AO1
KCID 230913Z AUTO 17010KT 5SM BR BKN008 OVC015 10/10 A2963 RMK AO2 CIG 006V011 T01000100
KCIN 230935Z AUTO 21013G20KT 10SM SCT010 BKN014 SCT034 11/10 A2949 RMK AO2
KCIR 230935Z AUTO 13009KT 10SM CLR 13/08 A2984 RMK AO2 T01260080
KCIU 230935Z AUTO 15008KT 1/4SM OVC002 02/02 A2976 RMK AO1
KCJR 230935Z AUTO 00000KT 10SM SCT110 01/M06 A3020 RMK AO2
KCKB 230853Z AUTO 00000KT 10SM CLR 06/M05 A3012 RMK AO2 SLP196 T00561050 58005
KCKC 230901Z AUTO 10006KT M1/4SM OVC001 M01/M02 A2949 RMK AO2
KCKF 230935Z AUTO 09011G17KT 7SM -RA OVC006 17/16 A3002 RMK AO2 T01650155
KCKI 230935Z AUTO 00000KT 5SM DZ SCT041 SCT050 OVC070 12/12 A3023 RMK AO2 P0001
KCKM 230935Z AUTO 12008KT 10SM BKN018 OVC120 14/13 A2979 RMK AO1
KCKN 230934Z AUTO 22010KT 4SM BR OVC005 01/01 A2939 RMK AO2
KCKP 230935Z AUTO 18009KT 7SM SCT015 10/10 A2945 RMK AO2 T01000100
KCKV 230933Z AUTO 14006KT 10SM SCT024 SCT035 11/04 A2992 RMK AO2 T01060044 $
KCLE 230851Z 20010KT 10SM OVC043 09/02 A3005 RMK AO2 SLP177 T00940017 56003 $
KCLI 230935Z AUTO 18008KT 3SM BR OVC003 07/07 A2964 RMK AO2
KCLK 230935Z AUTO 18016KT 5SM BR OVC004 11/10 A2949 RMK AO2
KCLL 230910Z AUTO 22007KT 10SM BKN002 BKN100 14/14 A2964 RMK AO2 T01440139 $
KCLM 230853Z AUTO 00000KT 10SM -RA BKN055 BKN070 OVC085 08/04 A3009 RMK AO2 RAB40 SLP190 P0000 60000 T00780044 52007 $
KCLS 230935Z AUTO VRB03KT 10SM SCT037 BKN047 OVC110 07/06 A3020 RMK AO2
KCLT 230929Z 36005KT 10SM SCT013 BKN034 OVC110 08/M02 A3025 RMK AO2
KCLW 230935Z AUTO 13006KT 10SM OVC009 20/20 A2997 RMK AO2
KCMA 230855Z AUTO 07003KT 10SM CLR 12/07 A3004 RMK AO2 SLP181 T01170072 52006
KCMD 230935Z AUTO 12009KT 10SM BKN017 BKN027 OVC033 11/10 A2997 RMK AO2 T01100095
KCMH 230851Z 00000KT 10SM FEW055 OVC080 09/01 A3006 RMK AO2 RAB09E38 SLP179 P0000 60000 T00890011 56004 $
KCMI 230853Z AUTO 16010KT 10SM OVC065 09/06 A2985 RMK AO2 SLP108 60000 T00940061 56018 $
KCMX 230853Z AUTO 10007KT 8SM OVC008 01/M01 A2957 RMK AO2 CIG 005V010 SLP025 T00111011 58022
KCMY 230935Z AUTO 18005KT 5SM BR OVC011 10/09 A2958 RMK AO2 T01030094
KCNB 230934Z AUTO 27004KT 10SM BKN100 OVC110 05/01 A2940 RMK AO2 T00460010
KCNC 230935Z AUTO 18015G20KT 3SM BR OVC005 11/11 A2960 RMK AO2
KCNI 230935Z AUTO 08005KT 10SM RA OVC013 07/02 A3012 RMK AO2
KCNK 230855Z AUTO 16006KT 10SM OVC017 12/10 A2949 RMK AO2 SLP980 T01220100 58010
KCNM 230853Z AUTO 25026G34KT 10SM CLR 16/M08 A2966 RMK AO2 PK WND 25034/0853 SLP998 T01561078 58034
KCNO 230853Z 00000KT 5SM BR CLR 11/09 A3006 RMK AO2 SLP175 T01060094 51001
KCNU 230933Z AUTO 16010KT 5SM -RA BR OVC009 13/12 A2957 RMK AO2 RAB26 P0000 T01330122
KCNW 230453Z 00000KT 10SM -RA BKN090 OVC120 14/14 A2976
KCNY 230853Z AUTO 34011KT 10SM CLR 03/01 A2985 RMK AO2 SLP101 T00280006 51009
KCOD 230935Z 23011G16KT 10SM BKN090 01/M09 A2973 RMK AO1
KCOE 230935Z AUTO 22004KT 10SM BKN023 M01/M02 A3004 RMK AO1
KCOF 230932Z AUTO 13016G21KT 10SM CLR 23/22 A3000 RMK AO2
KCOM 230935Z AUTO 20005KT 10SM CLR 11/11 A2964 RMK AO2 T01120112
KCON 230851Z AUTO 14003KT 10SM SCT070 BKN095 02/M03 A3003 RMK AO2 SLP173 T00221033 51007
KCOQ 230937Z AUTO 12003KT M1/4SM FG OVC002 02/01 A2941 RMK AO2
KCOS 230854Z 03006KT 10SM FEW095 SCT140 BKN190 03/M06 A2957 RMK AO2 SLP981 T00281056 55011
KCOT 230853Z AUTO 26004KT 10SM CLR 12/11 A2974 RMK AO2 SLP064 T01220106 56011 $
KCOU 230854Z AUTO 16012KT 10SM BKN090 OVC100 12/10 A2970 RMK AO2 SLP056 T01220100 56024 $
KCPC 230935Z AUTO 33003KT 4SM -RA SCT033 SCT050 OVC100 09/09 A3024 RMK AO2 P0002
KCPK 230935Z AUTO 00000KT 10SM SCT042 01/M01 A3030 RMK AO2
KCPR 230853Z AUTO 27005KT 10SM CLR M04/M07 A2972 RMK AO2 SLP072 T10391072 53024
KCPS 230853Z AUTO 16008KT 10SM BKN100 11/06 A2980 RMK AO2 SLP092 T01110061 56022 TSNO
KCPT 230935Z AUTO 20004KT 10SM CLR 12/12 A2965 RMK AO2
KCPW 230934Z AUTO 22018G27KT 1/4SM +SN OVC002 M08/M08 A2977 RMK AO2
KCQB 230935Z AUTO 18008KT 10SM SCT010 OVC023 15/15 A2957 RMK AO2
KCQC 230853Z AUTO 28017G22KT 10SM FEW065 03/M08 A2975 RMK AO2 SLP031 T00281078 58019
KCQF 230935Z AUTO 10009KT 7SM OVC005 18/18 A2981 RMK AO2
KCQM 230934Z AUTO 00000KT 2SM BR OVC003 01/00 A2941 RMK AO2
KCQT 230847Z AUTO 00000KT 10SM FEW009 15/12 A3003 RMK AO2 SLP167 T01500122 58001
KCQW 230935Z AUTO 00000KT 10SM CLR 05/05 A3025 RMK AO2 P0001
KCQX 230852Z AUTO 24012G23KT 10SM BKN070 OVC090 08/02 A3013 RMK AO2 PK WND 23027/0838 SLP204 T00830017 53006
KCRE 230853Z AUTO 04004KT 6SM -RA BR OVC110 11/10 A3024 RMK AO1 SLP239 P0002 60002 T01110100 58009
KCRG 230932Z AUTO 13007KT 2 1/2SM +RA BR BKN009 OVC017 21/19 A3001 RMK AO2 LTG DSNT SE AND S P0016 T02060189
KCRP 230851Z COR 21005KT 10SM FEW018 FEW200 17/16 A2975 RMK AO2 SLP071 OCNL LTGIC DSNT SE CB DSNT SE T01670156 53000 $
KCRQ 230853Z AUTO 08004KT 10SM OVC015 14/12 A3003 RMK AO2 SLP166 T01440122 56006 TSNO
KCRS 230853Z AUTO 31007KT 10SM OVC008 15/14 A2964 RMK AO2 CIG 005V012 SLP033 T01500139 55002
KCRW 230854Z 00000KT 10SM BKN090 04/M02 A3011 RMK AO2 SLP197 T00441017 56008
KCRX 230935Z AUTO 14004KT 7SM OVC017 15/12 A2987 RMK AO2
KCSG 230851Z AUTO 11010KT 7SM -RA OVC006 12/12 A3003 RMK AO2 CIG 004V009 SLP165 P0005 60034 T01220117 56031
KCSM 230853Z AUTO 20014KT 1/2SM FG VV002 11/10 A2951 RMK AO2 SLP983 T01110100 58031
KCSQ 230935Z AUTO 18012G18KT 4SM BR OVC004 11/11 A2956 RMK AO2
KCSV 230853Z AUTO 13005KT 10SM OVC023 12/01 A3008 RMK AO2 SLP177 T01170011 58016
KCTB 230856Z AUTO 28011KT 10SM FEW085 M03/M07 A2971 RMK AO2 SLP081 T10281072 51032
KCTY 230853Z AUTO VRB05KT 19/19 A2998 RMK AO1 SLP152 P0004 60039 T01940194 58023
KCTZ 230935Z AUTO 09004KT 10SM SCT120 08/05 A3026 RMK AO2 T00750054
KCUB 230853Z AUTO VRB03KT 6SM -RA BR FEW042 BKN095 OVC110 09/08 A3023 RMK AO2 RAB08 SLP235 P0005 60009 T00890078 58014
KCUH 230935Z AUTO 17007KT 10SM BKN008 BKN012 OVC026 13/13 A2957 RMK AO2
KCUL 230935Z AUTO 14007KT 10SM BKN044 09/06 A2990 RMK AO2 T00920061
KCUT 230853Z AUTO 30007KT 10SM CLR M01/M10 A2957 RMK AO2 SLP009 T10061100 53021
KCVB 230935Z AUTO 33004KT 7SM CLR 11/11 A2974 RMK AO2 T01140105
KCVC 230935Z AUTO 07008KT 7SM RA BKN007 OVC011 08/07 A3010 RMK AO2
KCVG 230852Z 19008KT 10SM SCT050 OVC075 11/02 A3002 RMK AO2 SLP160 T01110022 58013
KCVH 230930Z AUTO 00000KT 1/2SM VV005 07/07 A3024 RMK AO1
KCVN 230935Z 27021G30KT 10SM CLR 11/M08 A2961 RMK AO1
KCVO 230935Z AUTO 19004KT 10SM SCT065 04/02 A3032 RMK AO1
KCVS 230858Z AUTO 23010KT 10SM CLR 08/M08 A2974 RMK AO2 SLP035
KCVW 230935Z AUTO 29019G27KT 3SM BR 16/16 A2968 RMK A01
KCVX 230935Z AUTO 14005KT 3/4SM BR OVC003 04/04 A2977 RMK AO2 T00410041
KCWA 230935Z AUTO 16009KT M1/4SM FG OVC003 05/05 A2960 RMK AO2
KCWC 230935Z AUTO 17006KT 1/2SM FG OVC001 09/09 A2959 RMK AO2 T00910091
KCWF 230915Z AUTO 05014G21KT 2 1/2SM +RA OVC004 18/17 A2961 RMK AO2 P0017 T01810178
KCWI 230935Z AUTO 19010G16KT 7SM OVC009 09/08 A2971 RMK AO1
KCWN 230856Z AUTO VRB04KT 10SM FEW085 06/M08 A2957 RMK AO2 SLP979 T00641084 56010
KCWV 230935Z AUTO 06007KT 4SM +RA BKN006 BKN009 OVC016 15/15 A3009 RMK AO2
KCXO 230853Z AUTO 19004KT 10SM CLR 16/14 A2962 RMK AO2 RAE06 SLP029 P0001 60020 T01560144 58034
KCXP 230935Z AUTO 00000KT 10SM CLR 00/M05 A3030 RMK AO2
KCXY 230856Z AUTO 00000KT 10SM SCT080 03/M06 A3017 RMK AO2 SLP220 T00281056 56006
KCYS 230853Z AUTO 33015G26KT 10SM CLR 01/M09 A2962 RMK AO2 PK WND 33033/0756 SLP002 T00111089 50013
KCZT 230935Z AUTO 00000KT 10SM CLR 08/08 A2972 RMK AO2
KCZZ 230852Z AUTO 05004KT 02/01 A3003 RMK AO1 SLP152 T00220011 58009
KD07 230856Z AUTO 28012KT 03/M01 A2952 RMK AO1 SLP008 60002 T00281006 53012
KD25 230935Z AUTO 17007KT 1/2SM FG OVC002 03/03 A2952 RMK AO2 T00330033
KD39 230933Z AUTO 23003KT 7SM OVC100 02/01 A2940 RMK AO2 T00180007
KD50 230935Z AUTO 28021G30KT 10SM BKN022 BKN028 OVC039 M02/M05 A2933 RMK AO2
KD55 230935Z AUTO 22011KT 10SM BKN120 M01/M02 A2929 RMK AO2
KD57 230935Z AUTO 26010KT 10SM BKN040 02/M01 A2943 RMK AO2 TSNO
KD60 230915Z AUTO 27017G23KT 10SM OVC022 01/01 A2935 RMK AO2
KD95 230934Z AUTO 21006KT 10SM BKN022 08/06 A2989 RMK AO2 T00810056
KDAA 230858Z AUTO VRB04KT 10SM FEW110 05/M08 A3022 RMK AO2 SLP237 T00481076 58011
KDAB 230932Z 15006KT 3SM -RA BR FEW007 OVC019 22/21 A3000 RMK AO2 RAB09 P0003 T02170206
KDAG 230850Z AUTO 26014G21KT 10SM CLR 14/07 A3005 RMK AO2 SLP158 T01440067 53026
KDAL 230932Z 19006KT 4SM BR OVC003 14/14 A2963 RMK AO2 OVC V BKN T01440139
KDAN 230853Z AUTO 00000KT 10SM CLR 01/M04 A3028 RMK AO2 SLP251 T00061044 56007
KDAW 230851Z AUTO 00000KT 10SM OVC085 03/M04 A3001 RMK AO2 SLP163 T00331039 53005
KDAY 230856Z 18009KT 10SM OVC048 10/02 A3001 RMK AO2 SLP165 60000 T01000022 58007
KDBN 230935Z AUTO 11006KT 7SM RA OVC007 13/13 A3012 RMK AO2
KDBQ 230933Z AUTO 19013KT 1 1/2SM BR OVC002 09/09 A2965 RMK AO2 T00890089 $
KDCA 230852Z 21007KT 10SM SCT110 06/M07 A3022 RMK AO2 SLP233 T00611072 58009
KDCM 230935Z AUTO 04003KT 4SM RA SCT040 BKN049 OVC055 07/02 A3024 RMK AO2 P0002
KDCU 230853Z AUTO 12009KT 10SM OVC019 13/08 A2996 RMK AO2 SLP141 T01280078 58041
KDCY 230935Z AUTO 17011KT 10SM CLR 10/05 A2992 RMK AO2 T00950053
KDDC 230852Z AUTO 17019KT 9SM CLR 09/07 A2940 RMK AO2 PRESFR SLP942 T00940072 58041
KDDH 230929Z AUTO 00000KT 2 1/2SM BR OVC026 03/03 A3006 RMK AO2 RAE00 P0000 T00330028
KDEC 230854Z 17008KT 10SM SCT070 BKN090 10/07 A2983 RMK AO2 SLP100 T01000067 56019
KDED 230935Z AUTO 14007KT 3SM SCT001 BKN006 OVC010 21/20 A3001 RMK AO1 P0006
KDEH 230935Z AUTO 19008G15KT 2 1/2SM BR OVC004 10/10 A2957 RMK AO2
KDEN 230853Z 01012KT 10SM SCT090 BKN110 BKN220 05/M03 A2957 RMK AO2 SLP972 T00501033 53004
KDEQ 230911Z AUTO 11004KT 9SM FEW012 BKN019 OVC027 15/14 A2964 RMK AO2 T01500144
KDET 230853Z 19006KT 10SM BKN029 BKN038 OVC060 09/04 A2995 RMK AO2 SLP145 T00940044 50001
KDEW 230922Z AUTO 15004KT 10SM SCT011 M02/M03 A3004 RMK AO2 T10221028
KDFI 230853Z AUTO 19006KT 10SM -RA SCT031 BKN060 OVC075 08/06 A2997 RMK AO2 SLP150 P0003 60005 T00780061 58003
KDFW 230936Z 24005KT 5SM BR FEW008 BKN200 10/10 A2962 RMK AO2 T01000100 $
KDGW 230853Z AUTO 30009KT 10SM CLR A2967 RMK AO2 SLPNO 52009 $
KDHN 230853Z AUTO 10006G15KT 3SM RA BR BKN005 BKN009 OVC018 16/16 A2998 RMK AO2 RAB06 SLP149 P0003 60018 T01610156 56037
KDHT 230853Z AUTO 29014KT 10SM CLR 08/M06 A2951 RMK AO2 SLP955 T00831061 56016
KDIJ 230929Z AUTO 10005KT 7SM -SN SCT001 BKN048 OVC060 M04/M04 A2986 RMK AO2 P0000
KDIK 230856Z AUTO 26019KT 10SM OVC035 02/M01 A2941 RMK AO2 SLP974 T00221011 51015
KDKB 230935Z AUTO 17013G16KT OVC005 08/08 A2975 RMK AO2 T00800076 PWINO
KDKK 230853Z AUTO 20010G21KT 10SM OVC041 07/02 A3000 RMK AO2 SLP164 60001 T00720017 56004
KDKR 230915Z AUTO 14006KT 10SM SCT008 18/18 A2961 RMK AO2 P0007
KDLF 230858Z AUTO 36007KT 10SM CLR 09/08 A2972 RMK AO2 SLP057 T00870078 57017 $
KDLH 230915Z 11011KT 1/4SM R09/1600V2200FT -DZ FG VV002 02/01 A2942 RMK AO2 P0001 T00170011
KDLL 230915Z AUTO 20011G20KT 5SM BR OVC009 10/08 A2963 RMK AO2 T00950079
KDLN 230853Z AUTO 20009KT 10SM CLR M04/M07 A2984 RMK AO2 SLP126 T10391072 51021
KDLP 230935Z AUTO 16009KT 5SM BR OVC004 21/21 A2975 RMK A01
KDLS 230853Z AUTO 08006KT 10SM SCT036 OVC044 08/03 A3018 RMK AO2 SLP223 T00830033 51018 $
KDLZ 230939Z AUTO 14004KT 10SM OVC070 06/02 A3002 RMK AO2
KDMA 230858Z AUTO 13006KT 10SM CLR 08/M02 A2999 RMK AO2 SLP135 T00781024 55008 $
KDMH 230854Z AUTO 06/M08 A3020 RMK AO1 SLP225 T00611078 58012
KDMN 230853Z AUTO 25016G23KT 10SM CLR 09/M07 A2990 RMK AO2 SLP081 T00891072 58008
KDMO 230853Z AUTO 16012KT 10SM OVC090 13/10 A2966 RMK AO2 SLP043 T01330100 57024
KDMW 230920Z AUTO 18003KT 10SM CLR 04/M08 A3016 RMK AO2
KDNL 230853Z AUTO 08005KT 4SM -RA BR FEW070 OVC100 12/11 A3018 RMK AO2 SLP218 P0007 60019 T01170111 58018
KDNN 230935Z AUTO 00000KT 10SM BKN022 BKN037 OVC050 10/07 A3006 RMK AO2
KDNS 230935Z AUTO 19011KT 9SM FEW009 BKN018 OVC025 11/11 A2948 RMK AO2
KDNV 230935Z AUTO 17007KT 10SM BKN070 OVC080 09/05 A2983 RMK AO2 T00910053
KDOV 230858Z AUTO 18007KT 10SM CLR 04/M05 A3019 RMK AO2 SLP227 T00391051 57014
KDPA 230920Z 17009KT 8SM OVC011 09/08 A2977 RMK AO2 T00940078
KDPL 230935Z AUTO 00000KT 10SM CLR 06/04 A3029 RMK AO2 T00550038
KDQH 230935Z AUTO 07007KT 5SM RA OVC007 17/16 A3005 RMK AO2
KDRA 230852Z AUTO 01017KT 10SM CLR 11/M07 A3008 RMK AO2 SLP159 T01111067 52023 $
KDRI 230935Z AUTO 03003KT 2SM +RA OVC003 18/17 A2970 RMK AO2 LTG DSNT E THRU S P0022 T01770170
KDRM 230935Z AUTO 00000KT 1/4SM FG OVC001 02/02 A2979 RMK AO2 T00200020
KDRO 230853Z AUTO 18003KT 9SM BKN070 BKN090 OVC100 M01/M02 A2979 RMK AO2 SLP076 60000 T10061017 56021
KDRT 230853Z AUTO 00000KT 10SM CLR 09/08 A2972 RMK AO2 SLP054 T00890083 58016
KDSM 230854Z 19010KT 9SM BKN010 OVC015 12/10 A2958 RMK AO2 CIG 008V012 SLP016 T01220100 56021
KDSV 230854Z AUTO 11007KT 10SM OVC037 08/03 A3002 RMK AO2 SLP178 60000 T00780033 58004
KDTA 230915Z AUTO 09003KT 10SM CLR 01/00 A3005 RMK AO1 T00051001
KDTL 230935Z AUTO 20005KT 3/4SM BR OVC002 01/01 A2939 RMK AO2
KDTN 230853Z AUTO 13009KT 6SM -RA BR OVC005 17/16 A2969 RMK AO2 CIG 004V009 SLP051 P0005 60044 T01670156 58020
KDTO 230853Z AUTO 00000KT 7SM CLR 12/11 A2963 RMK AO2 SLP028 T01170111 56016
KDTS 230853Z AUTO 12016G25KT 9SM OVC009 20/18 A2987 RMK AO2 SLP114 60008 T02000183 56033 TSNO
KDTW 230853Z 19009KT 9SM OVC029 09/04 A2996 RMK AO2 SLP147 T00890044 58003 $
KDUA 230935Z AUTO 00000KT 5SM BR OVC006 13/13 A2962 RMK AO2
KDUB 230935Z AUTO 33005KT 10SM SCT060 SCT080 M07/M12 A2976 RMK AO2
KDUC 230935Z AUTO 14006KT 1SM BR OVC002 10/10 A2956 RMK AO2
KDUG 230856Z AUTO 05005KT 10SM CLR 03/M06 A3003 RMK AO2 SLP137 T00281056 51000
KDUH 230935Z AUTO 20004KT 10SM DZ BKN029 OVC080 08/06 A2997 RMK AO2
KDUJ 230853Z AUTO 23008KT 10SM OVC037 07/00 A3007 RMK AO2 SLP192 60000 T00720000 57003
KDUX 230935Z AUTO 28012KT 10SM 07/M06 A2948 RMK AO2 T00701065
KDVK 230935Z AUTO 18007KT 10SM SCT044 BKN050 BKN110 10/03 A3004 RMK AO2
KDVL 230935Z AUTO 22010KT 10SM OVC085 03/M02 A2932 RMK AO1
KDVN 230927Z AUTO 19013KT 5SM BR OVC009 11/09 A2969 RMK AO2 CIG 006V011 T01060089
KDVO 230935Z AUTO 00000KT 08/07 A3027 RMK AO2
KDVP 230936Z AUTO 00000KT 1SM BR OVC001 06/06 A2941 RMK AO2 T00610061
KDVT 230853Z 04004KT 10SM CLR 09/M02 A2994 RMK AO2 SLP129 T00941022 53002
KDWH 230924Z 16003KT 10SM OVC013 17/16 A2964 RMK AO2
KDWU 230935Z AUTO 11003KT 10SM SCT044 SCT055 OVC100 06/M01 A3007 RMK AO1
KDWX 230935Z AUTO 21004KT 10SM OVC024 M01/M03 A2984 RMK AO2 T10101031
KDXR 230853Z AUTO 27003KT 10SM OVC100 04/M08 A3015 RMK AO2 SLP212 T00441078 57005
KDXX 230933Z AUTO 28004KT 10SM SCT075 BKN100 06/01 A2938 RMK AO2
KDYA 230915Z AUTO 08004KT 10SM OVC010 14/ A2988 RMK AO2 T0142
KDYB 230935Z AUTO 01003KT 5SM RA OVC035 12/12 A3020 RMK AO1
KDYL 230854Z AUTO 20005KT 10SM BKN110 03/M05 A3017 RMK AO2 SLP223 T00281050 56007
KDYR 230935Z 14009KT 10SM OVC021 14/06 A2987 RMK AO1
KDYS 230858Z AUTO 19012KT 10SM CLR 12/10 A2960 RMK AO2 SLP007 T01160096 57032 $
KDYT 230933Z AUTO 00000KT 2SM BR OVC003 03/02 A2945 RMK AO2
KDZB 230935Z AUTO 00000KT 10SM CLR 11/11 A2969 RMK AO2 T01140114
KE11 230935Z AUTO 26010KT 10SM CLR 10/M01 A2965 RMK AO2 T01001010
KE16 230935Z AUTO 33007KT 10SM CLR 11/10 A3024 RMK AO2
KE38 230935Z AUTO 24012G20KT 10SM CLR 11/00 A2989 RMK AO2 T01071002
KE80 230935Z AUTO 29013G23KT 10SM CLR 10/M10 A2981 RMK AO2 T00961096
KEAR 230935Z 20005KT 5SM FEW014 07/06 A2947 RMK AO1
KEAT 230855Z AUTO VRB03KT 10SM CLR 04/M02 A3005 RMK AO2 SLP183 T00391017 51025
KEAU 230924Z AUTO 17009KT 2SM BR BKN013 OVC021 07/06 A2950 RMK AO2 VIS 1 1/2V3 T00670061
KEBG 230935Z AUTO 25005KT 1/2SM FG OVC002 18/17 A2977 RMK AO2 T01830170
KEBS 230935Z AUTO 17009KT 8SM OVC007 11/11 A2951 RMK AO2
KECG 230854Z AUTO 00000KT 10SM CLR 04/01 A3030 RMK AO2 SLP259 T00440011 58008 TSNO
KECP 230853Z AUTO 09008KT 10SM OVC004 18/17 A2990 RMK AO2 SLP135 6//// T01830172 56032 PNO $
KECS 230935Z AUTO 31010KT 10SM CLR 00/M06 A2965 RMK AO2
KECU 230910Z AUTO 10SM CLR 11/07 A2975 RMK AO2
KEDC 230935Z AUTO 25005KT 10SM OVC006 14/14 A2969 RMK AO2
KEDE 230935Z AUTO 00000KT 10SM 03/01 A3029 RMK AO2 T00260011
KEDJ 230930Z AUTO 15007KT 10SM OVC043 06/05 A3000 RMK AO1
KEDN 230935Z AUTO 10008KT 7SM RA OVC004 16/15 A2991 RMK AO2 P0003
KEDU 230935Z AUTO 33005KT 1/4SM OVC001 10/10 A3026 RMK AO1
KEDW 230907Z AUTO 22012G22KT 10SM CLR 13/06 A3007 RMK AO2 WSHFT 0857
KEED 230856Z AUTO 33005KT 10SM CLR 14/M02 A2993 RMK AO2 SLP117 T01391017 51010
KEEN 230935Z AUTO 00000KT 10SM OVC027 02/M01 A3007 RMK AO1
KEEO 230853Z AUTO 21004KT 10SM FEW001 SCT042 OVC050 M01/M02 A2981 RMK AO2 SNE45 SLP073 P0000 60004 T10061017 53001
KEET 230903Z AUTO 10006KT 10SM OVC009 14/12 A2996 RMK AO2 T01390122
KEFD 230850Z 19005KT 7SM BKN020 OVC080 17/17 A2968 RMK PRESSRR
KEFK 230935Z AUTO 23005KT 10SM -DZ OVC020 03/01 A2996 RMK AO2 T00310014
KEFT 230935Z AUTO 19014G18KT 1 1/2SM -DZ OVC003 08/08 A2968 RMK AO2
KEGE 230935Z AUTO 00000KT 10SM SCT048 BKN110 01/00 A2978 RMK AO1
KEGI 230859Z AUTO 11011G15KT 10SM OVC006 18/17 A2988 RMK AO2 $
KEGV 230915Z AUTO 17006KT 1/2SM FG OVC002 03/03 A2956 RMK AO2 T00320032
KEHC 230935Z AUTO 28025KT 3SM HZ CLR 19/16 A2976 RMK A01
KEHO 230935Z AUTO 04004KT 10SM SCT020 BKN035 OVC044 06/M01 A3024 RMK AO2 T00631012
KEHR 230935Z AUTO 13006KT 10SM CLR 10/03 A2991 RMK AO1
KEHY 230935Z AUTO 26016KT 10SM CLR M02/M05 A2970 RMK AO2
KEIK 230935Z AUTO 36007KT 10SM OVC085 06/M04 A2962 RMK AO2 T00581037
KEIR 230935Z AUTO 19020G26KT 7SM BKN024 OVC095 24/21 A2974 RMK A01
KEKN 230851Z AUTO 00000KT 10SM FEW070 M02/M02 A3017 RMK AO2 SLP229 T10171022 56002 TSNO
KEKO 230856Z AUTO 12006KT 10SM CLR M01/M04 A3015 RMK AO2 SLP210 T10111044 53015
KEKQ 230856Z AUTO VRB03KT 10SM FEW049 12/03 A3008 RMK AO2 56016 T01160033 SLP184
KELD 230853Z AUTO 08004KT 4SM -RA BR OVC008 14/13 A2974 RMK AO2 CIG 008V011 SLP067 P0012 60062 T01390133 58031
KELM 230853Z AUTO 00000KT 10SM BKN043 OVC065 06/02 A3006 RMK AO2 RAB19E28 SLP185 P0000 60000 T00610022 58002
KELN 230853Z AUTO 25006KT 10SM CLR 03/00 A3006 RMK AO2 SNB0754E12 SLP190 P0000 60000 T00330000 51013
KELO 230933Z AUTO 00000KT 2 1/2SM BR OVC005 01/00 A2943 RMK AO2
KELP 230851Z 16011KT 10SM CLR 12/M06 A2988 RMK AO2 SLP073 T01171061 56006 $
KELY 230853Z AUTO 34011G22KT 10SM FEW039 M01/M01 A3012 RMK AO2 SLP173 T10111011 51017 $
KELZ 230856Z AUTO 23010KT 10SM OVC029 07/01 A3004 RMK AO2 RAE04 SLP186 P0000 60001 T00720006 56003
KEMK 230935Z AUTO 00000KT 5SM HZ FEW004 SCT030 BKN046 20/15 A2970 RMK A01
KEMM 230910Z AUTO 26017G20KT 2SM -SN BKN006 OVC010 M03/M04 A2982 RMK AO2
KEMP 230853Z AUTO 16013KT 6SM BR OVC006 12/12 A2955 RMK AO2 SLP004 T01220117 58028
KEMT 230346Z 00000KT 10SM CLR 17/11 A3005
KEMV 230935Z AUTO 00000KT 10SM SCT013 00/M02 A3031 RMK AO2
KEND 230858Z AUTO 17011KT 10SM BKN009 12/11 A2950 RMK AO2 SLP988 T01190111 57038 $
KENL 230935Z AUTO 16010KT 10SM SCT037 11/05 A2983 RMK AO2 T01050045
KENV 230935Z AUTO 32020G25KT 10SM CLR 02/M08 A3010 RMK AO1
KENW 230853Z AUTO 21012KT 5SM BR OVC007 10/09 A2975 RMK AO2 SLP079 T01000089 58017
KEOE 230935Z AUTO 04006KT 10SM RA SCT021 BKN044 OVC049 05/ A3023 RMK AO2 P0009
KEOK 230935Z AUTO 19007G14KT 10SM OVC038 12/10 A2968 RMK AO2
KEPH 230853Z AUTO 19003KT 10SM CLR 01/M02 A3005 RMK AO2 SLP186 T00111022 51027 $
KEQA 230935Z AUTO 17010G14KT 10SM BKN008 OVC015 13/12 A2950 RMK AO2
KEQY 230903Z AUTO 00000KT 10SM SCT019 OVC055 08/M03 A3025 RMK AO2 T00781033
KERI 230851Z 21010KT 10SM OVC046 10/01 A3002 RMK AO2 SLP167 T01000006 55001
KERV 230935Z AUTO 00000KT 5SM BR SCT001 08/08 A2972 RMK AO2 T00830077
KERY 230934Z AUTO 16006KT 1/2SM FG OVC002 02/02 A2973 RMK AO2 T00190019
KESC 230935Z AUTO 12005KT 1/4SM OVC002 03/02 A2967 RMK AO1
KESF 230853Z AUTO 14009KT 10SM -RA OVC005 18/17 A2974 RMK AO2 LTG DSNT S SLP070 P0004 60006 T01780167 56027
KESN 230933Z AUTO 24003KT 10SM CLR 04/M04 A3026 RMK AO2 T00401043
KEST 230931Z AUTO 19008KT 5SM BR BKN007 OVC010 09/08 A2945 RMK AO2 T00890083
KETB 230915Z AUTO 20009KT 7SM OVC009 09/07 A2970 RMK AO2
KETC 230935Z AUTO 00000KT 10SM CLR 01/00 A3031 RMK AO2 T00101004
KETH 230936Z AUTO 28003KT 10SM BKN095 01/M01 A2942 RMK AO2
KEUF 230858Z AUTO 05004KT 10SM -RA OVC007 16/ A2997 RMK AO2 RAB21 SLP148 P0003 60015 T0156 58033 $
KEUG 230854Z AUTO 16003KT 10SM SCT037 SCT048 04/04 A3033 RMK AO2 SLP271 60000 T00440039 51019
KEVM 230931Z AUTO 00000KT 1SM BR OVC003 01/01 A2942 RMK AO2
KEVV 230854Z AUTO 16007KT 10SM FEW039 11/04 A2995 RMK AO2 SLP141 T01060039 56016
KEVW 230917Z AUTO 27011KT 6SM -SN BR OVC031 M04/M05 A2987 RMK AO2 P0000 T10391050
KEWB 230853Z AUTO 24009KT 10SM SCT060 OVC075 08/M02 A3012 RMK AO2 SLP200 T00781017 53006
KEWK 230935Z AUTO 19015KT 10SM OVC012 12/09 A2950 RMK AO1
KEWN 230854Z AUTO 00000KT 10SM CLR 07/04 A3029 RMK AO2 SLP258 T00670039 56008
KEWR 230851Z 23007KT 10SM BKN110 OVC200 06/M05 A3018 RMK AO2 SLP218 T00561050 58006
KEXX 230935Z AUTO 00000KT 10SM SCT020 OVC060 04/M01 A3026 RMK AO2 T00431010
KEYE 230853Z AUTO 16006KT 10SM BKN065 10/04 A2992 RMK AO2 SLP133 60000 T01000039 56022
KEYF 230935Z AUTO 00000KT 10SM -RA OVC100 08/06 A3025 RMK AO2 T00750064
KEYW 230853Z AUTO 13011KT 10SM SCT023 26/26 A2997 RMK AO2 SLP148 T02560256 58016 $
KEZF 230935Z AUTO 19004KT 10SM CLR 03/M07 A3021 RMK AO2
KEZM 230935Z AUTO 10007KT 5SM RA OVC005 15/15 A3010 RMK AO2 T01470147
KEZS 230935Z AUTO 18006KT 1SM BR OVC003 09/08 A2964 RMK AO2 T00850079
KF05 230936Z AUTO 17012KT 5SM BKN002 BKN006 11/10 A2952 RMK AO2
KF44 230935Z AUTO 32003KT 10SM BKN014 OVC110 15/14 A2960 RMK AO2
KF46 230935Z AUTO 21004KT 5SM BR CLR 14/14 A2962 RMK AO2 T01400140
KF70 230935Z AUTO 00000KT 7SM CLR 10/09 A3006 RMK AO1
KFAF 230858Z AUTO 24001KT 10SM CLR 02/M02 A3028 RMK AO2 SLP257 T00231024 58007 $
KFAM 230935Z AUTO 12004KT 10SM BKN033 11/07 A2979 RMK AO1
KFAR 230919Z 18008KT 3SM BR FEW003 00/M01 A2939 RMK AO2 T00001011
KFAT 230853Z 31014KT 6SM BR SCT016 BKN018 12/11 A3017 RMK AO2 SLP216 T01170106 50006
KFAY 230853Z AUTO 03007KT 10SM CLR 04/00 A3025 RMK AO2 SLP239 T00440000 58014
KFBG 230936Z AUTO 35005KT 10SM CLR 05/00 A3025 RMK AO2
KFBL 230934Z AUTO 18008KT 10SM OVC010 11/09 A2947 RMK AO2
KFBR 230935Z AUTO 26014G20KT 10SM SCT006 SCT012 SCT019 M03/M03 A2987 RMK AO2 T10311035
KFCI 230855Z AUTO 00000KT 10SM CLR M01/M10 A3027 RMK AO1 57010
KFCM 230853Z AUTO 20008KT 7SM BKN011 OVC019 11/09 A2944 RMK AO2 SLP973 T01060089 56015
KFCS 230922Z AUTO 24011KT 10SM CLR 07/M06 A2955 RMK AO2 WSHFT 19
KFDK 230915Z AUTO 18003KT 10SM CLR 04/M05 A3020 RMK AO2
KFDR 230920Z AUTO 18011KT 3SM BR OVC003 12/11 A2951 RMK AO2 T01170111 $
KFDW 230935Z AUTO 06008KT 7SM -RA OVC008 07/07 A3021 RMK AO1
KFDY 230853Z AUTO 21008KT 9SM -RA OVC080 08/06 A2999 RMK AO2 SLP154 P0002 60004 T00830056 58003
KFEP 230935Z AUTO 19009KT 2SM BR OVC004 09/09 A2972 RMK AO2 T00910087
KFET 230935Z AUTO 15007KT 10SM SCT032 BKN040 12/11 A2947 RMK AO2 T01210106
KFEW 230856Z AUTO 31018G26KT 10SM FEW130 BKN160 BKN190 00/M08 A2958 RMK AO2 PK WND 32030/0753 SLP994 T00011079 50013 $
KFFA 230935Z AUTO 18003KT 10SM CLR 12/08 A3028 RMK AO2 T01220076
KFFC 230853Z AUTO 10005KT 3SM RA BR OVC006 10/09 A3008 RMK AO2 CIG 004V009 SLP187 P0019 60041 T01000094 58018
KFFL 230935Z AUTO 18009KT OVC007 11/10 A2966 RMK AO2
KFFM 230934Z AUTO 23005KT 4SM BR CLR 01/00 A2943 RMK AO2
KFFO 230858Z AUTO 17008KT 10SM OVC049 11/03 A3002 RMK AO2 RAE0757 SLP169 P0000 60000 T01050026 57008
KFFT 230853Z AUTO 15006KT 10SM SCT040 BKN050 OVC090 09/03 A3003 RMK AO2 SLP167 T00940033 56012
KFFX 230932Z AUTO 19007KT 10SM OVC013 08/07 A2980 RMK AO2 T00820072
KFGN 230934Z AUTO 16014KT 4SM BR OVC012 01/M01 A2937 RMK AO2
KFGX 230915Z AUTO 18008KT 10SM BKN047 BKN090 10/02 A3006 RMK AO2 T00960018
KFHB 230935Z AUTO 12005KT 3SM BKN023 OVC027 22/20 A3002 RMK AO1
KFHR 230853Z AUTO 14011KT 10SM -RA OVC007 08/07 A3010 RMK AO2 RAB50 SLP192 P0000 60000 T00830072 51008
KFHU 230856Z AUTO VRB03KT 10SM CLR 06/M03 A3002 RMK AO2 SLP138 T00561033 58006 $
KFIG 230854Z AUTO VRB03KT 8SM -RA BKN043 BKN055 OVC070 02/01 A3010 RMK AO2 RAB49 SLP207 P0000 60000 T00170006 51001
KFIT 230852Z AUTO VRB04KT 10SM FEW110 06/M03 A3007 RMK AO2 SLP184 T00611033 53007
KFKA 230935Z AUTO 20012G17KT 4SM BR OVC003 09/08 A2954 RMK AO2 T00870081
KFKL 230935Z AUTO 22006KT 10SM OVC038 07/M01 A3007 RMK AO1
KFKN 230935Z AUTO 00000KT 10SM CLR M01/M03 A3030 RMK AO1
KFKR 230935Z AUTO 14004KT 10SM CLR 08/06 A2990 RMK AO2 T00820057
KFKS 230932Z AUTO 16006KT 3SM BR OVC013 08/07 A2975 RMK AO2 T00750070
KFLD 230853Z AUTO 20015G19KT 8SM OVC008 09/07 A2968 RMK AO2 SLP055 T00940072 58016
KFLG 230857Z AUTO 25014G23KT 10SM CLR 03/M06 A2998 RMK AO2 SLP096 T00281061 58008 TSNO
KFLL 230853Z 13015G22KT 10SM FEW018 BKN036 26/22 A3001 RMK AO2 SLP160 T02560217 58013
KFLO 230853Z 00000KT 7SM -RA BKN110 09/07 A3024 RMK AO2 RAB05 SLP237 P0001 60002 T00890072 58010
KFLP 230935Z AUTO 14003KT 10SM OVC032 14/09 A2970 RMK AO1
KFME 230918Z AUTO 22004KT 10SM CLR 04/M07 A3022 RMK AO1
KFMH 230935Z AUTO 25017KT 10SM BKN065 OVC075 08/01 A3013 RMK AO2
KFMM 230935Z AUTO 35015G23KT 10SM OVC065 05/M04 A2965 RMK AO2 T00471045
KFMN 230853Z AUTO VRB03KT 10SM FEW050 OVC070 04/00 A2981 RMK AO2 SLP079 T00440000 55008
KFMY 230910Z AUTO 13005KT 7SM BKN005 OVC020 22/21 A2999 RMK AO2 T02170211
KFNB 230853Z AUTO 15007KT 5SM BR OVC006 12/11 A2955 RMK AO2 SLP004 T01170111 58027
KFNL 230935Z AUTO 35024G37KT 10SM SCT120 A2964 RMK AO1
KFNT 230932Z AUTO 20007KT 10SM BKN020 BKN026 11/07 A2989 RMK AO2 T01060067
KFOA 230935Z AUTO 15008KT 10SM CLR 08/04 A2987 RMK AO2 T00800036
KFOD 230935Z AUTO 19011KT 10SM OVC008 11/09 A2951 RMK AO1
KFOE 230853Z 16010KT 3SM BR OVC009 13/12 A2958 RMK AO2 CIG 006V010 SLP012 T01330117 56015
KFOK 230853Z AUTO 25013KT 10SM OVC110 08/M03 A3019 RMK AO2 SLP223 T00781033 55003 TSNO
KFOT 230935Z AUTO 13008KT 1/4SM BKN001 07/07 A3034 RMK AO1
KFOZ 230933Z AUTO 14003KT 1SM BR OVC003 01/00 A2939 RMK AO2
KFPK 230935Z AUTO 20009KT 7SM OVC015 10/08 A2987 RMK AO2 T00970078
KFPR 230914Z AUTO 12015G23KT 8SM -RA SCT017 BKN025 OVC040 23/22 A3002 RMK AO2 PK WND 13027/0854 P0000 T02330217
KFQD 230935Z AUTO 00000KT 10SM OVC024 08/M04 A3024 RMK AO2 T00751036
KFRG 230853Z AUTO 24010KT 10SM BKN110 07/M04 A3017 RMK AO2 SLP217 T00721044 58009
KFRI 230933Z AUTO 20006KT 10SM BKN008 OVC015 13/13 A2950 RMK AO2 BKN V OVC
KFRM 230935Z AUTO 19009KT 10SM BKN011 10/08 A2946 RMK AO1
KFRR 230935Z AUTO 00000KT 10SM CLR 06/M06 A3016 RMK AO1
KFSD 230856Z AUTO 00000KT 8SM BKN110 06/04 A2940 RMK AO2 SLP963 T00560044 56023
KFSE 230935Z AUTO 18008KT 4SM BR OVC005 00/M01 A2937 RMK AO2
KFSI 230858Z AUTO 18008KT 10SM OVC002 12/12 A2954 RMK AO2 SLP000 T01170117 57034
KFSM 230853Z AUTO 05005KT 7SM FEW016 OVC023 13/12 A2967 RMK AO2 SLP045 T01280117 56024
KFSO 230935Z AUTO 18005KT 7SM UP OVC025 03/02 A2997 RMK AO2 T00310017
KFST 230853Z AUTO 23014KT 10SM CLR 12/01 A2975 RMK AO2 SLP039 T01170006 56025
KFSW 230935Z AUTO 18009KT 10SM BKN036 OVC060 12/10 A2970 RMK AO2
KFTG 230936Z AUTO 30003KT 10SM SCT049 OVC060 05/M02 A2964 RMK AO2
KFTK 230932Z AUTO 15011KT 10SM OVC034 12/03 A2999 RMK AO2
KFTN 231030Z AUTO 24005KT 10SM CLR 12/10 A2974 RMK AO1
KFTW 230853Z 21004KT 10SM CLR 13/12 A2963 RMK AO2 SLP029 T01280117 56011
KFTY 230853Z AUTO 04007KT 5SM RA BR OVC013 07/05 A3012 RMK AO2 SLP198 P0008 60009 T00720050 56019
KFUL 230853Z 07004KT 10SM CLR 13/12 A3003 RMK AO2 SLP167 T01330117 58002
KFVE 230853Z AUTO 26011KT 10SM BKN012 OVC045 M01/M03 A2977 RMK AO2 SLP094 T10111028 53016
KFVX 230915Z AUTO 00000KT 10SM CLR 01/M07 A3025 RMK AO2 T00051069
KFWA 230854Z 19007KT 10SM -RA BKN031 BKN044 OVC080 07/06 A2995 RMK AO2 RAE31B49 SLP145 P0000 60009 T00720061 58008
KFWB 230915Z AUTO 12008G14KT 9SM OVC018 12/12 A2968 RMK AO2
KFWC 230935Z AUTO 14007KT 10SM BKN038 10/04 A2987 RMK AO1 T01040043
KFWN 230853Z AUTO 21006KT 10SM FEW080 OVC100 04/M06 A3015 RMK AO2 SLP212 T00391061 56004
KFWS 230935Z AUTO 19004KT 4SM BR CLR 12/11 A2965 RMK AO2 T01150109
KFWZ 230935Z AUTO 15003KT 10SM CLR M05/M17 RMK AO2
KFXE 230932Z 12015KT 10SM SCT019 SCT029 BKN040 25/22 A3002 RMK AO2 T02500222
KFXY 230910Z AUTO 19010KT 5SM BR OVC005 10/10 A2951 RMK AO2
KFYG 230915Z AUTO 13007KT 10SM OVC100 13/08 A2973 RMK AO2
KFYJ 230935Z AUTO 16003KT 10SM CLR 03/M03 A3029 RMK AO2 T00331035
KFYM 230935Z AUTO 36019G42KT 10SM CLR 12/07 A2995 RMK
KFYV 230853Z AUTO 17012G23KT 10SM OVC016 14/12 A2966 RMK AO2 SLP040 T01440122 58013 $
KFZG 230915Z AUTO 07006KT 4SM RA BKN004 OVC010 16/14 A3008 RMK AO2 T01550140
KFZY 230854Z AUTO 19005KT 9SM -RA OVC023 06/04 A3001 RMK AO2 RAE13B33 SLP166 P0001 60008 T00610039 50004
KGAD 230935Z 07008KT 10SM OVC019 10/07 A3002 RMK AO1
KGAF 230935Z AUTO 18008KT 5SM BR FEW006 00/00 A2934 RMK AO2
KGAG 230853Z AUTO 19015KT 10SM SCT008 09/08 A2945 RMK AO2 SLP963 T00940083 56039
KGAI 230935Z 17003KT 10SM BKN090 04/M08 A3022 RMK AO1
KGBD 230935Z AUTO 18008KT 10SM OVC014 11/08 A2944 RMK AO1
KGBG 230935Z AUTO 15006KT 10SM BKN010 OVC034 09/08 A2972 RMK AO2 T00930081
KGBK 230935Z AUTO 19021G27KT 10SM BKN018 BKN025 BKN085 24/21 A2980 RMK A01
KGCC 230753Z AUTO 29007KT 10SM CLR M02/M08 A2964 RMK AO2 SLP049 T10171083
KGCD 230935Z AUTO 00000KT 10SM SCT039 SCT070 02/M02 A3021 RMK AO2 T00211022
KGCK 230927Z AUTO 20008KT 4SM BR SCT003 05/05 A2939 RMK AO2 T00500050
KGCM 230935Z AUTO 15007KT 7SM CLR 12/11 A2963 RMK AO2
KGCN 230854Z AUTO 22006KT 10SM CLR M01/M07 A2998 RMK AO2 SLP116 T10061067 58002
KGDB 230933Z AUTO 00000KT 7SM BKN120 04/01 A2939 RMK AO2 T00360014
KGDJ 230935Z AUTO 00000KT 10SM CLR 12/11 A2965 RMK AO2 P0002 T01210109
KGDP 230851Z AUTO 25040G48KT 10SM CLR 08/M07 A2978 RMK AO2 PK WND 26052/0752 SLP034 T00781067 55024
KGDV 230935Z AUTO 27026G36KT 10SM BKN039 02/M02 A2947 RMK AO1
KGED 230854Z AUTO 18003KT 10SM CLR 02/M03 A3025 RMK AO2 SLP243 T00221028 56015
KGEG 230853Z VRB04KT 10SM FEW003 00/M02 A3002 RMK AO2 SLP181 T00001017 53027
KGEV 230935Z AUTO 23004KT 10SM BKN026 07/M01 A3021 RMK AO2 T00731012
KGEY 230853Z AUTO 12004KT 10SM CLR M07/M07 A2972 RMK AO2 SLP092 T10671072 53017
KGEZ 230853Z AUTO 16009KT 10SM BKN060 OVC075 09/04 A2996 RMK AO2 SLP144 60001 T00940044 58019
KGFA 230856Z AUTO 26011G20KT 10SM BKN100 02/M07 A2976 RMK AO2 SLP099 T00151066 52029
KGFK 230853Z AUTO 21010KT 6SM BR OVC006 01/M01 A2937 RMK AO2 SLP953 T00061006 53002 TSNO
KGFL 230926Z AUTO 18004KT 3SM BR OVC022 02/00 A3006 RMK AO2 T00170000
KGGE 230935Z AUTO 00000KT 10SM DZ SCT060 OVC070 A3022 RMK AO2
KGGG 230853Z AUTO 15012KT 7SM RA SCT075 OVC095 16/14 A2964 RMK AO2 SLP034 P0006 60028 T01560144 56041
KGGI 230935Z AUTO 17012KT 5SM BR SCT003 OVC013 11/10 A2961 RMK AO2 T01050096
KGGP 230935Z AUTO 15007KT 10SM OVC044 07/05 A2990 RMK AO2
KGGW 230905Z AUTO 31027G36KT 10SM BKN024 BKN028 OVC036 00/M05 A2951 RMK AO2 PK WND 31036/0901 T00001050
KGHB 230940Z AUTO 27029G39KT M1/4SM FZFG OVC005 A2981 RMK A01
KGHG 230935Z AUTO 25008G18KT 10SM SCT110 08/M02 A3010 RMK AO2
KGHW 230933Z AUTO 22008KT 7SM CLR 02/01 A2940 RMK AO2
KGIC 230935Z AUTO 23008KT 10SM OVC045 01/M03 A3012 RMK AO1 T00101026
KGIF 230937Z AUTO 13007KT 10SM BKN006 OVC025 21/21 A3003 RMK AO2 T02110206
KGJT 230923Z AUTO 30005KT 8SM SCT001 SCT013 SCT080 M01/M01 A2983 RMK AO2 T10061006
KGKJ 230853Z AUTO 20009KT 10SM OVC035 07/M01 A3004 RMK AO2 SLP179 T00721011 58004 TSNO
KGKT 230935Z AUTO 00000KT 10SM FEW065 01/M01 A3011 RMK
KGKY 230923Z AUTO 22003KT 10SM BKN005 13/12 A2963 RMK AO2 T01330117
KGLD 230853Z AUTO 34009KT 10SM BKN110 05/M06 A2948 RMK AO2 SLP960 T00501056 55004
KGLE 230935Z AUTO 17004KT 2 1/2SM BR CLR 11/11 A2964 RMK AO2 T01080106
KGLH 230853Z AUTO 12012KT 10SM OVC013 15/13 A2978 RMK AO2 SLP089 T01500128 58039
KGLR 230853Z AUTO 18006KT 1/4SM FG VV002 03/03 A2979 RMK AO2 SLP099 T00280028 56009
KGLS 230852Z AUTO 16004KT 9SM CLR 17/16 A2967 RMK AO2 SLP046 60035 T01670161 55040
KGLW 230935Z AUTO 14003KT 10SM SCT042 10/02 A2998 RMK AO2 T00990022
KGLY 230935Z AUTO 16008KT 10SM BKN021 OVC080 13/11 A2963 RMK AO2
KGMJ 230935Z AUTO 16009G14KT 10SM OVC016 16/13 A2962 RMK AO2
KGMU 230853Z AUTO 04006KT 8SM -RA BKN018 OVC024 08/00 A3023 RMK AO2 RAE0756B41 SLP238 P0001 60001 T00780000 58014
KGNA 230856Z AUTO 09009KT 03/01 A2953 RMK AO1 SLP007 T00330006 58027
KGNC 230935Z AUTO 26012KT 10SM CLR 12/M05 A2965 RMK AO2 T01211048
KGNF 230935Z AUTO 10007KT 5SM BR OVC008 13/13 A2982 RMK AO2
KGNR 230856Z AUTO 00000KT 01/M02 A2984 RMK AO1 SLP122 T00111022 51010
KGNT 230937Z AUTO 28018G29KT 10SM SCT085 BKN100 06/M08 A2986 RMK AO2
KGNV 230920Z AUTO 12005KT 5SM -RA BR BKN005 BKN010 OVC015 19/19 A3001 RMK AO2 P0006 T01890189
KGOK 230921Z AUTO 18011KT 9SM BKN011 OVC017 13/12 A2954 RMK AO2 T01280117
KGON 230856Z AUTO 25012G19KT 7SM OVC090 07/M01 A3015 RMK AO2 SLP210 T00721011 50000
KGOO 230940Z AUTO 06006KT 10SM CLR 05/01 A3025 RMK AO1
KGOP 230935Z AUTO 25004KT 10SM CLR 12/12 A2968 RMK AO2 PWINO
KGOV 230935Z AUTO 18004KT 1/2SM FG OVC002 05/05 A2980 RMK AO2 T00490049
KGPH 230955Z AUTO 14004KT 10SM -RA 11/11 A2960 RMK AO2
KGPI 230855Z AUTO 07003KT 10SM OVC060 M01/M04 A2985 RMK AO2 SLP129 T10061039 53028
KGPM 230935Z AUTO 22003KT 10SM SCT004 13/13 A2964 RMK AO2 T01290129
KGPT 230853Z AUTO 08010KT 6SM BR OVC003 17/17 A2980 RMK AO2 SLP091 T01720167 58035
KGPZ 230935Z AUTO 15004KT 1SM OVC002 02/M01 A2939 RMK AO1
KGRB 230921Z AUTO 19008KT 6SM BR OVC009 08/08 A2967 RMK AO2 T00830078
KGRD 230856Z AUTO 02004KT 7SM -RA BKN008 BKN012 OVC090 06/04 A3023 RMK AO2 SLP235 P0006 60008 T00560039 58014
KGRF 230858Z AUTO 15008KT 9SM -RA FEW028 BKN033 OVC043 08/07 A3017 RMK AO2 UPB0814E0853RAE0801B0829DZB0801E0814 SLP222 P0004 60006 T00750073 52014 $
KGRK 230858Z AUTO 25004KT 10SM OVC140 13/12 A2966 RMK AO2 SLP040 T01310123 56011
KGRR 230936Z AUTO 18009KT 8SM OVC014 08/06 A2984 RMK AO2 T00830061
KGRY 230935Z AUTO 19010G16KT 9SM FEW016 SCT032 BKN080 24/22 A2975 RMK A01
KGSB 230858Z AUTO 00000KT 10SM BKN160 04/03 A3027 RMK AO2 SLP254 T00390029 57009 $
KGSH 230936Z AUTO 19012KT 10SM -RA SCT024 SCT035 OVC080 09/06 A2989 RMK AO2 RAB03E18B34 P0000 T00890061
KGSO 230854Z 00000KT 7SM BKN049 OVC250 04/M04 A3026 RMK AO2 SLP249 T00441039 56007
KGSP 230853Z AUTO 05005KT 10SM OVC020 08/M02 A3022 RMK AO2 RAE0755 SLP231 P0000 60000 T00831022 58012
KGTB 230927Z AUTO 25007KT 10SM OVC006 05/05 A2998 RMK AO2 RAE0857DZB0857E0902
KGTF 230853Z 24011KT 10SM OVC095 00/M07 A2973 RMK AO2 SLP093 T00001067 51030
KGTR 230935Z AUTO 13016G21KT 10SM OVC013 15/12 A2986 RMK AO1
KGTU 230935Z 24005KT 10SM FEW008 13/12 A2967 RMK AO1
KGUC 230935Z AUTO 25008KT 3SM SCT006 BKN013 OVC021 00/M03 A2976 RMK AO1
KGUL 230935Z AUTO 4SM HZ FEW015 SCT031 BKN040 20/17 A2981 RMK A01
KGUP 230853Z AUTO 23010KT 10SM CLR 03/M08 A2989 RMK AO2 SLP066 T00281083 56005
KGUR 230915Z AUTO 29004KT 10SM CLR 03/00 A2967 RMK AO2 T00331005 PWINO
KGUS 230925Z AUTO 15007KT 10SM OVC045 08/08 A2990 RMK AO2
KGUY 230853Z AUTO 00000KT 10SM CLR 02/M03 A2943 RMK AO2 SLP946 T00171028 58026
KGVL 230853Z AUTO 07008KT 8SM -RA OVC013 06/03 A3018 RMK AO2 SLP217 P0003 60005 T00610028 58017
KGVT 230935Z AUTO 00000KT 10SM OVC005 15/13 A2963 RMK AO2
KGVX 230935Z AUTO 16020KT 10SM BKN004 BKN050 BKN060 19/16 A2964 RMK A01
KGWB 230935Z AUTO 19004KT 10SM -RA SCT030 BKN042 OVC080 07/05 A2994 RMK AO2
KGWO 230853Z AUTO 14007KT 10SM OVC013 16/13 A2982 RMK AO2 SLP098 T01610133 56031 TSNO
KGWR 230935Z AUTO 24010KT 10SM BKN100 02/01 A2940 RMK A01 P000
KGWW 230935Z AUTO 00000KT 10SM SCT040 03/01 A3029 RMK AO2 T00270010
KGXA 230855Z AUTO 10012G19KT 10SM CLR 11/06 A3009 RMK AO2 SLP177 T01060056 53011 PWINO TSNO $
KGXY 230935Z AUTO 35029G34KT 10SM CLR 04/M06 A2961 RMK AO1
KGYB 230935Z AUTO 23004KT 5SM BR BKN002 OVC008 15/15 A2971 RMK AO2 T01500145
KGYH 230935Z AUTO 04004KT 10SM -RA OVC013 05/00 A3022 RMK AO2
KGYI 230935Z AUTO 17007KT 10SM OVC005 15/15 A2962 RMK AO2 T01450145
KGYL 230934Z AUTO 20006KT 5SM BR BKN010 09/08 A2943 RMK AO2 T00850081
KGYR 230347Z 00000KT 10SM SKC 13/02 A2994 RMK LAST
KGYY 230915Z AUTO 16010KT 10SM SCT050 OVC075 11/08 A2982 RMK AO2 T01050078
KGZH 230853Z AUTO 12006KT 10SM -RA OVC005 17/16 A2990 RMK AO2 RAB45 SLP124 P0000 60000 T01720161 56031
KGZL 230855Z AUTO 11006KT 5SM BR OVC018 12/12 A2963 RMK AO2
KH21 230935Z AUTO 13008KT 10SM SCT022 BKN110 11/10 A2968 RMK AO2
KHAF 230935Z AUTO 00000KT 9SM FEW003 10/07 A3025 RMK AO2
KHAI 230935Z AUTO 20008KT 10SM OVC020 09/07 A2989 RMK AO2 T00920068
KHAO 230853Z AUTO 11004KT 10SM BKN050 OVC075 10/02 A3003 RMK AO2 SLP167 T01000022 58012
KHBG 230930Z AUTO 08005KT 1 3/4SM BR OVC003 16/15 A2982 RMK AO2 T01560150
KHBI 230935Z AUTO 00000KT 10SM SCT026 SCT031 OVC050 04/M01 A3028 RMK AO2 T00441006
KHBR 230853Z AUTO 20015KT 1 1/2SM BR OVC002 11/11 A2952 RMK AO2 SLP990 60000 T01110111 58043
KHBV 230935Z AUTO 24005KT 7SM CLR 13/12 A2976 RMK AO2 T01340122
KHCD 230932Z AUTO 00000KT 1/4SM FG BKN006 BKN011 BKN016 04/04 A2945 RMK AO2 T00370037
KHCO 230933Z AUTO 19010KT 3SM BR OVC004 01/00 A2934 RMK AO2
KHDC 230935Z AUTO 11005KT 10SM OVC007 18/16 A2979 RMK AO2
KHDE 230935Z AUTO 00000KT 1 1/2SM BR SCT018 07/06 A2945 RMK AO2 T00670060
KHDN 230935Z AUTO 28011G17KT 1 1/2SM BKN010 OVC017 M02/M04 A2981 RMK AO1
KHDO 230851Z AUTO 27007KT 10SM CLR 07/07 A2975 RMK AO2 SLP065 T00720072 56006 $
KHEF 230935Z 00000KT 10SM BKN095 M01/M03 A3021 RMK AO1
KHEI 230853Z AUTO 28015G23KT 10SM CLR 02/M02 A2950 RMK AO2 PK WND 28028/0840 SLP005 T00171017 53022
KHEQ 230935Z AUTO 36020G28KT 10SM CLR 07/M01 A2961 RMK AO2
KHEY 230853Z AUTO 10008KT 5SM -RA BR OVC004 16/16 A2996 RMK AO2 RAB0758E09B42 SLP132 P0001 60005 T01610156 56031
KHEZ 230935Z AUTO 14011G16KT 10SM OVC010 17/14 A2976 RMK AO1
KHFD 230853Z AUTO 18007KT 10SM SCT060 OVC110 06/M06 A3014 RMK AO2 SLP207 T00561061 51004
KHFF 230906Z AUTO 13004KT 10SM FEW034 BKN130 05/04 A3026 RMK AO2
KHFJ 230935Z AUTO 14006KT 10SM OVC013 12/11 A2964 RMK AO2
KHGR 230853Z AUTO 17006KT 10SM CLR 05/M07 A3015 RMK AO2 SLP222 T00501072 58010
KHHF 230935Z AUTO 22004KT 10SM CLR 08/07 A2944 RMK AO2 T00780071
KHHG 230915Z AUTO 18003KT 10SM RA SCT034 BKN039 OVC060 07/06 A2993 RMK AO2 T00720062
KHHR 230853Z AUTO 00000KT 9SM FEW008 15/13 A3004 RMK AO2 SLP170 T01500133 58000
KHHV 230935Z AUTO 33010G16KT 3SM BR CLR 18/16 A2977 RMK A01
KHHW 230935Z AUTO 00000KT 7SM OVC011 16/15 A2962 RMK AO2 T01560145
KHIB 230853Z AUTO 00000KT 1SM BR OVC002 01/00 A2942 RMK AO2 SLP976 T00110000 56022
KHIE 230852Z AUTO 00000KT 10SM -RA BKN022 OVC032 05/02 A2996 RMK AO2 RAB09 SLP155 P0000 60000 T00500022 51010
KHIF 230937Z AUTO 29009KT 1 1/2SM -SN BR BKN014 OVC021 00/00 A2999 RMK AO2 VIS 1 1/2V5 SNB0902 CIG 014V025
KHII 230935Z AUTO 06004KT 10SM SCT050 14/00 A2994 RMK AO2
KHIO 230853Z AUTO 06003KT 6SM -RA BR SCT016 BKN042 OVC070 07/04 A3026 RMK AO2 RAB00E14B44 SLP247 P0000 60000 T00670044 51019
KHJH 230935Z AUTO 17005KT 10SM BKN022 OVC027 12/09 A2947 RMK AO2 T01200091
KHJO 230853Z AUTO 32005KT 3SM BR OVC019 10/09 A3019 RMK AO2 SLP225 T01000089 51013
KHKA 230938Z AUTO 14008KT 10SM BKN024 BKN030 17/11 A2983 RMK AO2 T01720106 $
KHKS 230853Z AUTO 12013G19KT 10SM OVC008 16/14 A2981 RMK AO2 SLP086 T01610139 56034
KHKY 230938Z AUTO 00000KT 10SM SCT024 OVC043 06/M01 A3024 RMK AO2 T00611011
KHLC 230930Z AUTO 08004KT 10SM SCT024 09/07 A2944 RMK AO2 T00940072
KHLG 230853Z AUTO 21005KT 10SM BKN050 OVC070 11/M03 A3008 RMK AO2 SLP194 60000 T01061033 58004
KHLN 230917Z AUTO 27012G24KT 10SM SCT029 02/M06 A2979 RMK AO2 PK WND 27028/0858 PRESRR T00171056
KHLR 230856Z AUTO 24003KT 10SM CLR 14/13 A2965 RMK AO2 SLP068 T01390128 56011 $
KHLX 230935Z AUTO 21005KT 10SM CLR 03/M06 A3022 RMK AO2 T00341063
KHMN 230858Z AUTO 13007KT 10SM CLR 05/M08 A2980 RMK AO2 SLP056 T00451078 58010 $
KHNB 230935Z AUTO 18008KT 130V190 10SM FEW044 12/04 A2995 RMK AO1
KHND 230856Z AUTO 01019G25KT 10SM CLR 16/M05 A3001 RMK AO2 51018 T01551050 SLP151
KHNR 230935Z AUTO 20007KT 4SM BR OVC005 11/11 A2955 RMK AO2
KHNZ 230935Z AUTO 21003KT 10SM CLR 01/M02 A3028 RMK AO2 T00131016
KHOB 230935Z AUTO 25009KT 10SM CLR 09/M04 A2969 RMK AO2
KHOE 230915Z AUTO 10004KT 4SM +RA BKN005 BKN008 OVC020 18/18 A3002 RMK AO2
KHON 230855Z AUTO 28005KT 10SM OVC075 02/M01 A2943 RMK AO2 SLP973 T00171006 55001
KHOP 230930Z AUTO 13005KT 10SM SCT024 BKN032 13/05 A2992 RMK AO2
KHOT 230933Z AUTO 11005KT 10SM OVC009 15/13 A2968 RMK AO2 T01500133
KHOU 230853Z 19006KT 10SM FEW020 SCT100 OVC170 17/17 A2967 RMK AO2 SLP050 60033 T01720167 55030
KHPN 230856Z VRB05KT 10SM FEW075 BKN100 06/M07 A3015 RMK AO2 SLP213 T00561072 58002
KHQI 230935Z AUTO 24014G19KT 3SM BR FEW004 SCT015 BKN036 19/17 A2979 RMK A01
KHQM 230853Z AUTO 19010KT 7SM FEW050 SCT065 OVC090 10/08 A3016 RMK AO2 SLP217 T01000083 51014
KHQU 230935Z AUTO 00000KT 2SM OVC001 10/10 A3021 RMK AO1 T01000100
KHQZ 230935Z AUTO 00000KT 7SM CLR 14/13 A2964 RMK AO1 T01370133
KHRI 230853Z AUTO 22011KT 10SM CLR 06/00 A3016 RMK AO2 SLP213 T00610000 51020
KHRJ 230935Z AUTO 00000KT 10SM CLR 05/00 A3026 RMK AO2 T00460000
KHRL 230852Z 31003KT 10SM CLR 16/16 A2977 RMK AO2 SLP079 60004 T01610161 55005
KHRO 230853Z AUTO 16015KT 10SM OVC015 14/12 A2968 RMK AO2 SLP048 T01390117 56034
KHRT 230928Z AUTO 12015G21KT 10SM OVC005 19/17 A2985 RMK AO2
KHRX 230935Z AUTO 21013KT 10SM CLR 11/M05 A2955 RMK AO2 T01111049
KHSB 230935Z AUTO 12006KT 10SM SCT048 10/06 A2987 RMK AO2 T00970061
KHSE 230851Z AUTO 18004KT 10SM FEW043 13/11 A3029 RMK AO2 SLP256 T01280106 58012 TSNO
KHSI 230853Z AUTO 18006KT 10SM FEW028 11/08 A2945 RMK AO2 SLP968 T01060083 58021
KHSP 230935Z AUTO 23008KT 10SM SCT060 SCT095 06/M08 A3016 RMK AO2 T00611082
KHST 230858Z AUTO 10008KT 10SM CLR 24/22 A3000 RMK AO2 SLP162 T02430222 57014 $
KHSV 230853Z AUTO 12016KT 10SM OVC019 13/06 A2995 RMK AO2 SLP138 T01280061 58042 $
KHTL 230853Z AUTO 15004KT 1/2SM FG VV002 05/04 A2982 RMK AO2 SLP107 T00500044 58007
KHTS 230851Z 00000KT 10SM OVC100 07/M02 A3008 RMK AO2 SLP186 T00721022 58010
KHUA 230858Z AUTO 12012G16KT 10SM OVC018 13/07 A2995 RMK AO2 PRESFR SLP141 T01250072 57042
KHUF 230853Z 17009KT 10SM FEW095 09/04 A2991 RMK AO2 SLP128 T00940039 56019
KHUL 230853Z AUTO 20006KT 10SM OVC024 M01/M07 A2986 RMK AO2 SLP117 T10061067 53015
KHUM 230935Z AUTO 08014G19KT 7SM OVC005 19/18 A2971 RMK AO2 LTG DSNT N NE AND SW T01860181
KHUT 230852Z AUTO 17012KT 5SM BR OVC004 12/10 A2950 RMK AO2 SLP979 T01170100 56035
KHVN 230853Z AUTO 25008KT 10SM BKN100 OVC110 09/M04 A3016 RMK AO2 SLP213 T00891044 57002
KHVR 230912Z AUTO 29017G28KT 10SM SCT024 BKN031 OVC060 02/M03 A2971 RMK AO2 PK WND 30028/0906 T00171028
KHVS 230915Z AUTO 00000KT 5SM SCT039 SCT060 OVC120 A3026 RMK AO2
KHWD 230854Z AUTO 00000KT 10SM CLR 12/08 A3024 RMK AO2 SLP251 60002 T01220083 50005
KHWO 230853Z AUTO 12012KT 10SM FEW020 SCT030 BKN037 25/22 A3002 RMK AO2 SLP166 60000 T02500217 58014
KHWV 230856Z AUTO 23007KT 10SM OVC110 07/M02 A3018 RMK AO2 SLP220 T00671017 55006 TSNO
KHWY 230935Z AUTO 00000KT 10SM CLR 03/M04 A3019 RMK AO2 T00301040
KHXD 230935Z AUTO 02005KT 4SM -RA SCT024 BKN037 15/15 A3013 RMK AO2 P0005
KHYA 230856Z 23015KT 10SM OVC070 09/01 A3011 RMK AO2 SLP196 60000 T00940006 53003
KHYI 230935Z 26005KT 10SM CLR 13/13 A2971 RMK AO1
KHYR 230917Z AUTO 18008KT 1 3/4SM BR OVC003 04/03 A2947 RMK AO2 T00390033
KHYS 230935Z AUTO 19006KT 10SM OVC018 11/06 A2944 RMK AO1
KHYW 230935Z AUTO 00000KT 5SM -RA CLR 10/10 A3024 RMK AO2 P0002
KHYX 230935Z AUTO 19007KT 10SM OVC018 08/08 A2986 RMK AO2
KHZE 230935Z AUTO 23010KT 10SM BKN032 OVC038 03/00 A2940 RMK AO2
KHZL 230935Z AUTO 00000KT 10SM BKN070 OVC100 04/M07 A3014 RMK AO2
KHZR 230935Z AUTO 09006KT 5SM RA OVC006 18/17 A2974 RMK AO2 P0008 T01750170
KHZX 230927Z AUTO 00000KT M1/4SM OVC002 02/02 A2940 RMK AO2
KHZY 230853Z AUTO 19007KT 10SM OVC041 07/01 A3003 RMK AO2 SLP176 T00720006 58002
KI16 230935Z AUTO 10SM OVC110 03/00 A3020 RMK AO2 T00261004
KI35 230935Z AUTO 09004KT 10SM CLR 08/00 A3011 RMK AO1
KI39 230935Z AUTO 00000KT 10SM BKN043 BKN050 OVC100 10/01 A3005 RMK AO2
KI67 230935Z AUTO 21004KT 10SM OVC075 11/02 A3000 RMK AO1
KI69 230937Z AUTO 17003KT 10SM OVC080 10/02 A3003 RMK AO1
KI75 230935Z AUTO 16011G16KT 5SM BR OVC006 12/11 A2958 RMK AO2 T01150105
KIAB 230938Z AUTO 16012KT 10SM BKN009 OVC017 12/12 A2949 RMK AO2
KIAD 230852Z 19004KT 10SM FEW100 04/M08 A3020 RMK AO2 SLP227 T00391078 58007
KIAG 230853Z AUTO 23013KT 10SM OVC032 08/04 A2998 RMK AO2 SLP159 60000 T00780044 52001 $
KIAH 230926Z 18004KT 10SM SCT009 SCT015 BKN100 17/16 A2965 RMK AO2
KIBM 230935Z AUTO 35014G18KT 10SM CLR 01/M02 A2964 RMK AO2 T00131024
KICL 230935Z AUTO 18007KT 5SM BR OVC005 11/11 A2956 RMK AO2
KICR 230853Z AUTO 30016KT 10SM CLR 04/00 A2947 RMK AO2 SLP980 T00440000 53019
KICT 230853Z 18011KT 10SM BKN010 OVC016 13/11 A2951 RMK AO2 CIG 007V013 SLP985 60000 T01280111 58035
KIDA 230853Z AUTO 20011KT 10SM OVC100 00/M01 A2987 RMK AO2 SLP129 T00001011 53014
KIDI 230935Z AUTO 23004KT 10SM OVC050 09/M02 A3014 RMK A01
KIDP 230935Z AUTO 18011KT 7SM OVC008 13/12 A2957 RMK AO2
KIEN 230852Z AUTO 22004KT 10SM FEW060 BKN075 OVC090 02/01 A2961 RMK AO2 RAB02E34UPB34E38 SLP029 P0000 60000 T00220006 51037
KIER 230935Z AUTO 14007KT 7SM -RA SCT012 BKN028 OVC044 18/17 A2970 RMK AO2 T01750172
KIFA 230935Z AUTO 18009KT 5SM BR OVC004 10/09 A2956 RMK AO2 T00980092
KIFP 230935Z AUTO 00000KT 10SM CLR 13/M02 A2997 RMK AO2 PWINO
KIGM 230851Z AUTO 26006KT 10SM CLR 09/M03 A2998 RMK AO2 SLP108 T00941028 53005
KIGQ 230935Z AUTO 18010KT 10SM BKN035 OVC070 09/08 A2982 RMK AO2 T00900075
KIGX 230856Z AUTO 00000KT 10SM FEW009 OVC050 03/M02 A3029 RMK AO2 SLP256 T00331022 56009
KIIB 230935Z AUTO 18014KT 5SM BR OVC006 10/09 A2960 RMK AO2
KIIY 230935Z AUTO 04003KT 4SM RA OVC005 08/08 A3017 RMK AO2
KIJD 230852Z AUTO 20006KT 10SM BKN060 OVC120 06/M07 A3014 RMK AO2 SLP206 T00611067 50001
KIJX 230915Z AUTO 16007KT 10SM CLR 12/08 A2975 RMK AO2 T01160080
KIKK 230935Z AUTO 16013G18KT 10SM SCT050 BKN070 OVC080 09/07 A2982 RMK AO2 T00870065
KIKT 230935Z AUTO 16008G16KT 10SM CLR 24/23 A2977 RMK A01
KIKV 230935Z AUTO 19008KT 10SM OVC012 12/11 A2957 RMK AO2
KIKW 230934Z AUTO 19003KT 10SM BKN015 BKN024 OVC031 09/08 A2985 RMK AO2 T00850076
KILE 230935Z AUTO 27004KT 10SM CLR 13/10 A2965 RMK AO1
KILG 230851Z AUTO 16004KT 10SM CLR 03/M04 A3020 RMK AO2 SLP227 T00331039 58013
KILM 230853Z AUTO 00000KT 9SM CLR 08/07 A3025 RMK AO2 SLP244 T00830072 58012
KILN 230854Z AUTO 19007KT 10SM BKN055 OVC070 08/02 A3003 RMK AO2 SLP180 T00830017 58008
KIML 230853Z AUTO 30016G23KT 10SM OVC070 09/M04 A2956 RMK AO2 PK WND 35026/0814 SLP994 T00941039 53016
KIMM 230955Z AUTO 00000KT 4SM CLR 21/ A3002 RMK A01 P000
KIMT 230918Z AUTO 14005KT 1/4SM FG VV001 01/01 A2963 RMK AO2 T00110006
KIND 230854Z 15010KT 10SM BKN060 OVC080 09/03 A2992 RMK AO2 SLP133 60000 T00940033 56021
KINF 230935Z AUTO 15006KT 10SM OVC010 21/20 A3000 RMK AO2
KINJ 230915Z AUTO 00000KT 5SM BR CLR 14/12 A2965 RMK AO2 T01350122
KINK 230853Z AUTO 26007KT 10SM CLR 08/M01 A2969 RMK AO2 SLP026 T00831011 56026
KINL 230932Z AUTO 15003KT 2 1/2SM BR OVC006 01/M01 A2941 RMK AO2 T00061006 $
KINS 230858Z AUTO 35012KT 10SM CLR 10/M07 A3007 RMK AO2 SLP159 T01011075 52023
KINT 230854Z AUTO 00000KT 10SM OVC055 04/M03 A3028 RMK AO2 SLP254 T00391033 56008
KINW 230856Z AUTO 24013KT 10SM CLR 07/M06 A2992 RMK AO2 SLP098 T00721056 58002
KIOB 230935Z AUTO 20004KT 10SM SCT040 SCT045 BKN095 09/02 A3007 RMK AO2
KIOW 230922Z AUTO 17009KT 5SM BR BKN005 OVC010 11/10 A2967 RMK AO2 CIG 004V008 T01060100
KIPJ 230935Z AUTO 00000KT 10SM BKN049 OVC060 06/01 A3025 RMK AO2 T00550007
KIPL 230853Z AUTO 17003KT 10SM CLR 14/05 A2990 RMK AO2 SLP124 T01390050 53003
KIPN 230935Z AUTO 17018G23KT 10SM FEW027 BKN035 26/22 A2979 RMK A01
KIPT 230854Z AUTO 00000KT 6SM BR BKN055 OVC070 00/M02 A3015 RMK AO2 SLP214 T00001017 58001
KIRK 230855Z AUTO 18010KT 10SM OVC033 12/10 A2968 RMK AO2 SLP053 T01220100 58012
KIRS 230934Z AUTO 19009KT 10SM OVC022 08/07 A2989 RMK AO2
KISN 230905Z AUTO 28025G33KT 10SM OVC028 03/M03 A2938 RMK AO2 PK WND 28033/0904 T00331028
KISO 230935Z AUTO 00000KT 10SM CLR 05/02 A3030 RMK AO2 T00450022
KISP 230856Z AUTO 23008KT 10SM OVC110 07/M03 A3016 RMK AO2 SLP213 T00671033 58006
KISQ 230934Z AUTO 13004KT 3/4SM BR OVC002 04/03 A2970 RMK AO2 T00350034
KISW 230854Z AUTO 17008KT OVC012 09/08 A2962 RMK AO2 SLP038 T00890078 56018 $
KITH 230856Z AUTO 19004KT 10SM OVC039 07/02 A3006 RMK AO2 58002 T00720022 SLP185
KITR 230853Z AUTO 33016G22KT 10SM FEW080 OVC110 10/M07 A2951 RMK AO2 SLP957 T01001067 53004
KIWA 230935Z AUTO 10007KT 10SM CLR 07/M02 A2996 RMK AO2
KIWD 230935Z AUTO 18003KT 5SM OVC005 05/04 A2947 RMK AO1
KIWI 230853Z AUTO 23004KT 10SM FEW100 04/M04 A2997 RMK AO2 SLP150 T00391039 53000
KIXA 230935Z AUTO 00000KT 10SM CLR 00/M02 A3030 RMK AO2
KIXD 230853Z AUTO 16009KT 10SM SCT009 OVC018 11/10 A2961 RMK AO2 SLP022 T01110100 56028
KIYA 230935Z AUTO 09009G16KT 050V110 7SM -RA BKN007 OVC013 18/18 A2968 RMK AO2 T01800176
KIZA 230935Z AUTO 00000KT 10SM CLR 13/08 A3009 RMK AO2
KIZG 230854Z AUTO 24007KT 210V290 10SM FEW046 BKN085 BKN110 06/01 A2996 RMK AO2 SLP150 T00560006 53010
KJAC 230935Z AUTO 00000KT 3SM BKN023 OVC029 M07/M08 A2982 RMK AO1
KJAN 230915Z AUTO 14012KT 10SM OVC007 16/14 A2980 RMK AO2 T01610144
KJAS 230935Z AUTO 15003KT 5SM RA SCT037 BKN043 OVC070 16/16 A2971 RMK AO2 P0011 T01640156
KJAX 230924Z 12008KT 3SM RA BR SCT007 BKN011 OVC026 20/20 A3002 RMK AO2 P0010 T02000200
KJBR 230924Z AUTO 07004KT 10SM SCT024 BKN048 08/07 A2980 RMK AO2 $
KJCT 230851Z AUTO 00000KT 8SM CLR 10/09 A2971 RMK AO2 SLP033 T01000094 58019
KJDD 230935Z AUTO 00000KT 10SM OVC017 16/16 A2964 RMK AO2
KJDN 230848Z AUTO 29020G29KT 02/M02 A2956 RMK AO1 PK WND 28030/0821 SLP025 T00171022 53024
KJEF 230853Z AUTO 15007KT 10SM OVC090 13/10 A2972 RMK AO2 SLP051 T01330100 56027
KJER 230853Z AUTO 24021G28KT 10SM CLR 00/M03 A3003 RMK AO2 PK WND 26032/0817 SLP181 T00001033 51020
KJES 230935Z AUTO 08006KT 5SM RA OVC004 18/17 A3005 RMK AO2
KJFK 230851Z 24009KT 10SM FEW080 BKN110 BKN170 06/M03 A3019 RMK AO2 SLP223 T00611028 56007 $
KJFX 230935Z AUTO 11006KT 2 1/2SM BR BKN011 OVC018 14/12 A2995 RMK A02 P-128
KJFZ 230935Z AUTO 14004KT 10SM SCT110 10/00 A3016 RMK AO2 T01010000
KJGG 230935Z AUTO 21003KT 10SM SCT022 03/M01 A3030 RMK AO1
KJHW 230935Z AUTO 21006KT 10SM OVC031 06/00 A3003 RMK AO1
KJKA 230935Z AUTO 09011KT 5SM BR OVC005 20/20 A2981 RMK AO2 T01980195
KJKJ 230931Z AUTO 18006KT 1/2SM FG OVC003 01/01 A2939 RMK AO2
KJKL 230853Z AUTO 00000KT 10SM OVC095 11/M01 A3009 RMK AO2 SLP185 T01111006 56009
KJLN 230853Z AUTO 15008KT 10SM OVC019 14/12 A2962 RMK AO2 SLP027 T01440117 58027
KJMR 230940Z AUTO 19005KT 1/2SM FG OVC001 03/02 A2943 RMK AO2
KJMS 230856Z AUTO 27008KT 10SM FEW080 OVC095 03/01 A2936 RMK AO2 SLP952 T00330011 51015
KJNX 230935Z AUTO 00000KT 10SM CLR 03/01 A3027 RMK AO2
KJOT 230935Z AUTO 17005KT 10SM OVC031 10/07 A2980 RMK AO2 T00970066
KJQF 230935Z AUTO 00000KT 10SM SCT010 OVC020 06/00 A3029 RMK AO2
KJSO 230935Z AUTO 10008G16KT 10SM RA SCT004 OVC100 16/15 A2960 RMK AO2 T01630156
KJST 230854Z AUTO 22006KT 10SM BKN055 OVC075 08/M04 A3010 RMK AO2 SLP204 T00781039 58003
KJSV 230935Z AUTO 09007KT 7SM SCT015 BKN023 BKN028 13/12 A2964 RMK AO2
KJTC 230935Z AUTO 25020G31KT 10SM CLR 05/M09 A2996 RMK AO2
KJVL 230935Z AUTO 18007KT 2SM BR OVC004 10/08 A2971 RMK AO2
KJVW 230915Z AUTO 13011G16KT 10SM OVC009 16/13 A2979 RMK AO2
KJWG 230935Z AUTO 17011G15KT 7SM OVC006 12/12 A2950 RMK AO2 T01150115
KJWY 230935Z AUTO 16003KT 1 1/4SM BR BKN002 13/13 A2964 RMK AO2 T01250125
KJXN 230856Z 22011KT 10SM OVC023 09/07 A2991 RMK AO2 RAB19E29 SLP134 P0000 60000 T00940067 58006
KJYG 230935Z AUTO 18010KT 5SM BR SCT017 11/09 A2944 RMK AO2
KJYL 230935Z AUTO 07007KT 5SM RA SCT004 BKN027 OVC045 14/14 A3014 RMK AO2 T01430140
KJYM 230935Z AUTO 19006KT 4SM -RA SCT014 OVC023 08/08 A2991 RMK AO2 T00790079
KJYO 230935Z AUTO 19005KT 10SM CLR 03/M04 A3020 RMK AO2
KJYR 230935Z AUTO 18008KT 10SM CLR 10/10 A2945 RMK AO2
KJZI 230935Z AUTO 03006KT 1 3/4SM -RA SCT003 SCT018 OVC033 16/16 A3017 RMK A02 P000
KKLS 230935Z 14008KT 10SM FEW045 OVC060 07/04 A3028 RMK AO1
KL18 230935Z AUTO 00000KT 4SM BR OVC013 12/12 A3005 RMK AO2
KL35 230935Z AUTO 00000KT 10SM CLR 02/M05 A3015 RMK AO2
KL38 230935Z AUTO 07005KT 10SM -RA OVC003 18/18 A2974 RMK AO2 LTG DSNT E THRU S T01750175
KLAA 230853Z AUTO 29011KT 10SM CLR 05/M02 A2946 RMK AO2 SLP950 T00501017 55003
KLAF 230854Z AUTO 15006KT 10SM FEW060 SCT075 OVC095 08/06 A2989 RMK AO2 RAB0759E42 SLP121 P0000 60003 T00830061 58020 TSNO
KLAL 230935Z AUTO 13006KT 7SM OVC007 21/20 A3001 RMK AO2
KLAM 230935Z AUTO 31009G16KT 260V350 10SM CLR 04/M07 A2978 RMK AO2 T00431066
KLAN 230853Z 20012KT 9SM BKN019 OVC029 10/07 A2989 RMK AO2 SLP125 T01000067 58006 $
KLAR 230853Z AUTO 29015KT 10SM OVC049 M03/M07 A2968 RMK AO2 PK WND 33026/0831 SNE04 SLP026 P0000 60000 T10281067 51007
KLAS 230856Z 32014G27KT 10SM FEW150 17/M05 A2995 RMK AO2 PK WND 33032/0832 SLP130 T01671050 51019 $
KLAW 230853Z AUTO 16004KT 8SM BKN003 OVC010 12/11 A2955 RMK AO2 PRESFR SLP005 T01170111 58028 $
KLAX 230853Z VRB04KT 10SM FEW015 SCT200 16/13 A3004 RMK AO2 SLP169 T01560133 58002
KLBB 230853Z 26013KT 10SM FEW230 10/M03 A2957 RMK AO2 SLP985 T01001028 57032
KLBE 230935Z AUTO 18005KT 10SM -RA FEW039 BKN046 BKN075 08/00 A3012 RMK AO2
KLBF 230853Z AUTO 31007KT 10SM CLR 01/M04 A2950 RMK AO2 SLP984 T00061039 55001 FZRANO $
KLBL 230935Z AUTO 21005KT 10SM CLR 03/01 A2942 RMK AO1
KLBT 230854Z AUTO 10003KT 9SM CLR 09/06 A3024 RMK AO2 SLP240 T00890056 58015
KLBX 230853Z AUTO 19004KT 10SM CLR 16/16 A2967 RMK AO2 SLP048 60011 T01560156 55026
KLCG 230935Z AUTO 19006KT 7SM OVC012 10/09 A2944 RMK AO2 T00960089
KLCH 230931Z AUTO 30018G22KT 3/4SM +RA BR SCT007 SCT010 OVC014 18/18 A2960 RMK AO2 WSHFT 0917 LTG DSNT S P0058 T01830178
KLCI 230935Z AUTO 22007KT 10SM FEW046 SCT070 BKN080 05/00 A2999 RMK AO1
KLCK 230935Z AUTO 17003KT 10SM OVC070 07/01 A3004 RMK AO2 T00720012
KLCQ 230935Z AUTO 13009KT 7SM OVC004 18/18 A3000 RMK AO2
KLDJ 230935Z AUTO 27007KT 10SM OVC110 08/M03 A3021 RMK AO2 T00801032
KLDM 230935Z AUTO 19007KT 7SM BKN012 OVC023 10/09 A2976 RMK AO2 T00960085
KLEB 230853Z AUTO 17007KT 10SM BKN023 OVC030 04/01 A3001 RMK AO2 SLP167 T00440011 51008
KLEE 230853Z AUTO 14006KT 5SM BR OVC008 21/20 A3003 RMK AO2 RAE29B40E50 CIG 005V011 SLP166 P0002 60002 T02060200 56020
KLEW 230935Z AUTO 00000KT 10SM BKN100 BKN120 00/M06 A2996 RMK AO1
KLEX 230854Z 17008KT 10SM BKN033 OVC046 11/03 A3005 RMK AO2 SLP174 T01110033 58010
KLFI 230858Z AUTO 19004KT 10SM CLR 01/M01 A3030 RMK AO2 SLP268 T00111011 56005 $
KLFK 230938Z AUTO 12011KT 9SM -RA FEW008 BKN090 OVC110 19/17 A2961 RMK AO2 P0004 T01890167
KLFT 230929Z AUTO VRB04KT 6SM -RA BR OVC005 18/18 A2971 RMK AO2 LTG DSNT N AND SE AND W CIG 004V010 P0006 T01830178 $
KLGA 230851Z 24010KT 10SM FEW075 SCT110 BKN250 07/M06 A3017 RMK AO2 SLP217 T00671056 56005
KLGB 230853Z AUTO 09003KT 9SM CLR 14/13 A3003 RMK AO2 SLP168 T01440133 58003 TSNO
KLGC 230935Z AUTO 10005KT 10SM DZ OVC006 14/13 A3002 RMK AO2 T01370133
KLGD 230935Z AUTO 05006KT 10SM OVC034 04/M04 A3015 RMK AO1
KLGU 230851Z AUTO 00000KT 10SM FEW041 BKN049 OVC055 01/M01 A2994 RMK AO2 SLP139 60001 T00111006 51010
KLHB 230935Z AUTO 20004KT 10SM OVC005 15/14 A2966 RMK AO2 T01470143
KLHM 230935Z AUTO 00000KT 3/4SM VV005 02/02 A3025 RMK AO1
KLHQ 230853Z AUTO 17006KT 10SM BKN080 OVC095 09/00 A3006 RMK AO2 SLP180 T00940000 56007
KLHW 230938Z AUTO 07007KT 8SM R33/5500FT -RA OVC005 16/15 A3007 RMK AO2
KLHX 230853Z AUTO 28010KT 10SM CLR 08/M02 A2951 RMK AO2 SLP956 T00781017 55001 $
KLHZ 230935Z AUTO 00000KT 10SM CLR 00/M02 A3030 RMK AO2
KLIC 230855Z AUTO 01011KT 10SM OVC100 06/M07 A2957 RMK AO2 SLP970 T00561067 53004
KLIT 230853Z 15015G19KT 10SM -RA FEW010 OVC090 15/11 A2974 RMK AO2 RAB04 SLP071 P0000 60000 T01500106 56043
KLJF 230933Z AUTO 22003KT 5SM BR SCT070 BKN090 04/04 A2943 RMK AO2
KLKR 230935Z AUTO 00000KT 5SM -RA FEW028 SCT034 OVC045 05/05 A3024 RMK AO2 P0002
KLKU 230935Z AUTO 20005KT 10SM CLR 04/M07 A3020 RMK AO2
KLKV 230935Z 20006KT 10SM CLR M03/M05 A3029 RMK AO1
KLLJ 230903Z AUTO 08005KT 9SM BKN033 M03/M05 A2995 RMK AO2 SNE01 P0000 T10281050 $
KLLQ 230853Z AUTO 11006KT 10SM OVC012 14/12 A2977 RMK AO2 RAE09 SLP078 P0000 60004 T01440122 56035
KLMO 230935Z AUTO 03010KT 10SM OVC100 06/M03 A2964 RMK AO2 T00611031
KLMT 230853Z AUTO 00000KT 10SM BKN030 M03/M04 A3029 RMK AO2 SLP267 T10281039 51018
KLNC 230935Z AUTO 00000KT 1SM BR VV007 13/12 A2964 RMK AO2 T01250116
KLNK 230910Z AUTO 20010KT 10SM FEW015 OVC033 13/10 A2950 RMK AO2 T01280100
KLNL 230915Z AUTO 17007KT 3/4SM BR OVC002 04/04 A2956 RMK AO2 T00360036
KLNP 230935Z AUTO 16005KT 10SM BKN100 08/01 A3015 RMK AO2
KLNR 230856Z AUTO 19005KT 5SM HZ OVC007 12/08 A2966 RMK AO2 SLP041 T01170083 58015
KLNS 230853Z AUTO 04004KT 10SM OVC090 02/M04 A3019 RMK AO2 SLP226 T00171044 55004
KLOL 230853Z AUTO VRB03KT 10SM CLR M01/M07 A3027 RMK AO2 SLP250 T10061072 53022
KLOM 230935Z AUTO 00000KT 10SM OVC110 02/M03 A3019 RMK AO1
KLOR 230853Z AUTO VRB04KT 4SM -RA BR OVC006 16/16 A2992 RMK AO2 RAB44 SLP130 P0000 60004 T01610156 56041 TSNO $
KLOT 230915Z AUTO 18010KT 10SM SCT030 OVC065 09/07 A2980 RMK AO2 T00920068
KLOU 230853Z AUTO 17006KT 10SM FEW032 BKN046 OVC055 12/03 A3001 RMK AO2 SLP162 T01170033 56013
KLOZ 230853Z AUTO 13004KT 10SM SCT100 07/01 A3008 RMK AO2 SLP184 T00670006 58013
KLPC 230935Z AUTO 25004KT 10SM CLR 13/09 A3013 RMK AO1
KLPR 230853Z AUTO 22014KT 10SM -RA BKN040 OVC060 09/04 A3002 RMK AO2 RAB48 SLP170 P0000 60000 T00890039 56001 TSNO
KLQK 230935Z AUTO 10SM -RA OVC017 06/03 A3022 RMK AO2 T00630030
KLRD 230856Z AUTO 18004KT 10SM CLR 13/13 A2978 RMK AO2 57009 T01330127 SLP073
KLRF 230938Z AUTO 14010G17KT 10SM -RA BKN014 BKN036 14/12 A2972 RMK AO2 CIG 014V036 BKN014 V SCT CIG 015 RWY07
KLRJ 230935Z AUTO 17014G20KT 10SM FEW017 11/10 A2942 RMK AO2
KLRO 230935Z AUTO 00000KT 8SM OVC029 15/15 A3018 RMK AO2 PWINO PNO
KLRU 230935Z AUTO 26016G20KT 10SM CLR 08/M08 A2987 RMK AO2 T00781080
KLSB 230935Z AUTO 33005KT 10SM CLR 02/M07 A2997 RMK AO2
KLSE 230853Z AUTO 16012KT 10SM OVC014 11/09 A2957 RMK AO2 SLP018 T01110089 56015
KLSF 230858Z AUTO 05003KT 10SM -RA OVC009 15/14 A3000 RMK AO2 RAE0833B0851 SLP161 P0005 60049 T01450137 57032
KLSV 230858Z AUTO 01008KT 10SM CLR 16/M02 A3001 RMK AO2 PK WND 30029/02 SLP152 T01561019 52028
KLTS 230933Z AUTO 14012KT 1SM R17R/2200FT BR VV002 11/11 A2950 RMK AO2 PRESFR
KLUA 230935Z AUTO 23010KT 10SM CLR 07/M05 A3018 RMK AO2
KLUD 230935Z AUTO 18006KT 10SM SCT042 13/12 A2962 RMK AO2 T01260116
KLUF 230858Z AUTO 01004KT 10SM CLR 09/00 A2993 RMK AO2 SLP132
KLUK 230853Z AUTO 00000KT 10SM SCT055 OVC085 08/03 A3004 RMK AO2 SLP172 T00780033 58013
KLUM 230935Z AUTO 14007KT M1/4SM FG OVC008 05/05 A2949 RMK AO2 T00510050
KLUX 230935Z AUTO 02005KT 4SM RA SCT014 BKN019 OVC033 A3021 RMK AO2 P0005
KLVJ 230853Z AUTO 20004KT 10SM CLR 17/16 A2969 RMK AO2 SLP052 60027 T01720161 55029
KLVK 230853Z AUTO 00000KT 9SM CLR 10/08 A3026 RMK AO2 SLP244 T01000083 51010
KLVL 230935Z AUTO 00000KT 10SM BKN016 BKN050 01/M02 A3028 RMK AO1 T00081017
KLVM 230853Z AUTO 24016G25KT 10SM FEW055 SCT065 BKN120 00/M04 A2976 RMK AO2 SLP096 T00001044 51021
KLVN 230926Z AUTO 20008KT 10SM BKN014 10/09 A2945 RMK AO2
KLVS 230853Z AUTO 26010KT 10SM CLR 03/M07 A2970 RMK AO2 SLP993 T00281072 58006
KLWA 230935Z AUTO 19007KT 10SM SCT036 SCT041 BKN100 10/08 A2983 RMK AO2 T01040080
KLWB 230935Z AUTO 00000KT 10SM OVC100 M01/M05 A3020 RMK AO2 T10121049
KLWC 230852Z AUTO 15007KT 10SM OVC012 12/10 A2960 RMK AO2 SLP022 T01220100 58023
KLWD 230930Z AUTO 17009KT 3SM BR OVC003 11/11 A2960 RMK AO2 T01060106
KLWM 230854Z AUTO 23007KT 10SM BKN110 06/M04 A3008 RMK AO2 SLP185 T00561039 51008
KLWS 230856Z AUTO 20007KT 10SM OVC060 05/00 A3009 RMK AO2 SLP194 T00500000 51028
KLWT 230854Z AUTO 28018G27KT 10SM FEW060 BKN075 01/M08 A2968 RMK AO2 PK WND 29027/0854 SLP053 T00111078 51023
KLWV 230853Z AUTO 17011KT 10SM OVC095 09/04 A2992 RMK AO2 SLP132 T00940039 58017
KLXL 230938Z AUTO 00000KT 1/4SM FG OVC001 01/00 A2940 RMK AO2
KLXN 230935Z AUTO 00000KT 10SM CLR 02/00 A2946 RMK AO2 T00201005
KLXV 230936Z AUTO 36012G21KT 1SM -SN BR VV010 M07/M08 A2972 RMK AO2 PK WND 35028/0916 WSHFT 0908 P0003 T10671078
KLXY 230935Z AUTO 27003KT 1 3/4SM BR OVC003 15/15 A2964 RMK AO2 T01480145
KLYH 230854Z AUTO 00000KT CLR M02/M07 A3026 RMK AO2 SLP253 T10171067 56006 $
KLYV 230935Z AUTO 19004KT M1/4SM FG OVC002 05/05 A2941 RMK AO2
KLZZ 230935Z AUTO 23005KT 10SM CLR 13/13 A2966 RMK AO2 T01300125
KM19 230936Z AUTO 14019KT 2SM -RA BR CLR 13/11 A2976 RMK AO2 VIS 1V3 RAB15 P0000
KM25 230935Z AUTO 13006KT 10SM SCT025 BKN039 12/07 A2988 RMK AO2
KM30 230935Z AUTO 12004KT 10SM CLR 11/07 A2985 RMK AO2 T01100073
KM40 230935Z AUTO 14009G14KT 10SM OVC014 16/07 A2987 RMK AO2
KM63 230929Z AUTO 20010G17KT 140V240 10SM CLR 11/M07 A2985 RMK AO2 WSHFT 28
KMAE 230935Z AUTO 32006KT 4SM BR OVC005 11/10 A3019 RMK AO2 CIG 003V008 T01110100 $
KMAF 230853Z AUTO 24014KT 10SM CLR 12/02 A2967 RMK AO2 SLP017 T01170022 56030
KMAI 230853Z AUTO 09006KT 10SM OVC005 17/17 A2994 RMK AO2 RAE30 SLP137 P0001 60039 T01670167 56038 $
KMAN 230935Z AUTO 29008KT 10SM BKN060 03/M02 A3019 RMK AO1
KMAO 230935Z AUTO 00000KT 7SM -RA SCT033 SCT048 BKN085 10/10 A3024 RMK AO2 P0002
KMBG 230852Z AUTO 30009KT 9SM -RA FEW028 OVC035 04/03 A2947 RMK AO2 SLP987 P0004 60011 T00440028 53025
KMBL 230935Z AUTO 19003KT 3SM SCT005 BKN013 OVC021 07/06 A2977 RMK AO1
KMBS 230853Z 20007KT 9SM OVC019 09/07 A2986 RMK AO2 SLP116 T00940067 58009
KMCB 230853Z AUTO 11007KT 6SM BR OVC004 16/15 A2979 RMK AO2 SLP085 T01610150 58036
KMCD 230936Z AUTO 15007KT 4SM BR SCT003 BKN017 OVC027 04/04 A2976 RMK AO2 T00430043
KMCE 230922Z AUTO 4SM BR OVC005 12/11 A3019 RMK AO2 T01170106
KMCF 230858Z AUTO 14007KT 10SM CLR 21/21 A2999 RMK AO2 SLP159 60001 T02100210 57022
KMCI 230853Z 17010KT 10SM OVC011 12/11 A2961 RMK AO2 SLP023 60000 T01220106 57021
KMCJ 230915Z AUTO 14005KT 10SM FEW003 BKN030 17/17 A2962 RMK AO1
KMCK 230853Z AUTO 29006KT 10SM FEW120 06/00 A2946 RMK AO2 SLP966 T00610000 55013
KMCN 230853Z AUTO 07005KT 5SM -RA BR OVC006 12/12 A3010 RMK AO2 SLP191 P0011 60022 T01170117 56022 TSNO
KMCO 230853Z 15009KT 7SM -RA OVC007 22/22 A3003 RMK AO2 RAE32B53 SLP167 P0001 60001 T02170217 56018 $
KMCW 230853Z AUTO 21012KT 4SM BR OVC004 10/09 A2954 RMK AO2 SLP003 T01000094 56014
KMCX 230935Z AUTO 16006KT 10SM SCT049 BKN075 OVC090 08/06 A2987 RMK AO2 T00790061
KMDD 230935Z AUTO 24011G16KT 10SM CLR 12/02 A2965 RMK AO2 T01180015
KMDH 230852Z AUTO 15009KT 10SM BKN044 12/06 A2987 RMK AO2 SLP115 T01170056 56019
KMDJ 230935Z AUTO 14019KT 10SM FEW010 FEW023 23/21 A2977 RMK A01
KMDQ 230935Z AUTO 14008G18KT 10SM BKN020 12/05 A2997 RMK AO2
KMDS 230935Z AUTO 00000KT 10SM FEW070 00/00 A2940 RMK AO2
KMDT 230856Z 03003KT 10SM FEW080 02/M05 A3017 RMK AO2 SLP219 T00221050 56007
KMDW 230853Z 19010KT 8SM SCT028 BKN075 OVC300 11/08 A2981 RMK AO2 SLP097 T01060078 58018
KMDZ 230935Z AUTO 16010KT 1/4SM FG OVC002 04/04 A2955 RMK AO2 T00390038
KMEB 230852Z AUTO 05004KT 10SM BKN100 07/03 A3026 RMK AO2 SLP245 T00720033 56015
KMEH 230915Z AUTO VRB03KT 10SM BKN026 OVC065 02/M01 A3013 RMK AO2 T00171011
KMEI 230858Z AUTO 11008KT 10SM OVC006 14/13 A2986 RMK AO2 PRESFR SLP108 60000 T01440133 58040
KMEM 230854Z 14009KT 10SM OVC020 16/11 A2984 RMK AO2 SLP103 T01560111 56019 $
KMER 230935Z AUTO 01015KT 5SM OVC004 11/11 A3020 RMK AO1
KMEV 230935Z AUTO 00000KT 10SM CLR M04/M08 A3030 RMK AO2
KMEZ 230935Z AUTO 15003KT 10SM BKN011 BKN016 OVC034 16/15 A2967 RMK AO2
KMFD 230852Z 20010KT 10SM -RA SCT037 OVC075 08/03 A3003 RMK AO2 RAB38 SLP175 P0000 60000 T00830033 50001
KMFE 230913Z AUTO 00000KT 1/4SM FG VV002 17/17 A2978 RMK AO2 T01720172
KMFI 230854Z AUTO 17004KT 1/4SM FG VV001 06/06 A2958 RMK AO2 SLP028 T00560056 56023
KMFR 230853Z AUTO 00000KT 10SM OVC012 04/04 A3035 RMK AO2 SLP283 T00440039 51014
KMFV 230935Z AUTO 22004KT 10SM CLR 01/M01 A3028 RMK AO2
KMGC 230935Z AUTO 17007KT 10SM BKN038 BKN046 OVC055 08/07 A2984 RMK AO2
KMGE 230858Z AUTO 08006KT 8SM R11/5500FT -RA OVC014 07/06 A3012 RMK AO2 RAB0810DZB0759E0810 SLP201 P0002 60002 T00740055 57021 $
KMGG 230935Z AUTO 17003KT 1SM BR SCT001 BKN065 OVC110 06/05 A2944 RMK AO2 T00550052
KMGJ 230854Z AUTO 23007KT 10SM OVC090 04/M06 A3013 RMK AO2 SLP206 T00391061 58003 TSNO
KMGM 230853Z AUTO 09010KT 10SM OVC007 14/13 A2995 RMK AO2 SLP140 60001 T01440128 58018
KMGN 230935Z AUTO 18006KT 2 1/2SM BR BKN003 OVC008 05/05 A2976 RMK AO2 T00530049
KMGR 230915Z AUTO 09003KT 4SM +RA BKN005 OVC012 16/16 A3000 RMK AO2
KMGW 230853Z AUTO 19004KT 10SM FEW075 11/M07 A3012 RMK AO2 SLP201 T01111072 58005 TSNO
KMGY 230853Z AUTO 17007KT 10SM OVC050 10/03 A3001 RMK AO2 SLP162 60000 T01000028 58010
KMHE 230853Z AUTO 07003KT 10SM CLR 03/01 A2940 RMK AO2 SLP962 T00330006 56009 $
KMHK 230930Z AUTO 20005KT 10SM OVC011 13/12 A2951 RMK AO2 T01280122 TSNO
KMHL 231015Z AUTO 10004KT 10SM SCT035 SCT110 11/11 A2965 RMK AO2
KMHR 230446Z 32003KT 7SM M1FG SKC 09/09 A3021
KMHS 230856Z AUTO 00000KT 10SM CLR 02/M02 A3028 RMK AO2 SLP280 T00171017 50010
KMHT 230853Z 19006KT 10SM -RA SCT075 BKN090 OVC110 04/M03 A3003 RMK AO2 RAB35 SLP186 P0000 60000 T00391033 51007
KMHV 230935Z AUTO 27024G33KT 10SM CLR 12/04 A3008 RMK AO1
KMIA 230853Z 12010KT 10SM FEW025 BKN029 25/22 A3001 RMK AO2 SLP163 T02500222 56013
KMIB 230858Z AUTO 26011G18KT 10SM SCT028 OVC040 04/01 A2929 RMK AO2 SLP935 T00390006 52010
KMIC 230853Z AUTO 19011KT 6SM BR FEW017 SCT022 09/08 A2943 RMK AO2 SLP970 T00940078 56019
KMIE 230853Z AUTO 17006KT 10SM OVC048 09/04 A2995 RMK AO2 RAE03 SLP141 P0000 60013 T00890044 58017
KMIS 230935Z AUTO 22014G20KT 4SM HZ FEW010 FEW120 26/21 A2977 RMK A01
KMIV 230854Z AUTO 19004KT 10SM CLR 06/M04 A3021 RMK AO2 SLP231 T00561044 58014
KMIW 230902Z AUTO 18013KT 7SM SCT007 OVC020 11/10 A2957 RMK AO2 T01110100
KMJQ 230933Z AUTO 19008KT 7SM OVC010 10/08 A2945 RMK AO2
KMJX 230935Z AUTO 00000KT 10SM CLR 04/M06 A3021 RMK AO1
KMKC 230924Z 16006KT 10SM SCT013 OVC019 12/11 A2959 RMK AO2 RAE24 P0000 T01220106
KMKE 230852Z 20012KT 6SM BR OVC009 09/07 A2974 RMK AO2 SLP074 T00940072 58016
KMKG 230931Z AUTO 19014KT 10SM BKN014 BKN024 OVC060 10/07 A2980 RMK AO2 T01000067
KMKJ 230935Z AUTO 11004KT 10SM SCT095 BKN110 00/M06 A3023 RMK AO2 T00001062
KMKL 230853Z AUTO 15004KT 10SM OVC020 16/11 A2987 RMK AO2 SLP112 T01560106 58030
KMKN 230935Z AUTO 00000KT 10SM CLR 13/13 A2964 RMK AO2 T01250125
KMKO 230853Z AUTO 15006KT 6SM BR SCT020 BKN038 12/12 A2964 RMK AO2 SLP035 T01220117 56026
KMKS 230955Z AUTO 00000KT 10SM RA SCT029 SCT033 BKN047 14/14 A3019 RMK AO2
KMKT 230935Z AUTO 21008KT 10SM BKN009 OVC016 11/09 A2946 RMK AO1
KMKY 230935Z AUTO 11005KT 9SM CLR 22/21 A2999 RMK AO1
KMLB 230853Z AUTO 13011G19KT 8SM -RA SCT019 BKN026 OVC043 23/22 A3002 RMK AO2 RAB0757 SLP165 P0001 60002 T02330217 56022
KMLC 230853Z AUTO VRB04KT 10SM BKN016 BKN029 15/14 A2962 RMK AO2 SLP024 T01500139 56031
KMLE 230935Z AUTO 16004KT 5SM -DZ BKN017 OVC022 12/11 A2950 RMK AO2 T01220110
KMLF 230917Z AUTO 03008G16KT 10SM FEW008 01/M01 A3003 RMK AO2 T00061011 TSNO
KMLI 230932Z AUTO 19010KT 10SM SCT013 SCT023 OVC030 12/09 A2968 RMK AO2 T01170089 $
KMLJ 230935Z AUTO 10003KT 7SM -RA SCT007 BKN028 OVC048 12/12 A3010 RMK AO2
KMLP 230853Z AUTO 31006KT 1/2SM FZFG VV001 M04/M05 A2988 RMK AO2 SLP158 60000 T10391050 51026
KMLS 230853Z AUTO 28026G31KT 10SM OVC090 03/M04 A2958 RMK AO2 PK WND 28035/0834 SLP025 60000 T00331039 53019
KMLT 230853Z AUTO 00000KT 10SM OVC022 02/M06 A2990 RMK AO2 SLP135 T00171061 53012
KMLU 230853Z AUTO VRB04KT 10SM OVC011 16/14 A2974 RMK AO2 SLP071 T01610144 56037
KMMH 230935Z AUTO 30005KT 10SM CLR M03/M08 A3026 RMK AO1
KMMI 230935Z AUTO VRB04KT 10SM FEW031 OVC047 12/07 A3010 RMK
KMMK 230853Z AUTO 15004KT 10SM FEW090 BKN120 03/M07 A3015 RMK AO2 SLP210 T00331067 57002 TSNO
KMML 230935Z AUTO 18004KT 10SM OVC110 06/02 A2941 RMK AO1
KMMT 230858Z AUTO 06004KT 4SM RA BR BKN045 OVC075 11/10 A3023 RMK AO2 RAB0845 SLP239 P0002 60005 T01060104 55013
KMMU 230935Z AUTO 00000KT 10SM 06/M06 A3017 RMK AO2
KMMV 230926Z AUTO 23007KT 10SM BKN029 BKN040 08/07 A3029 RMK AO2 RAE13 P0000 T00830067 $
KMNE 230936Z AUTO 12007KT 7SM OVC004 17/16 A2968 RMK AO2
KMNH 230935Z AUTO 02006KT 10SM -SN SCT047 OVC060 01/M04 A2963 RMK AO2
KMNM 230935Z AUTO 18008KT 1SM OVC002 06/05 A2966 RMK AO1
KMNN 230853Z AUTO 17007KT 7SM -RA SCT060 OVC075 07/04 A3003 RMK AO2 SLP175 P0003 60004 T00670039 58002 TSNO
KMNZ 230940Z AUTO 20007KT 10SM CLR 11/11 A2965 RMK AO2 T01110111
KMOB 230912Z AUTO 07007KT 2 1/2SM BR OVC002 17/17 A2984 RMK AO2 T01670167
KMOD 230934Z AUTO 30010KT 1 1/2SM BR OVC002 12/11 A3022 RMK AO2 T01170111 $
KMOP 230935Z AUTO 16004KT 5SM BR OVC014 07/06 A2983 RMK AO2 T00710063
KMOR 230935Z AUTO 08008KT 10SM SCT060 05/M02 A3012 RMK
KMOT 230854Z AUTO 22010KT 10SM BKN037 03/M02 A2930 RMK AO2 SLP935 T00331017 53011
KMOX 230933Z AUTO 24003KT 10SM CLR 03/01 A2939 RMK AO2
KMPO 230853Z AUTO 28007KT 10SM OVC095 05/M08 A3010 RMK AO2 SLP207 T00501078 58003
KMPV 230851Z AUTO VRB04KT 10SM SCT034 SCT060 OVC075 05/02 A2999 RMK AO2 RAE19B36E50 SLP167 P0001 60001 T00500022 50009
KMPZ 230935Z AUTO 17009KT 10SM BKN016 OVC024 11/10 A2968 RMK AO2 T01070095
KMQB 230935Z AUTO 15007KT 10SM OVC039 10/09 A2974 RMK AO2 T00950086
KMQE 230854Z AUTO 24013KT 06/M05 A3006 RMK AO1 SLP193 T00561050 51005
KMQI 230935Z AUTO 00000KT 10SM CLR 07/04 A3030 RMK AO2 T00680041
KMQJ 230935Z AUTO 17010KT 10SM SCT060 09/01 A2993 RMK AO1
KMQS 230915Z AUTO 26003KT 10SM SCT100 02/M05 A3019 RMK AO2
KMQY 230856Z AUTO 13004KT 10SM OVC048 12/04 A2999 RMK AO2 58028 T01220044 SLP164
KMRB 230853Z AUTO 17005KT 10SM CLR 06/M07 A3016 RMK AO2 SLP215 T00611072 58006 TSNO
KMRF 230935Z AUTO 25013KT 10SM CLR 06/00 A2989 RMK AO1
KMRH 230858Z AUTO 00000KT 10SM CLR 08/06 A3028 RMK AO2 SLP253 T00830061 56012 TSNO
KMRJ 230915Z AUTO 17008KT 1SM -RA OVC002 09/08 A2966 RMK AO2
KMRN 230935Z AUTO 00000KT 10SM OVC026 06/00 A3029 RMK AO2 T00570003
KMRT 230933Z AUTO 21005KT 10SM OVC065 07/03 A3002 RMK AO2 T00700025
KMRY 230854Z AUTO 09006KT 10SM CLR 10/09 A3022 RMK AO2 SLP245 T01000089 58002
KMSL 230853Z AUTO 13009KT 10SM OVC021 15/09 A2995 RMK AO2 SLP137 T01500094 58032
KMSN 230853Z AUTO 18010KT 2SM BR OVC004 09/08 A2969 RMK AO2 SLP058 T00890078 58016
KMSO 230853Z AUTO 31012KT 10SM FEW070 SCT085 01/M02 A2991 RMK AO2 SLP149 T00111017 51026
KMSP 230853Z 19006KT 6SM BR OVC014 09/08 A2945 RMK AO2 SLP979 T00940078 56018
KMSS 230934Z AUTO 24005KT 4SM BR OVC004 05/05 A2998 RMK AO2 T00500050
KMSV 230935Z AUTO 00000KT 10SM OVC037 02/M02 A3012 RMK AO1
KMSY 230853Z 09010G16KT 6SM BR OVC004 17/16 A2977 RMK AO2 RAE0756 SLP084 P0000 60000 T01720156 58022
KMTC 230858Z AUTO 18007KT 10SM OVC070 05/05 A2992 RMK AO2 SLP139 T00530052 55005
KMTH 230853Z AUTO 13010G17KT 10SM FEW022 26/23 A2998 RMK AO2 SLP150 T02560233 58013
KMTJ 230853Z AUTO 14009KT 10SM BKN050 OVC070 01/01 A2982 RMK AO2 RAB04E17UPB17E22SNE04 SLP069 P0000 60003 T00110006 50003
KMTN 230921Z AUTO 00000KT 10SM SCT100 05/M03 A3021 RMK AO2
KMTO 230853Z AUTO 17011KT 10SM OVC110 10/04 A2985 RMK AO2 SLP107 60000 T01000044 56021
KMTP 230854Z AUTO 23007KT 08/M01 A3017 RMK AO1 SLP215 T00831011 57005
KMTV 230935Z AUTO 00000KT 10SM OVC044 00/M03 A3028 RMK AO2 T00021028
KMTW 230934Z AUTO 18009KT 5SM BR FEW003 BKN014 OVC050 07/07 A2969 RMK AO2
KMUI 230858Z AUTO 00000KT 10SM BKN080 BKN230 00/M04 A3018 RMK AO2 SLP227 T10041044 58003 $
KMUO 230858Z AUTO 31010KT 10SM CLR 01/00 A3014 RMK AO2 SLP220 T00141005 52031
KMUT 230935Z AUTO 17008KT 6SM BR OVC009 11/10 A2968 RMK AO2
KMVE 230934Z AUTO 05004KT 10SM SCT060 SCT090 OVC110 03/02 A2938 RMK AO2
KMVN 230935Z AUTO 15006KT 10SM BKN037 10/04 A2986 RMK AO1
KMVY 230853Z AUTO 24015G22KT 10SM FEW085 OVC120 09/01 A3014 RMK AO2 SLP205 T00940011 51003
KMWA 230935Z AUTO 13004KT 10SM CLR 12/07 A2984 RMK AO2
KMWC 230935Z AUTO 21014G19KT 5SM BR OVC006 09/07 A2972 RMK AO2
KMWH 230852Z AUTO 22004KT 10SM CLR 03/M01 A3007 RMK AO2 SLP189 T00281011 51024
KMWK 230935Z AUTO 00000KT 10SM SCT050 02/M02 A3027 RMK AO2 T00161025
KMWL 230853Z AUTO 18005KT 10SM CLR A2962 RMK AO2 SLPNO 55017 $
KMWM 230934Z AUTO 19003KT 4SM BR SCT008 09/08 A2943 RMK AO2
KMWN 230857Z 29047KT 0SM -SHSN -SG FZFG VV000 M05/M05 RMK SHSNB00SGB15 VRY LGT ICG
KMWO 230935Z AUTO 19007KT 10SM SCT060 OVC070 13/03 A3002 RMK AO2 T01250026
KMWS 230930Z 23500G00KT MM/M06
KMWT 230853Z AUTO VRB04KT 10SM OVC008 15/13 A2965 RMK AO2 SLP035 60000 T01500128 $
KMXF 230918Z AUTO 08011KT 10SM OVC007 14/13 A2995 RMK AO2
KMXO 230935Z AUTO 16009KT 2 1/2SM BR OVC005 10/10 A2964 RMK AO2
KMYF 230853Z AUTO 08003KT 9SM CLR 13/12 A3004 RMK AO2 SLP168 T01330122 58010 TSNO
KMYL 230851Z AUTO 26003KT 10SM -SN FEW019 OVC040 M02/M04 A3003 RMK AO2 SNE30B48 SLP186 P0000 60000 T10171044 51031
KMYP 230936Z AUTO OVC001 M07/M08 A2980 RMK AO2 PWINO
KMYR 230935Z 33003KT 8SM OVC095 13/11 RMK AO1 P0002
KMYV 230853Z AUTO 02004KT 1/4SM FG VV002 09/09 A3027 RMK AO2 SLP254 T00940089 50001
KMYZ 230935Z AUTO 16004KT 7SM DZ BKN007 OVC011 12/11 A2951 RMK AO2
KMZG 230935Z AUTO 24020KT 10SM CLR 21/16 A2971 RMK A01
KMZH 230933Z AUTO 00000KT 1/4SM FG OVC002 03/03 A2940 RMK AO2
KMZZ 230935Z AUTO 16007KT 10SM SCT042 BKN050 OVC085 07/06 A2993 RMK AO2 T00660059
KN03 230935Z AUTO 00000KT 10SM -RA OVC038 05/04 A3006 RMK AO2
KN38 230935Z AUTO 21003KT 10SM OVC036 01/M00 A3009 RMK AO2
KN60 230852Z AUTO 26010KT 04/00 A2935 RMK AO1 SLP951 T00390000 51012
KNAK 230854Z AUTO 17005KT 10SM CLR 06/M08 A3020 RMK AO2 SLP229 T00611083 58013
KNBC 230856Z AUTO 05007KT 7SM -RA FEW034 BKN060 OVC110 14/13 A3015 RMK AO2 RAB30 SLP210 P0003 60005 T01440133 56024 $
KNBG 230855Z AUTO 07008KT OVC006 17/15 A2977 RMK AO2 SLP080 60000 T01670150 58027 TSNO $
KNBT 230856Z AUTO 07003KT CLR 11/08 A3028 RMK AO2 SLP258 6//// T01110083 56009 PNO $
KNCA 230856Z AUTO 00000KT 10SM CLR 07/05 A3026 RMK AO2 SLP250 T00670050 58013 $
KNDZ 230856Z AUTO 11011KT 10SM OVC007 19/17 A2986 RMK AO2 RAE0759B21E30 SLP097 P0000 60000 T01890172 56034 $
KNEW 230853Z AUTO 10012KT 6SM BR OVC004 17/15 A2978 RMK AO2 RAE0756 SLP078 P0000 60000 T01670150 58031 TSNO
KNFE 230856Z AUTO 00000KT 10SM CLR 02/M01 A3030 RMK AO2 SLP262 T00171011 58006
KNFG 230854Z AUTO 00000KT 8SM BKN016 OVC023 12/09 A3004 RMK AO2 SLP173 T01170094 56006
KNFL 230856Z AUTO 00000KT 10SM CLR M02/M06 A3027 RMK AO2 SLP210 T10171061 51020
KNFW 230852Z AUTO 19003KT 10SM CLR 15/11 A2968 RMK AO2 SLP036 T01500106 55012 CHINO N $
KNGP 230856Z AUTO 25006KT 10SM CLR 17/17 A2974 RMK AO2 SLP071 T01670167 53001 $
KNGU 230859Z 00000KT 10SM BKN260 04/M01 A3031 RMK AO2 SLP263 T00441011 58005
KNHK 230852Z AUTO 19005KT 10SM CLR 06/M09 A3025 RMK AO2 SLP242 T00561089 58011
KNID 230856Z AUTO 23007KT 10SM CLR 07/M01 A3003 RMK AO2 SLP170 T00671011 53030 $
KNIP 230913Z 12006KT 5SM TSRA BR SCT009 BKN016 OVC024CB 21/19 A3003 RMK AO2 TSB12 OCNL LTGICCG OHD TS OHD MOV NE P0006 T02060189 $
KNJK 230856Z AUTO 16004KT 10SM CLR 13/04 A2990 RMK AO2 SLP141 T01330044 53004 PWINO $
KNJM 230857Z AUTO 00000KT 10SM CLR 08/07 A3029 RMK AO2 SLP259 T00830067 55007
KNKT 230854Z 00000KT 10SM SCT045 08/06 A3029 RMK AO2 SLP255 T00780056 56009 $
KNKX 230855Z 09005KT 9SM SCT012 13/11 A3003 RMK AO2 SLP165 T01280106 58009 $
KNLC 230856Z AUTO 34017KT 8SM CLR 11/ A3019 RMK AO2 SLP223 T0106 53008 $
KNMM 230909Z AUTO 11010KT 2 1/2SM BR OVC004 14/13 A2987 RMK AO2 T01390128 $
KNOG 230856Z AUTO 00000KT 10SM CLR 14/14 A2977 RMK AO2 SLP059 T01440139 53004 $
KNPA 230856Z AUTO 10012KT 6SM BR OVC005 19/19 A2983 RMK AO2 SLP104 T01940189 56031
KNQA 230935Z AUTO 12007KT 10SM BKN022 BKN027 16/13 A2982 RMK
KNQX 230917Z AUTO 13011KT 10SM BKN025 A2996 RMK AO2 TSNO $
KNRB 230852Z AUTO 12008KT 5SM RA BR SCT021 OVC027 20/19 A3003 RMK AO2 SLP167 P0011 60012 T02000189 56032 $
KNRS 230856Z AUTO 08006KT 8SM CLR 13/11 A3004 RMK AO2 SLP171 T01330111 58009 $
KNSE 230933Z AUTO 11010KT 10SM OVC004 18/18 A2986 RMK AO2 T01830178 $
KNSI 230857Z AUTO 30021G27KT 8SM SCT004 A3005 RMK AO2 PK WND 31029/0800 SLPNO 54000 $
KNTD 230856Z AUTO 03005KT 10SM CLR 13/09 A3005 RMK AO2 SLP176 T01330089 51005 $
KNTU 230856Z 00000KT 10SM BKN270 03/M01 A3029 RMK AO2 SLP260 T00331006 58006 $
KNUI 230853Z AUTO 20008KT 10SM CLR 06/M06 A3025 RMK AO2 SLP243 T00561061 56013
KNUQ 230856Z AUTO 00000KT 10SM CLR 11/09 A3026 RMK AO2 SLP248 T01060089 50004 TSNO
KNUW 230856Z 13009KT 10SM -RA FEW030 BKN040 OVC080 09/06 A3010 RMK AO2 RAB49 SLP197 P0000 60004 T00890061 51005 $
KNXF 230904Z AUTO 06007KT 8SM BKN021 A3003 RMK AO2 $
KNXP 230856Z AUTO 32019G22KT 10SM CLR 16/06 A3004 RMK AO2 SLP147 T01560061 53015 $
KNY0 230935Z AUTO 23006KT 7SM BKN033 BKN047 OVC060 03/02 A3004 RMK AO2 T00270015
KNYC 230851Z AUTO VRB05KT 10SM BKN110 07/M06 A3019 RMK AO2 SLP215 T00671056 57004 $
KNYG 230856Z AUTO 21011KT 10SM SCT110 06/M05 A3023 RMK AO2 SLP237 T00561050 58013 $
KNYL 230857Z 15003KT 10SM CLR 17/04 A2991 RMK AO2 SLP128 T01670044 55002 $
KNZY 230852Z AUTO 10004KT 10SM CLR 14/13 A3003 RMK AO2 SLP168 T01440128 58009 $
KO22 230915Z AUTO 32003KT 10SM CLR 05/05 A3018 RMK AO1
KO54 230915Z AUTO 00000KT 2 1/2SM FEW021 00/M01 A3032 RMK AO1
KO69 230935Z AUTO 00000KT 10SM CLR 05/05 A3029 RMK AO1
KO86 230930Z AUTO 29003KT 10SM OVC003 02/01 A3034 RMK AO1
KOAJ 230935Z AUTO 36003KT 10SM CLR 07/04 A3029 RMK AO1
KOAK 230853Z 00000KT 10SM CLR 11/07 A3025 RMK AO2 SLP241 T01110067 50002
KOBE 230935Z AUTO 12004KT 10SM BKN049 A3002 RMK AO2
KOCF 230935Z AUTO 16003KT 4SM OVC006 20/19 A3001 RMK AO1
KOCH 230935Z AUTO 11006KT 10SM SCT015 OVC022 17/16 A2964 RMK AO1 P0002
KOCQ 230935Z AUTO 16008KT 1 1/2SM OVC003 05/05 A2965 RMK AO1 T00520052
KOCW 230935Z AUTO 00000KT 10SM CLR 03/02 A3028 RMK AO2 T00300016
KODO 230853Z AUTO 25011KT 10SM CLR 09/01 A2969 RMK AO2 SLP025 T00940011 56028
KODX 230853Z AUTO 00000KT 10SM CLR 02/00 A2942 RMK AO2 SLP969 T00220000 56021
KOEB 230934Z AUTO 20007KT 10SM OVC022 10/07 A2990 RMK AO2 T00950074
KOEO 230935Z AUTO 17005KT 1/4SM FG OVC003 06/06 A2947 RMK AO2 T00580058
KOFF 230933Z AUTO 18005KT 10SM OVC015 12/11 A2951 RMK AO2
KOFK 230856Z AUTO 19010KT 5SM BR FEW012 11/09 A2943 RMK AO2 SLP969 T01060094 58015
KOFP 230854Z AUTO 18006KT 10SM CLR 02/M08 A3027 RMK AO2 SLP250 T00171078 58008
KOGA 230935Z AUTO 33024G32KT 10SM SCT080 07/M02 A2957 RMK AO2 T00691016
KOGB 230853Z AUTO 05007KT 5SM -RA BR BKN070 11/10 A3021 RMK AO2 SLP228 P0005 60008 T01110100 56017
KOGD 230853Z AUTO 23006KT 9SM BKN035 OVC045 01/01 A2997 RMK AO2 SNE07 SLP143 P0000 60002 T00060006 53016 TSNO
KOJA 230935Z AUTO 18012G18KT 3SM BR OVC003 10/10 A2949 RMK AO2
KOJC 230931Z AUTO 15007KT 9SM FEW008 OVC015 11/11 A2958 RMK AO2 T01110106
KOKB 230852Z AUTO 00000KT 9SM OVC018 12/11 A3003 RMK AO2 SLP169 T01170106 56006
KOKC 230852Z 18010G19KT 9SM OVC004 13/11 A2956 RMK AO2 CIG 003V007 SLP005 T01280111 56028
KOKK 230935Z AUTO 16009KT 10SM OVC050 07/04 A2990 RMK AO1
KOKM 230935Z AUTO 11011KT 5SM BR SCT003 OVC012 13/13 A2959 RMK AO2 T01300128
KOKV 230935Z AUTO 21008KT 10SM CLR 06/M11 A3016 RMK AO2
KOKZ 230935Z AUTO 10008KT 5SM -RA OVC005 12/12 A3013 RMK AO2 T01200119
KOLE 230935Z AUTO 21007KT 10SM OVC024 05/03 A3002 RMK AO2
KOLF 230853Z AUTO 30025G35KT 10SM FEW028 SCT036 OVC048 02/M04 A2948 RMK AO2 PK WND 29039/0841 SLP994 T00171039 53037
KOLG 230935Z AUTO 17007KT 1SM OVC003 04/04 A2944 RMK AO1
KOLM 230930Z AUTO 19006KT 10SM SCT023 BKN030 OVC048 07/06 A3018 RMK AO2 T00720061 $
KOLS 230854Z AUTO 00000KT 10SM CLR 05/M01 A3003 RMK AO2 SLP136 T00501011 58002
KOLU 230935Z AUTO 18006KT 10SM CLR 10/08 A2945 RMK AO1
KOLV 230935Z AUTO 13010KT 10SM BKN016 OVC023 14/14 A2983 RMK A01 P000
KOLY 230935Z AUTO 14008KT 10SM SCT090 09/03 A2988 RMK AO2
KOLZ 230935Z AUTO 17011KT 1 1/2SM BR OVC003 10/09 A2959 RMK AO2
KOMA 230852Z 16011KT 9SM BKN013 OVC023 12/11 A2951 RMK AO2 SLP993 60000 T01170111 56016
KOMH 230935Z AUTO 17008KT 10SM SCT110 03/M06 A3022 RMK AO2
KOMK 230853Z AUTO 1/4SM FZFG VV002 M04/M06 A3005 RMK AO2 SLP190 I1000 I3000 T10441056 51023
KONA 230934Z AUTO 18003KT 7SM BKN014 OVC019 11/09 A2954 RMK AO2
KONL 230935Z AUTO 27010KT 10SM CLR 08/02 A2941 RMK AO2 T00760017
KONM 230935Z AUTO 22004KT 10SM CLR 04/M08 A2981 RMK AO2 T00441078
KONO 230853Z AUTO 28006KT 10SM FEW055 04/M04 A3018 RMK AO2 SLP235 T00391039 51033
KONP 230935Z AUTO 17006KT 7SM SCT050 10/08 A3031 RMK AO2
KONT 230853Z 07003KT 8SM FEW017 13/11 A3004 RMK AO2 SLP167 T01330111 51001
KONX 230935Z AUTO 00000KT 10SM SCT044 03/01 A3031 RMK AO2 T00260011
KONZ 230934Z AUTO 21006KT 7SM RA BKN032 BKN043 OVC050 08/06 A2995 RMK AO2 P0002
KOOA 230935Z AUTO 18009KT 4SM BR OVC012 11/10 A2964 RMK AO2 T01070100
KOPF 230853Z AUTO 12011KT 10SM FEW019 SCT032 SCT041 25/22 A3001 RMK AO2 SLP164 T02500222 56010
KOPL 230935Z AUTO 11009G14KT 7SM -RA OVC005 17/17 A2971 RMK AO2 LTG DSNT SW P0016 T01700165
KOPN 230935Z AUTO 11011KT 5SM -RA OVC004 12/12 A3007 RMK AO2
KOQT 230853Z AUTO 00000KT 10SM OVC055 06/02 A3013 RMK AO2 SLP203 T00610022 58011
KORB 230933Z AUTO 00000KT 2SM BR OVC002 00/M01 A2939 RMK AO2
KORC 230935Z AUTO 18007KT 2SM BR BKN004 10/09 A2941 RMK AO2
KORD 230851Z 20013KT 9SM OVC013 11/08 A2979 RMK AO2 SLP090 T01060078 57016
KORE 230852Z AUTO 15005KT 10SM BKN037 OVC048 04/M03 A3009 RMK AO2 SLP193 60000 T00441033 51007
KORF 230851Z AUTO 22005KT 10SM CLR 02/M01 A3029 RMK AO2 SLP257 T00171011 58006 TSNO
KORG 230935Z AUTO 33003KT 5SM VCTSRA SCT007 BKN024 OVC030 A2970 RMK AO2 LTG DSNT SE AND S P0012
KORH 230854Z AUTO 26015KT 10SM SCT060 OVC070 03/M02 A3005 RMK AO2 PK WND 25027/0757 RAE54 SLP187 P0000 60000 T00281022 51006
KORL 230853Z AUTO 13014G20KT 9SM OVC007 22/21 A3001 RMK AO2 CIG 006V011 SLP167 60001 T02220211 58023
KORS 230935Z AUTO 18008G14KT 030V040 10SM FEW012 FEW050 08/07 A3005 RMK AO2
KOSA 230935Z AUTO 15003KT 10SM OVC009 16/15 A2966 RMK AO1 T01600154
KOSC 230934Z AUTO 00000KT 1/4SM FG OVC003 04/04 A2985 RMK AO2 T00450045
KOSH 230853Z 19013KT 6SM BR OVC007 09/07 A2967 RMK AO2 SLP052 T00890072 58017
KOSU 230853Z AUTO 17007KT 10SM OVC085 08/02 A3004 RMK AO2 RAE17 SLP175 P0000 60000 T00830022 58004
KOTG 230935Z AUTO 19011KT 5SM OVC005 09/08 A2942 RMK AO1
KOTH 230935Z 16007KT 10SM BKN031 08/08 A3035 RMK AO1
KOTM 230929Z AUTO 19008KT 3SM BR OVC009 11/10 A2964 RMK AO2 CIG 005V014 T01110100
KOUN 230935Z AUTO 17013G17KT 10SM OVC008 12/12 A2957 RMK AO2
KOVE 230923Z AUTO 00000KT 4SM BR CLR 08/06 A3028 RMK AO2 T00780061
KOVL 230934Z AUTO 17007KT 4SM BR CLR 03/01 A2941 RMK AO2
KOVS 230853Z AUTO 19009G16KT 4SM BR OVC010 11/09 A2965 RMK AO2 CIG 008V012 SLP043 T01060089 58013
KOWA 230935Z AUTO 19013KT 10SM OVC010 11/09 A2948 RMK AO2
KOWB 230856Z AUTO 10SM CLR 09/04 A2997 RMK AO2 TSNO 57012 T00940044 SLP147
KOWD 230853Z AUTO 22007KT 10SM FEW055 SCT100 BKN120 07/M06 A3009 RMK AO2 SLP187 T00721056 51004
KOWP 230935Z AUTO 15008KT 3SM BR OVC002 15/14 A2958 RMK AO2 T01460136
KOXB 230853Z AUTO 24009KT 10SM CLR 06/M02 A3027 RMK AO2 SLP249 T00561017 58008 TSNO
KOXC 230935Z 26003KT 10SM OVC100 04/M07 A3014 RMK AO1
KOXI 230935Z AUTO 15007KT 7SM SCT029 OVC035 08/07 A2986 RMK AO1 T00820066
KOXR 230851Z AUTO 00000KT 10SM CLR 13/08 A3004 RMK AO2 SLP172 T01280078 53005
KOXV 230935Z AUTO 18010KT 10SM SCT013 OVC024 12/10 A2958 RMK AO2
KOZA 230935Z AUTO 21004KT 10SM CLR 06/03 A2974 RMK AO2
KOZR 230908Z AUTO 08006KT 10SM OVC004 16/16 A2993 RMK AO2 RAE0905DZB0905E0907
KOZW 230935Z AUTO 21008KT 10SM OVC022 10/07 A2989 RMK AO2 T00960065
KP28 230856Z AUTO 17007KT 12/10 A2947 RMK AO1 SLP978 T01170100 58039
KP53 230856Z AUTO 18005KT 03/01 A2968 RMK AO1 SLP058 T00330011 56015
KP58 230851Z AUTO 00000KT 08/07 A2988 RMK AO1 SLP122 T00780067 53000 $
KP59 230851Z AUTO 19004KT 03/M01 A2961 RMK AO1 SLP034 T00281006 56021
KP60 230856Z AUTO 28003KT M12/M14 A2979 RMK AO1 SLP114 T11221144 53010
KP68 230853Z AUTO 00000KT M02/M05 A3017 RMK AO1 SLP190 T10171050 53013
KP69 230852Z AUTO 00000KT 02/01 A3011 RMK AO1 SLP209 T00170011 51027
KP92 230853Z AUTO 12006KT 21/19 A2971 RMK AO1 SLP059 T02060189
KPAE 230935Z AUTO 17012KT 10SM SCT014 OVC095 08/06 A3012 RMK AO2 T00780056 $
KPAH 230853Z AUTO 14006KT 10SM CLR 11/06 A2989 RMK AO2 SLP121 T01060061 56020 $
KPAM 230919Z AUTO 12014G20KT 10SM OVC009 21/21 A2988 RMK AO2
KPAN 230935Z AUTO 00000KT 10SM CLR 06/M05 A3001 RMK AO2
KPAO 230447Z 29007KT 10SM SKC 14/11 A3021 RMK LAST
KPBF 230923Z AUTO 17004KT 7SM -RA OVC009 13/12 A2976 RMK AO2 CIG 007V011 P0003 T01330117
KPBG 230921Z AUTO 18004KT 10SM BKN028 OVC065 03/02 A2996 RMK AO2 RAE08 P0000 T00330017
KPBH 230935Z AUTO 16008KT 1/4SM FG OVC002 04/04 A2951 RMK AO2 T00420042
KPBI 230853Z 13015KT 10SM SCT021 BKN040 BKN060 26/22 A3001 RMK AO2 SLP162 60000 T02560222 58013
KPBX 230935Z AUTO 16003KT 10SM OVC110 11/M01 A3010 RMK AO2 T01051006
KPCM 230935Z AUTO 13007KT 7SM OVC009 22/ A3002 RMK AO2
KPCW 230933Z AUTO 20008KT 10SM -RA SCT043 OVC049 08/06 A2998 RMK AO2 $
KPCZ 230935Z AUTO 16005KT 4SM BR OVC006 09/09 A2964 RMK AO2 T00930086
KPDC 230935Z AUTO 14004KT 3SM BR OVC009 10/09 A2961 RMK AO2 T01020089
KPDK 230853Z VRB06KT 5SM -RA BR OVC013 07/04 A3013 RMK AO2 SLP203 P0008 60008 T00670044 56023
KPDT 230853Z AUTO 23008G17KT 10SM CLR 05/M01 A3016 RMK AO2 SLP213 T00501006 51030
KPDX 230853Z 19009KT 10SM FEW036 BKN047 OVC065 08/07 A3028 RMK AO2 SLP251 T00830067 53022
KPEA 230935Z AUTO 18010KT 10SM SCT015 OVC024 12/10 A2961 RMK AO2 T01200100
KPEO 230853Z AUTO 22012KT 10SM FEW035 BKN060 OVC085 09/03 A3002 RMK AO2 SLP169 T00890033 58002
KPEQ 230935Z AUTO 24017G24KT 10SM CLR 15/M02 A2971 RMK AO2 T01451021
KPEX 230934Z AUTO 18008KT 10SM SCT080 BKN100 OVC120 02/01 A2942 RMK AO2 T00210006
KPEZ 230935Z AUTO 00000KT 10SM CLR 11/10 A2974 RMK AO2 T01110100
KPGD 230936Z AUTO 14007KT 10SM BKN008 OVC021 23/22 A3001 RMK AO2 T02280217 $
KPGV 230935Z AUTO 00000KT 10SM CLR 02/01 A3030 RMK AO2
KPHD 230853Z AUTO 14004KT 10SM BKN041 OVC075 08/01 A3008 RMK AO2 RAE03 SLP189 P0000 60001 T00780011 58005
KPHF 230854Z 00000KT 10SM CLR 01/M03 A3030 RMK AO2 SLP259 T00111028 58006 $
KPHL 230854Z 20006KT 10SM FEW090 SCT120 BKN250 04/M04 A3021 RMK AO2 SLP230 T00441044 58010 $
KPHN 230936Z AUTO 20005KT 10SM SCT060 06/04 A2992 RMK AO2
KPHP 230855Z AUTO 30011KT 10SM OVC075 07/01 A2955 RMK AO2 RAB09E39 SLP002 P0000 60000 T00720006 53025 $
KPHT 230935Z AUTO 13006KT 10SM BKN023 OVC036 12/07 A2989 RMK
KPHX 230851Z 08006KT 10SM CLR 11/02 A2993 RMK AO2 SLP127 T01110017 53001
KPIA 230854Z 17008KT 6SM HZ SCT050 11/08 A2977 RMK AO2 SLP081 T01060078 58021
KPIB 230935Z AUTO 09004KT 2SM OVC002 15/13 A2982 RMK AO1
KPIE 230853Z AUTO 13009KT 10SM OVC011 22/20 A2999 RMK AO2 SLP156 T02170200 56018
KPIH 230853Z AUTO 25023G29KT 10SM OVC015 01/M01 A2992 RMK AO2 PK WND 25032/0814 SLP141 60000 T00061011 51017
KPIL 230853Z AUTO 22003KT 8SM CLR 16/16 A2975 RMK AO2 SLP074 60041 T01610161 56017
KPIR 230853Z AUTO 32021G27KT 10SM FEW037 BKN050 OVC070 04/03 A2946 RMK AO2 PK WND 32027/0853 SLP984 60000 T00440028 51017
KPIT 230851Z 21004KT 10SM -RA OVC045 10/M02 A3009 RMK AO2 RAB48 SLP201 P0000 60000 T01001017 56002
KPKB 230853Z AUTO 17006KT 10SM CLR 08/M04 A3012 RMK AO2 SLP200 T00781044 58005
KPKD 230929Z AUTO 18004KT 1/4SM FG VV002 01/01 A2937 RMK AO2 T00060006
KPKV 230935Z AUTO 25006KT 10SM CLR 15/14 A2970 RMK AO2 T01500142
KPLN 230933Z AUTO 14004KT 2SM BR OVC008 03/03 A2976 RMK AO2 T00330028
KPMD 230853Z AUTO 29020KT 10SM CLR 12/06 A3010 RMK AO2 PK WND 29028/0810 SLP176 T01220061 52009
KPMP 230853Z 13017G26KT 8SM SCT020 SCT027 26/22 A3002 RMK AO2 PK WND 13026/0844 SLP165 T02560222 56014
KPMV 230935Z AUTO 18011KT 10SM OVC018 12/10 A2950 RMK AO2 T01180098
KPNA 230915Z AUTO 00000KT 10SM SCT070 SCT090 M06/M07 A2981 RMK AO2
KPNC 230915Z AUTO 17010G18KT 10SM OVC015 14/12 A2953 RMK AO2 T01390117
KPNE 230854Z AUTO 23005KT 10SM CLR 05/M06 A3022 RMK AO2 SLP234 T00501056 55005 TSNO
KPNM 230935Z AUTO 18005KT 2SM BR BKN085 06/05 A2942 RMK AO2
KPNS 230938Z AUTO 11013KT 10SM OVC004 18/18 A2983 RMK AO2 T01780178
KPNT 230935Z AUTO 17012KT 10SM SCT035 SCT050 OVC070 10/07 A2979 RMK AO2 T00950071
KPOB 230924Z AUTO 00000KT 10SM CLR 04/00 A3025 RMK AO2
KPOC 230447Z 00000KT 10SM FEW032 15/12 A3008 RMK LAST
KPOE 230938Z AUTO 10004KT 1 1/4SM RA BR OVC004 17/17 A2967 RMK AO2 LTG DSNT S
KPOF 230853Z AUTO 15008KT 10SM CLR 11/07 A2981 RMK AO2 SLP095 T01110072 58030
KPOU 230853Z AUTO VRB04KT 10SM BKN070 OVC100 06/M07 A3014 RMK AO2 SLP205 T00611067 58005 TSNO
KPOV 230940Z AUTO 22004KT 10SM RA OVC033 08/00 A3005 RMK AO2 T00760000
KPOY 230935Z AUTO 36006KT 10SM CLR M02/M10 A2971 RMK AO2
KPPA 230935Z AUTO 29007KT 10SM CLR 04/M01 A2945 RMK AO2 T00401006 PNO
KPPF 230852Z AUTO 17007KT 10SM OVC012 14/12 A2959 RMK AO2 SLP016 T01390122 58034
KPPO 230935Z AUTO 17006KT 7SM -RA SCT029 BKN035 OVC050 09/09 A2986 RMK AO2 P0001 T00900090
KPPQ 230935Z AUTO 16008KT 10SM SCT095 12/08 A2973 RMK AO2 T01150083 PWINO
KPQI 230935Z AUTO 23005KT 10SM OVC024 02/M03 A2984 RMK AO1
KPQL 230918Z AUTO 07004KT 3SM BR OVC004 18/17 A2982 RMK AO2 T01780172 TSNO
KPQN 230934Z AUTO 00000KT 3SM BR CLR 04/03 A2939 RMK AO2
KPRB 230853Z AUTO 36006KT 10SM CLR 11/09 A3017 RMK AO2 SLP213 T01110089 50007 TSNO
KPRC 230853Z AUTO 21008KT 10SM CLR 07/M05 A2999 RMK AO2 SLP109 T00671050 58002
KPRG 230935Z AUTO 16010KT 10SM CLR 09/06 A2987 RMK AO2 T00930055
KPRN 230856Z AUTO 11009G16KT 10SM OVC004 16/14 A2991 RMK AO2 SLP125 60000 T01610144 56032
KPRO 230935Z AUTO 19011KT 10SM BKN011 OVC021 12/10 A2954 RMK AO2 T01150104
KPRS 230935Z AUTO 26006KT 10SM CLR 11/03 A2988 RMK AO2 T01140026
KPRX 230935Z 15005KT 10SM OVC010 15/14 A2964 RMK AO1
KPSC 230853Z AUTO 22010KT 10SM CLR 06/02 A3015 RMK AO2 SLP211 T00560022 51023
KPSF 230854Z AUTO 00000KT 5SM BR BKN037 OVC045 01/00 A3007 RMK AO2 RAB14E48 SLP188 P0002 60004 T00110000 58002 $
KPSK 230935Z AUTO 00000KT 10SM CLR 00/M05 A3024 RMK AO2 T10021049
KPSM 230924Z 22006KT 10SM BKN100 OVC130 05/M02 A3002
KPSN 230935Z AUTO 16005KT 10SM SCT008 SCT110 16/16 A2959 RMK AO2 T01650160
KPSO 230935Z AUTO 00000KT 10SM SCT023 SCT045 BKN050 M01/M01 A2978 RMK AO2 T10101013
KPSP 230853Z AUTO 25003KT 10SM CLR 13/04 A2994 RMK AO2 SLP138 T01330044 53010 TSNO
KPSX 230853Z AUTO 22006KT 10SM CLR 16/15 A2969 RMK AO2 SLP052 T01610150 50006
KPTB 230935Z AUTO 00000KT 10SM CLR 00/M02 A3028 RMK AO2 T10051023
KPTK 230926Z AUTO 19006KT 10SM BKN022 BKN039 OVC075 09/05 A2991 RMK AO2 T00890050
KPTN 230935Z AUTO 05006KT 10SM OVC005 18/18 A2975 RMK AO1 LTG DSNT SW
KPTS 230935Z AUTO 15007KT 10SM OVC014 13/13 A2959 RMK AO2 T01330131
KPTT 230935Z AUTO 17011G15KT 10SM BKN011 10/08 A2942 RMK AO2
KPTV 230935Z AUTO 25007KT 7SM OVC017 13/09 A3019 RMK AO1
KPTW 230854Z AUTO 00000KT 10SM OVC110 03/M06 A3021 RMK AO2 SLP229 T00281056 55005
KPUB 230853Z 34008KT 10SM CLR 07/M03 A2953 RMK AO2 SLP962 T00721033 56012
KPUC 230853Z AUTO 31010KT 10SM CLR 00/M06 A2986 RMK AO2 SNE15 SLP131 P0000 60000 T00001056 $
KPUJ 230935Z AUTO 11010KT 7SM -RA OVC009 08/08 A3006 RMK AO2
KPUW 230853Z AUTO 25013KT 10SM CLR 02/M01 A3008 RMK AO2 SLP200 T00171011 51030
KPVB 230915Z AUTO 17011KT 3SM OVC002 09/09 A2967 RMK AO1 T00920089
KPVC 230935Z 24018G24KT 10SM OVC060 09/M01 A3011 RMK AO1
KPVD 230851Z 22006KT 10SM BKN050 BKN120 06/M04 A3013 RMK AO2 SLP203 T00611039 52005
KPVE 230935Z AUTO 16007KT 10SM BKN023 OVC030 14/09 A2990 RMK
KPVF 230915Z AUTO 07011KT 10SM CLR 06/00 A3023 RMK AO1
KPVG 230935Z AUTO 00000KT 10SM FEW036 M02/M03 A3032 RMK AO1
KPVJ 230935Z AUTO 17006KT 10SM OVC010 13/12 A2958 RMK AO2 T01310123
KPVU 230935Z 36005KT 10SM FEW033 SCT048 BKN060 02/M02 A3001 RMK AO1
KPVW 230935Z AUTO 26014KT 10SM CLR 10/M03 A2953 RMK AO2 T01001032
KPWA 230917Z AUTO 19017G21KT 10SM OVC006 12/11 A2954 RMK AO2 CIG 004V009
KPWC 230933Z AUTO 00000KT M1/4SM FG OVC001 01/01 A2943 RMK AO2
KPWG 230935Z AUTO 26003KT 10SM BKN010 14/11 A2966 RMK AO1
KPWK 230852Z AUTO 20012KT 7SM OVC010 11/08 A2980 RMK AO2 SLP093 T01060083 58019
KPWM 230851Z AUTO 23011KT 10SM SCT120 04/M05 A2999 RMK AO2 SLP155 T00441050 51005
KPWT 230935Z AUTO 17010KT 9SM BKN005 BKN010 OVC013 07/07 A3015 RMK AO1
KPXE 230935Z AUTO 09007KT 5SM +RA BKN006 OVC011 16/14 A3006 RMK AO2 T01560140
KPYM 230852Z AUTO 23016G20KT 10SM OVC060 07/M02 A3011 RMK AO2 SLP195 T00721022 51004
KPYX 230935Z AUTO 20007KT 3SM CLR 04/03 A2941 RMK AO2 T00350029
KPZQ 230934Z AUTO 18007KT 5SM BR BKN037 03/03 A2981 RMK AO2 T00340034
KQAJ 230855Z 35009KT 9999 FEW085 SCT120 26/09 A2998 RMK SLP148 T02620089 58011
KQAY 230855Z AUTO 02006G11KT 9999 FEW095 25/09 A2999 RMK AO2 SLP152 T02530092 58011 $
KQAZ 230930Z AUTO 11011KT 9999 CLR 30/02 A3007 RMK CDP03565 CLR
KQBF 230855Z AUTO 13009KT 9999 CLR 29/00 A3003 RMK AO2 SLP155 T02880004 52016 TSNO $
KQBL 230926Z AUTO 12005G13KT 5SM BR BKN004 OVC006 18/18 A2986 RMK AO2 CIG 004V006 BKN V SCT
KQCL 230855Z AUTO 9999 CLR 20/M09 A3015 RMK AO2 SLP211 T01951087 57027 $
KQEA 230854Z AUTO 27003KT 30/23 A2976 RMK AO2 SLP075 PWINO TSNO $
KQEI 230930Z AUTO 11002KT 6000 HZ SCT130 07/02 A3028 RMK A02 TSNO
KQEJ 230930Z AUTO 13001KT 4000 HZ FEW130 07/03 A3024 RMK A02 TSNO
KQEL 230930Z AUTO 00000KT 9000 HZ BKN120 08/03 A3031 RMK A02 TSNO
KQEP 230930Z AUTO 18001KT 2000 HZ CLR 08/05 A3022 RMK A02 TSNO
KQEQ 230930Z AUTO 02003KT 9999 CLR 08/05 A3014 RMK A02 TSNO
KQER 230930Z AUTO 21001KT / /CLR 07/03 A3024 RMK A02 TSNO
KQES 230930Z AUTO 2000 // SCT110 SCT130 10/07 A3029 RMK A02 TSNO
KQEV 230930Z AUTO 12001KT 2000 BR CLR 08/06 A3026 RMK A02 TSNO
KQEW 230930Z AUTO 25002KT 9999 BKN120 09/05 A3025 RMK A02 TSNO
KQEX 230930Z AUTO 05001KT 6000 HZ CLR 10/05 A3028 RMK A02 TSNO
KQEY 230930Z AUTO 21001KT 8000 HZ BKN090 BKN120 11/05 A3025 RMK A02 TSNO
KQFG 230855Z AUTO VRB02KT 9999 CLR 22/M09 A3013 RMK AO2 SLP199 T02171095 57031
KQFQ 230855Z AUTO VRB03KT 2 1/2SM BR CLR 09/06 A3023 RMK AO2 SLP239 T00850061 50001 $
KQFS 230856Z AUTO 17002KT 9000 BR CLR 12/06 A3023 RMK AO2 SLPNO T01150057 50001
KQFT 230930Z AUTO 35001KT 4800 HZ BKN038 OVC044 09/05 A3025 RMK A02 TSNO
KQFU 230930Z AUTO 21003KT 6000 // CLR 09/05 A3027 RMK A02 TSNO
KQFV 230930Z AUTO 35003KT 2800 HZ CLR 06/03 A3025 RMK A02 TSNO
KQFX 230930Z AUTO 11001KT 3200 HZ FEW038 BKN042 07/05 A3027 RMK A02 TSNO
KQGA 230859Z AUTO 10013G17KT 6000 HZ CLR 30/01 A3000 RMK CDP03659 CLR
KQGV 230855Z 33012G15KT 9999 FEW120 FEW150 25/08 A2998 RMK SLPNO QNH1016 PA +410 58010
KQGX 230858Z AUTO 33005KT 9999 CLR 30/13 A2995 RMK AO2 SLPNO T02970126 57026 $
KQHN 230855Z 06006KT 9999 SKC 20/M08 A3009 RMK SLP141 Q1019 DA4534
KQHY 230934Z AUTO 12007G17KT 7SM OVC004 19/18 A2987 RMK AO2 $
KQIR 230858Z 00000KT 9999 BKN120 29/14 A2993 RMK AO2A SLP136 T02860138 58019 $
KQL5 230855Z 06002KT 9999 CLR 22/M08 A3010 RMK SLP190 T02241077 57030
KQLP 230855Z AUTO 30003KT 23/10 Q1024 RMK AO2 SLP159 T02250103 58009 PWINO TSNO $
KQMR 230916Z VRB03KT 9999 FEW027 SCT037 BKN050 27/24 A2993 RMK AO2A SLP133
KQRH 230855Z AUTO 08008G14KT 9999 FEW220 31/20 A2996 RMK AO2 SLP144 T03050203 58021
KQSA 230858Z 16004KT 9999 CLR 14/M12 A3015 RMK AO2A SLP165 T01351124 57029 VISNO RWY21 CHINO RWY21 $
KQTC 230855Z AUTO VRB06KT 10SM CLR 31/02 A3006 RMK AO2 SLP146 T03060023 50002
KQTH 230855Z 02008KT 9999 CLR 31/05 A3003 RMK AO2A SLP148 T03090053 58027
KQTZ 230855Z 27004KT 9999 FEW015 BKN250 20/08 A3002 RMK SLP165 WND/ALSTG/SLP ESTMD 58005
KQUD 230932Z AUTO 29003KT 10SM FEW010 SCT050 21/20 A3027 RMK AO2 SLP208 TSNO $
KQWM 230855Z 31010KT 9999 FEW090 25/07 A3001 RMK SLP158 QNH1016
KQXT 230855Z VRB03KT 9999 CLR 21/M07 A3007 RMK SLP179 WND DATA ESTMD ALSTG/SLP ESTMD Q1018 58029
KRAC 230853Z AUTO 20013G20KT 7SM OVC009 10/08 A2977 RMK AO2 SLP082 T01000083 58017
KRAL 230853Z AUTO 00000KT 9SM FEW015 12/11 A3004 RMK AO2 SLP162 T01220106 58001
KRAP 230852Z AUTO 32013KT 10SM CLR 05/M06 A2958 RMK AO2 PRESRR SLP018 6//// T00501061 53023 PNO $
KRAS 230935Z AUTO 25004KT 10SM CLR 17/16 A2973 RMK AO2 T01660158
KRBD 230900Z VRB03KT 4SM BR OVC004 14/13 A2962 RMK AO2 T01440133
KRBG 230853Z AUTO 00000KT 6SM BR FEW031 05/04 A3035 RMK AO2 SLP281 T00500039 51018 TSNO $
KRBL 230854Z AUTO 34004KT 10SM CLR 05/03 A3030 RMK AO2 SLP261 T00500033 51012
KRBW 230935Z AUTO 05005KT 10SM -RA BKN033 OVC039 14/ A3017 RMK AO2
KRCA 230858Z AUTO 33022G25KT 10SM OVC130 05/M06 A2956 RMK AO2 PK WND 33027/51 SLP014 T00471063 52019 $
KRCE 230915Z AUTO 18014KT OVC002 11/11 A2954 RMK AO2
KRCM 230935Z AUTO 15006KT 10SM RA BKN027 BKN031 OVC080 11/10 A2962 RMK AO2
KRCR 230935Z AUTO 13004KT 5SM -RA SCT009 SCT019 OVC042 07/07 A2990 RMK AO2
KRCV 230930Z AUTO 28011G15KT 10SM CLR 01/M06 A2971 RMK AO2 T00101065
KRCX 230935Z AUTO 16005KT 1/4SM FG OVC002 06/05 A2951 RMK AO2 T00580053
KRCZ 230935Z AUTO 00000KT 10SM SCT120 06/04 A3025 RMK AO2 T00570040
KRDD 230853Z 32004KT 10SM CLR 06/06 A3030 RMK AO2 SLP260 T00610056 51014
KRDG 230854Z AUTO 21004KT 10SM BKN085 OVC110 03/M04 A3018 RMK AO2 SLP228 T00331044 55004
KRDK 230935Z AUTO 18009KT 10SM OVC014 12/11 A2953 RMK AO2
KRDM 230856Z AUTO 20004KT 10SM CLR M01/M03 A3021 RMK AO2 SLP247 T10111028 51018
KRDR 230918Z AUTO 21006KT 7SM R35/5500FT SCT005 00/00 A2935 RMK AO2
KRDU 230851Z 00000KT 9SM OVC011 03/M02 A3029 RMK AO2 SLP256 T00331017 56009 $
KREO 230852Z AUTO 17005KT 01/M06 A3018 RMK AO1 SLP232 T00111056 53025
KRFD 230854Z 18010KT 2SM BR OVC003 09/08 A2976 RMK AO2 TWR VIS 3 DZB14E45 SLP080 P0000 60000 T00890078 58020
KRFI 230935Z AUTO 12010KT 10SM -DZ SCT080 BKN090 OVC110 15/15 A2961 RMK AO2 T01520152
KRGK 230931Z AUTO 20006KT 7SM 11/09 A2947 RMK AO2
KRHI 230853Z AUTO 15005KT 1/4SM FG VV002 04/04 A2958 RMK AO2 SLP030 T00390039 58025
KRHP 230935Z AUTO 16003KT 4SM RA OVC026 09/08 A3014 RMK AO2 P0005 T00860081
KRHV 230548Z 00000KT 10SM SCT030 13/12 A3024 RMK LAST
KRIC 230854Z 19003KT 10SM FEW250 01/M07 A3027 RMK AO2 SLP255 T00111067 58009
KRIL 230913Z AUTO 28006KT 10SM -RA FEW012 SCT019 OVC048 02/01 A2979 RMK AO2 RAB04 P0000 T00170006
KRIV 230934Z 00000KT 1/4SM R32/1800FT FG VV001 10/10 A3006 RMK AO2A
KRIW 230853Z AUTO 31010KT 10SM CLR M02/M11 A2973 RMK AO2 SLP071 T10221106 53018
KRKD 230935Z AUTO 25007KT 10SM SCT120 04/M04 A2996 RMK AO1
KRKP 230853Z AUTO 21006KT 10SM CLR 16/15 A2973 RMK AO2 SLP070 T01610150 53003
KRKR 230935Z AUTO 00000KT 10SM OVC018 15/13 A2964 RMK AO2 T01530131
KRKS 230854Z AUTO 26015KT 10SM CLR M03/M07 A2981 RMK AO2 PK WND 25029/0800 SLP111 T10331067 51008
KRME 230919Z AUTO 08006KT 6SM BR OVC029 04/03 A3005 RMK AO2 RAE05 P0000 T00390033
KRMG 230853Z AUTO VRB04KT 10SM OVC023 10/06 A3008 RMK AO2 SLP182 60003 T01000061 58025
KRMN 230935Z AUTO 00000KT 10SM SCT110 02/M09 A3025 RMK AO2 T00161089
KRMY 230933Z AUTO 19011G15KT 7SM -RA OVC019 09/07 A2989 RMK AO2 T00860065
KRNC 230935Z AUTO 00000KT 10SM FEW050 12/06 A2998 RMK
KRND 230858Z AUTO 26007KT 10SM SCT012 BKN100 15/14 A2971 RMK AO2 CIG 012 RWY32R SLP056 T01480137 55006
KRNH 230935Z AUTO 19008KT 3/4SM BR OVC008 07/07 A2946 RMK AO2 T00650065
KRNM 230926Z AUTO 16004KT 3SM BR FEW007 06/06 A3004 RMK AO2 T00610056 $
KRNO 230855Z 35007KT 10SM FEW046 SCT220 03/M02 A3029 RMK AO2 SLP240 T00331022 51018
KRNP 230933Z AUTO 20009G14KT 10SM BKN019 OVC027 10/07 A2987 RMK AO2 T01000073
KRNT 230853Z AUTO 15007KT 10SM FEW045 BKN085 BKN120 08/06 A3015 RMK AO2 SLP214 T00830061 51014
KRNV 230935Z AUTO 11007KT 10SM OVC013 14/13 A2977 RMK AO2 T01430132
KROA 230854Z 00000KT 10SM FEW250 M01/M06 A3027 RMK AO2 SLP257 T10111061 55002
KROC 230854Z 20005KT 10SM OVC030 07/04 A2999 RMK AO2 SLP162 60003 T00720044 50000
KROG 230859Z AUTO 16015KT 10SM OVC015 14/12 A2966 RMK AO2 SLP040 T01440122 56013 TSNO
KROS 230935Z AUTO 00000KT 1SM BR OVC002 05/04 A2944 RMK AO2 T00450040
KROW 230851Z AUTO 25007KT 10SM CLR 09/M05 A2967 RMK AO2 SLP004 T00891050 56019
KROX 230934Z AUTO 17008KT 5SM HZ OVC008 02/M01 A2936 RMK AO2
KRPD 230935Z AUTO 13003KT M1/4SM FG OVC003 03/03 A2949 RMK AO2 T00300026
KRPH 230910Z AUTO 13005KT 10SM CLR 11/11 A2959 RMK AO2 T01100110
KRPJ 230935Z AUTO 18014KT 5SM BR OVC011 10/09 A2974 RMK AO2 T00950086
KRQB 230934Z AUTO 17004KT 4SM BR OVC007 07/07 A2980 RMK AO2 T00730073
KRQO 230935Z AUTO 17015KT 7SM OVC004 11/11 A2952 RMK AO2
KRRL 230935Z AUTO 16005KT 1/4SM -DZ OVC001 04/04 A2956 RMK AO2 T00410041
KRRT 230934Z AUTO 16007KT 5SM BR OVC010 01/M01 A2937 RMK AO2
KRSL 230853Z AUTO 19014KT 10SM OVC017 12/09 A2944 RMK AO2 SLP961 T01170089 56026
KRSN 230935Z AUTO 14004KT 10SM RA OVC010 16/16 A2976 RMK AO2 T01580158
KRSP 230854Z AUTO 10SM CLR 05/M09 A3012 RMK AO2 SLP218 T00501089 58009 $
KRST 230903Z AUTO 19015KT 4SM BR OVC004 09/08 A2953 RMK AO2 T00890083
KRSV 230935Z AUTO 18010KT 10SM BKN100 10/05 A2991 RMK AO2 T01020045
KRSW 230853Z AUTO 11004KT 6SM BR FEW005 OVC021 21/21 A3000 RMK AO2 SLP156 T02110206 58013
KRTN 230853Z AUTO 04005KT 10SM CLR 04/M07 A2963 RMK AO2 SLP979 T00441067 56007
KRTS 230935Z AUTO 00000KT 10SM CLR M02/M05 A3029 RMK AO2
KRUE 230853Z AUTO 00000KT 10SM OVC022 14/12 A2968 RMK AO2 SLP046 T01440117 56042
KRUG 230935Z AUTO 24012KT 10SM FEW100 02/M01 A2931 RMK AO2
KRUQ 230935Z AUTO 00000KT 7SM SCT021 OVC060 05/M01 A3026 RMK AO2 T00451013
KRUT 230935Z 20005G17KT 10SM OVC015 06/03 A3004 RMK AO1
KRVS 230853Z AUTO 16006KT 7SM OVC005 13/13 A2960 RMK AO2 SLP032 T01330128 56031
KRWF 230853Z AUTO 24005KT 6SM BR BKN090 OVC110 07/06 A2942 RMK AO2 SLP969 T00720061 55004
KRWI 230853Z AUTO 00000KT 10SM CLR 03/M01 A3029 RMK AO2 SLP259 T00281006 56008
KRWL 230853Z AUTO 27009KT 10SM CLR M04/M08 A2975 RMK AO2 SLP087 60002 T10391078 53007
KRWV 230935Z AUTO 24005KT 10SM BKN008 14/14 A2969 RMK AO2
KRXE 230853Z AUTO 19010KT 10SM OVC070 M01/M02 A2985 RMK AO2 SLP123 T10061022 52015
KRYT 230853Z AUTO 23003KT 10SM CLR 04/M07 A3013 RMK AO2 SLP213 T00441072 58008 $
KRYV 230935Z AUTO 18011G15KT 1 3/4SM BR OVC003 08/08 A2970 RMK AO2 T00830083
KRYW 230935Z AUTO 27005KT 1/2SM FG OVC001 13/13 A2969 RMK AO2 T01330125
KRZL 230935Z AUTO 16009KT 10SM SCT050 OVC090 08/07 A2986 RMK AO2
KRZN 230915Z AUTO 17007KT 2 1/2SM BR BKN005 OVC009 05/05 A2945 RMK AO2 T00530050
KRZR 230935Z AUTO 00000KT 3SM BKN018 BKN028 OVC036 07/06 A3008 RMK
KRZT 230934Z AUTO 19005KT 10SM BKN060 OVC090 08/M02 A3005 RMK AO2
KS39 230935Z AUTO 00000KT 10SM FEW036 FEW042 M00/M02 A3024 RMK AO2
KSAA 230935Z AUTO 00000KT 10SM SCT060 SCT065 SCT120 M03/M06 A2978 RMK AO2
KSAC 230931Z AUTO 34008KT 2SM BR OVC002 11/11 A3025 RMK AO2
KSAD 230851Z AUTO 15006KT 10SM CLR 06/M06 A2994 RMK AO2 SLP119 T00611061 55007
KSAF 230853Z AUTO 01005KT 10SM FEW110 01/M11 A2977 RMK AO2 SLP040 T00061106 57015
KSAN 230851Z 11004KT 10SM FEW016 SCT250 16/12 A3005 RMK AO2 SLP174 T01610122 58009
KSAR 230935Z AUTO 15009KT 10SM CLR 11/07 A2980 RMK AO2 T01130068
KSAT 230851Z 24004KT 10SM FEW013 BKN080 BKN250 15/14 A2972 RMK AO2 SLP048 T01500139 56006
KSAV 230923Z AUTO 06004KT 4SM +RA BR FEW005 BKN025 OVC033 16/14 A3012 RMK AO2 P0006 TSNO
KSAW 230937Z AUTO 18010KT 1/2SM FG OVC002 01/01 A2963 RMK AO2 T00130008
KSAZ 230933Z AUTO 00000KT 1/4SM FG OVC002 01/01 A2938 RMK AO2
KSBA 230853Z AUTO 00000KT 10SM CLR 14/11 A3004 RMK AO2 SLP172 T01390106 53009
KSBD 230450Z 00000KT 10SM BKN018 13/07 A3005
KSBM 230933Z AUTO 16008KT 5SM BR OVC009 08/07 A2969 RMK AO2 T00780067
KSBN 230938Z 19012KT 10SM BKN029 OVC035 09/07 A2988 RMK AO2 T00940072
KSBO 230935Z AUTO 07006KT 7SM +RA SCT005 BKN020 OVC085 15/15 A3011 RMK AO2
KSBP 230856Z AUTO 35012G19KT 10SM CLR 14/10 A3015 RMK AO2 SLP207 T01440100 51003
KSBS 230935Z AUTO 26009KT 5SM SCT013 BKN025 OVC030 M02/M03 A2977 RMK AO1 T10201030
KSBY 230854Z AUTO 20009KT 10SM CLR 02/M01 A3025 RMK AO2 SLP247 T00171011 58013
KSCD 230935Z AUTO 11011G18KT 10SM OVC010 14/13 A2997 RMK AO2 T01370133
KSCF 230935Z AUTO 26022G30KT 1/4SM FG 17/17 A2973 RMK A01
KSCK 230922Z AUTO 33010KT 1/2SM FG VV002 11/11 A3023 RMK AO2 RVRNO $
KSDA 230935Z AUTO 17013KT 10SM BKN021 OVC025 12/11 A2954 RMK AO2
KSDB 230925Z AUTO 01007G26KT 3/4SM BR VV002 07/06 A3016 RMK AO2 PK WND 35029/0912 RAE12 P0000 T00720056 $
KSDF 230856Z 17010KT 10SM BKN035 BKN048 OVC080 13/03 A3001 RMK AO2 SLP159 T01330033 58013
KSDL 230853Z 00000KT 10SM CLR 11/M01 A2996 RMK AO2 SLP133 T01061011 53001
KSDM 230853Z AUTO 07004KT 10SM CLR 11/09 A3003 RMK AO2 SLP168 T01110094 58007 $
KSDY 230935Z AUTO 27023G34KT 10SM OVC028 03/M02 A2943 RMK AO1
KSEA 230923Z 18012KT 10SM FEW015 BKN021 OVC040 08/06 A3015 RMK AO2 RAB0855E04 P0000
KSEE 230935Z AUTO 00000KT 10SM CLR 12/09 A3005 RMK AO2
KSEG 230853Z AUTO 00000KT 10SM BKN080 OVC110 01/M06 A3016 RMK AO2 SLP216 T00111056 50001
KSEM 230935Z AUTO 10009KT 5SM BR OVC007 14/13 A2990 RMK AO2
KSEP 230935Z AUTO 17003KT 4SM CLR 11/10 A2966 RMK AO2 P0001 T01080097
KSET 230854Z AUTO 14009KT 10SM OVC100 11/08 A2978 RMK AO2 SLP082 T01110078 56024
KSEZ 230935Z AUTO 00000KT 10SM CLR 07/M03 A2998 RMK AO2
KSFB 230853Z AUTO 12008KT 3SM -RA BR BKN007 OVC010 21/20 A3002 RMK AO2 RAE0756B43 CIG 004V008 SLP163 P0001 60002 T02110200 58024
KSFF 230853Z AUTO 00000KT 7SM CLR M01/M03 A3006 RMK AO2 SLP191 I1001 I3002 T10111028 53034
KSFM 230935Z AUTO 18004KT 10SM FEW090 SCT120 02/M08 A3002 RMK AO1
KSFO 230856Z 00000KT 10SM CLR 14/08 A3024 RMK AO2 SLP241 T01390083 50002
KSFQ 230935Z AUTO 00000KT 10SM 00/M02 A3031 RMK AO2 T10011018
KSFY 230935Z AUTO 16006KT 2 1/2SM BR OVC007 10/09 A2969 RMK AO2 T00960086
KSFZ 230935Z 00000KT 10SM OVC050 06/M07 A3010 RMK AO1
KSGF 230852Z 15013KT 10SM OVC011 13/11 A2965 RMK AO2 SLP038 T01280111 58028
KSGH 230856Z AUTO 18006KT 9SM BKN050 BKN065 OVC075 09/03 A3003 RMK AO2 58008 60000 T00940033 BKN V SCT RAB0758E03 P0000 SLP170 $
KSGJ 230928Z AUTO 13009KT 6SM VCTS -RA BR OVC015 20/19 A3001 RMK AO2 TSB25 P0005
KSGR 230919Z AUTO 00000KT 8SM FEW006 17/16 A2964 RMK AO2 T01670156
KSGS 230930Z AUTO 19005KT 5SM BR BKN018 BKN029 OVC036 09/08 A2945 RMK AO2 T00900084
KSGT 230935Z AUTO 14010KT 9SM FEW026 SCT041 OVC049 13/11 A2977 RMK AO1 P0004
KSGU 230935Z AUTO 28011KT 10SM CLR 12/M04 A3000 RMK AO1
KSHD 230935Z AUTO 17005KT 10SM SCT100 03/M07 A3020 RMK AO2 T00341068
KSHL 230935Z AUTO 18012KT 3SM BR OVC004 09/09 A2940 RMK AO2
KSHM 230856Z AUTO 29011KT 10SM SCT180 06/M06 A2958 RMK AO2 SLP981 T00611061 55010
KSHN 230920Z AUTO 19006KT 10SM OVC015 08/07 A3012 RMK AO2 T00780067
KSHR 230853Z AUTO 30012KT 10SM CLR M01/M08 A2966 RMK AO2 SLP047 T10061078 52011 TSNO
KSHV 230856Z 23005KT 8SM OVC004 17/17 A2968 RMK AO2 RAE54 SLP048 P0003 60053 T01720167 56033
KSIF 230935Z AUTO 00000KT 10SM OVC050 01/M02 A3028 RMK AO2 T00081020
KSIY 230853Z AUTO 15004KT 10SM CLR M01/M02 A3033 RMK AO2 SLP291 T10111017 51010
KSJC 230853Z AUTO 00000KT 10SM CLR 10/08 A3025 RMK AO2 SLP243 T01000078 51007
KSJN 230854Z AUTO 26016G20KT 10SM CLR 08/M07 A2991 RMK AO2 PK WND 26030/0808 SLP078 T00781067 55002
KSJS 230935Z AUTO 00000KT 10SM OVC110 11/M01 A3010 RMK AO2 T01071011
KSJT 230851Z AUTO 21007KT 10SM CLR 10/07 A2967 RMK AO2 SLP035 T01000072 56026
KSJX 230936Z AUTO 16004KT 1 1/2SM BR OVC003 06/05 A2974 RMK AO2 T00600054
KSKA 230858Z AUTO 20008KT 10SM CLR M02/M02 A3002 RMK AO2 UPB0805E0823 SLP189 P0000 60000 T10171024 52029 RVRNO $
KSKF 230858Z AUTO 26005KT 10SM CLR 13/12 A2970 RMK AO2 SLP053 T01290116 55006 $
KSKX 230935Z AUTO 19006KT 10SM BKN050 OVC070 02/M04 A2978 RMK AO1
KSLB 230935Z AUTO 19012KT 4SM BR BKN006 OVC034 10/10 A2947 RMK AO2
KSLC 230853Z 29019G31KT 10SM FEW044 SCT055 BKN075 03/M02 A2998 RMK AO2 PK WND 29031/0845 SLP148 SH DSNT N-NE AND SE 60000 T00331022 53013
KSLE 230856Z AUTO 17008KT 10SM -RA FEW032 BKN055 BKN070 08/06 A3029 RMK AO2 RAB50 SLP258 P0000 60000 T00780061 53021
KSLG 230935Z AUTO 16011KT 10SM BKN013 OVC030 14/11 A2964 RMK AO1
KSLH 230937Z AUTO 00000KT 2SM BR SCT018 OVC030 03/03 A2977 RMK AO2 T00330033
KSLI 230858Z AUTO 07004KT 10SM CLR 13/13 A3003 RMK AO2 SLP172 T01340131 58002
KSLK 230851Z AUTO 23007KT 2 1/2SM -SN BR OVC004 03/03 A2992 RMK AO2 RAB20E24SNB0757E20B36 SLP147 P0001 60009 T00330028 51007
KSLN 230905Z AUTO 19016KT 10SM OVC010 13/10 A2949 RMK AO2 T01280100
KSLO 230935Z AUTO 16007KT 10SM 13/06 A2984 RMK AO2 T01250058
KSLR 230935Z AUTO 00000KT 1 1/4SM BR BKN007 OVC010 14/13 A2965 RMK AO2 T01350133
KSME 230935Z AUTO 11003KT 10SM OVC050 07/01 A3006 RMK AO2
KSMF 230853Z 29004KT 1/8SM R16R/0600FT FG VV001 11/10 A3026 RMK AO2 SLP246 T01060100 50010
KSMN 230935Z AUTO 14012KT 10SM BKN047 BKN060 BKN070 M02/M03 A2996 RMK AO1
KSMO 230851Z AUTO 00000KT 10SM CLR 14/11 A3003 RMK AO2 SLP169 T01440111 58003 $
KSMQ 230853Z AUTO 00000KT 10SM BKN120 03/M05 A3016 RMK AO2 SLP216 T00331050 58009
KSMS 230935Z AUTO 00000KT 2 1/2SM RA SCT003 09/09 A3023 RMK AO2
KSMX 230851Z AUTO 33009KT 10SM CLR 14/11 A3013 RMK AO2 SLP205 T01440106 51006
KSNA 230853Z AUTO 10005KT 10SM CLR 17/12 A3003 RMK AO2 SLP168 T01670122 57004 TSNO
KSNC 230935Z AUTO 25007KT 10SM BKN100 06/M03 A3015 RMK AO2
KSNH 230935Z AUTO 13005KT 10SM OVC020 14/11 A2989 RMK
KSNK 230935Z AUTO 21008KT 10SM CLR 08/08 A2961 RMK AO2 T00800077
KSNL 230935Z AUTO 18010KT 10SM SCT011 BKN016 15/15 A2959 RMK AO2
KSNS 230931Z 08003KT 1/4SM FG VV001 09/08 A3022 RMK AO2 RVRNO
KSNT 230851Z AUTO 35008KT M05/M10 A2998 RMK AO1 SLP143 T10501100 53032
KSNY 230853Z AUTO 35017G23KT 10SM BKN050 OVC070 04/M03 A2963 RMK AO2 PK WND 34034/0810 SLP017 T00391028 53031
KSOA 230935Z AUTO 00000KT 10SM CLR 07/07 A2976 RMK AO2
KSOP 230935Z AUTO 00000KT 10SM CLR 04/M03 A3026 RMK AO1
KSOW 230935Z AUTO 19014G22KT 10SM CLR 02/M08 A3000 RMK AO2
KSPA 230935Z AUTO 02003KT 10SM RA SCT016 BKN029 OVC037 07/03 A3023 RMK AO2
KSPB 230922Z AUTO 00000KT 3SM BR FEW001 SCT075 BKN120 02/02 A3026 RMK AO2 T00220017
KSPD 230856Z AUTO 31011KT 06/M05 A2948 RMK AO1 SLP943 T00561050 55013
KSPF 230915Z AUTO 29016G29KT 10SM CLR 02/M07 A2960 RMK AO2
KSPG 230853Z AUTO 13005KT 7SM OVC011 19/18 A2998 RMK AO2 CIG 009V013 SLP152 T01940183 58012
KSPI 230852Z AUTO 17014KT 10SM CLR 11/06 A2978 RMK AO2 SLP085 T01110061 58021
KSPL 230915Z AUTO 00000KT 2 1/2SM FEW090 A2975 RMK AO1
KSPR 230935Z AUTO 15032KT 5SM BR FEW018 SCT032 BKN075 24/22 A2965 RMK A01
KSPS 230852Z AUTO 13007KT 1/4SM FG VV002 09/09 A2957 RMK AO2 SLP008 T00940089 58031 TSNO
KSPW 230853Z AUTO 18009KT 4SM BR CLR 09/08 A2945 RMK AO2 SLP980 T00890078 58010 TSNO
KSQE 230935Z AUTO 16008G21KT 110V180 6SM BR BKN013 BKN018 24/22 A2972 RMK A01
KSQI 230935Z 20006KT 9SM OVC012 11/08 A2972 RMK AO1
KSQL 230930Z AUTO 30004KT 10SM CLR 12/09 A3026 RMK AO2
KSRB 230935Z AUTO 17011KT 10SM FEW027 13/07 A2999 RMK
KSRC 230910Z AUTO 15007KT 10SM BKN017 13/11 A2976 RMK AO2 TSNO
KSRQ 230853Z 12009KT 10SM OVC013 22/21 A2998 RMK AO2 SLP150 60000 T02220211 56017
KSRR 230935Z AUTO 27012KT 10SM CLR 07/M09 A2981 RMK AO2
KSSC 230938Z AUTO 07002KT 5SM R04/5000FT RA BR OVC070 10/10 A3021 RMK AO2 $
KSSF 230853Z AUTO 24005KT 10SM FEW016 13/12 A2971 RMK AO2 SLP054 T01330117 56007
KSSI 230938Z AUTO 10011KT 3SM RA BR FEW022 BKN029 OVC035 17/17 A3004 RMK AO2 P0017 T01720172
KSTC 230924Z AUTO 17007KT 1 3/4SM BR SCT004 OVC100 03/02 A2941 RMK AO2 T00330022
KSTE 230935Z AUTO 18007KT 1 1/4SM -DZ OVC003 07/07 A2961 RMK AO2 T00650065
KSTF 230935Z AUTO 13012G17KT OVC010 14/12 A2985 RMK AO2 PWINO
KSTJ 230914Z AUTO 17011KT 10SM OVC010 12/11 A2958 RMK AO2 T01220106
KSTK 230930Z AUTO 01009KT 10SM SCT080 OVC100 07/01 A2963 RMK AO2
KSTL 230851Z 17010G16KT 10SM OVC100 13/07 A2979 RMK AO2 SLP085 T01330067 56023
KSTP 230932Z AUTO 14005KT 1/2SM FG SCT017 BKN026 OVC034 06/06 A2946 RMK AO2 T00560056 RVRNO
KSTS 230853Z AUTO 01007KT 10SM CLR 09/07 A3025 RMK AO2 SLP238 T00940072 51004
KSUA 230935Z AUTO 13011G19KT 7SM SCT016 BKN034 OVC045 23/22 A3003 RMK AO2 P0005
KSUE 230935Z AUTO 17009KT 1 3/4SM OVC003 07/06 A2968 RMK AO1
KSUN 230935Z AUTO 33010KT 10SM CLR M01/M06 A2998 RMK AO2
KSUS 230854Z AUTO 18005KT 10SM OVC095 12/07 A2977 RMK AO2 SLP081 60001 T01220072 56025
KSUT 230935Z AUTO 00000KT 7SM -RA BKN110 12/11 A3024 RMK AO2 T01160110
KSUU 230931Z AUTO 01006KT 10SM FEW009 08/08 A3025 RMK AO2 $
KSUW 230915Z AUTO 06004KT 1 1/2SM BR OVC002 02/02 A2945 RMK AO2 T00230023
KSUX 230922Z 17009KT 10SM SCT013 BKN022 OVC027 12/10 A2945 RMK AO2 T01220100
KSVC 230935Z AUTO 32014G17KT 10SM CLR 06/M08 A2994 RMK AO2
KSVH 230935Z AUTO 00000KT 10SM BKN026 BKN030 05/M02 A3025 RMK AO2 T00511022
KSVN 230923Z AUTO 05007KT 5SM R28/4500FT -RA BR OVC024 16/16 A3009 RMK AO2
KSWF 230845Z 24005KT 10SM BKN100 04/M06 A3015
KSWO 230917Z AUTO 17009KT 10SM FEW011 OVC018 14/12 A2955 RMK AO2 T01390122
KSWW 230935Z AUTO 20013G16KT 10SM CLR 11/08 A2963 RMK AO2 T01080078
KSXS 230934Z AUTO 12006KT 4SM -SHRA FEW002 BKN004 OVC006 16/16 A2995 RMK AO2
KSXT 230905Z AUTO 22004KT 1/4SM FG VV001 02/02 A3028 RMK AO2 T00220017 $
KSYF 230935Z AUTO 35017G24KT 10SM OVC090 10/00 A2951 RMK AO2 T00960000
KSYI 230915Z AUTO 14007KT 10SM SCT042 12/06 A2997 RMK
KSYM 230930Z AUTO 15004KT 10SM BKN039 BKN046 OVC090 10/01 A3009 RMK AO2
KSYN 230934Z AUTO 19009G14KT 7SM BKN013 BKN024 BKN030 11/09 A2945 RMK AO2 T01060089
KSYR 230854Z 21009KT 10SM -RA OVC027 09/05 A3002 RMK AO2 SLP165 P0000 60004 T00890050 53003 $
KSZL 230922Z AUTO 18011KT 10SM -DZ FEW017 12/11 A2962 RMK AO2
KSZT 230935Z AUTO 20004KT 10SM BKN023 BKN027 OVC044 01/00 A3001 RMK AO2
KT20 230935Z AUTO 00000KT 7SM CLR 13/13 A2970 RMK AO2 T01340131
KT35 230935Z AUTO 21003KT 10SM SCT120 15/15 A2965 RMK AO2 T01510147
KT65 230935Z AUTO 30003KT 1/4SM FG OVC003 17/16 A2977 RMK AO2 T01700158
KT82 230935Z AUTO 00000KT 10SM CLR 10/10 A2971 RMK AO2 T01040100
KTAD 230854Z AUTO 23012KT 10SM CLR 04/M05 A2956 RMK AO2 SLP970 T00391050 56013
KTAN 230852Z AUTO 23007KT 10SM OVC055 08/M03 A3011 RMK AO2 SLP196 60000 T00781033 51004
KTAZ 230935Z AUTO 17011KT 10SM BKN090 OVC110 10/06 A2979 RMK AO2
KTBN 230923Z AUTO 14007KT 10SM BKN025 OVC120 10/10 A2970 RMK AO2 CIG 025V120 BKN V FEW
KTBR 230935Z AUTO 07005KT 7SM RA OVC005 14/14 A3012 RMK AO2 T01370137
KTBX 230935Z AUTO 18004KT 10SM CLR M02/M15 A2979 RMK AO2
KTCC 230853Z AUTO 27015KT 10SM 11/M07 A2960 RMK AO2 PK WND 27028/0809 SLP980 T01111072 55003
KTCL 230911Z AUTO 10007KT 10SM OVC014 15/12 A2993 RMK AO2 T01500122
KTCM 230919Z AUTO 18008KT 10SM SCT029 BKN037 OVC110 07/07 A3017 RMK AO2 RAE0914 $
KTCS 230853Z AUTO VRB03KT 10SM CLR 07/M09 A2982 RMK AO2 SLP052 T00721089 56014 TSNO
KTDF 230935Z AUTO 00000KT 10SM OVC050 02/M01 A3029 RMK AO2
KTDR 230857Z AUTO M 10SM OVC007 20/20 A2988 RMK AO2 $
KTDZ 230853Z AUTO 21012KT 9SM -RA FEW060 OVC075 09/05 A2999 RMK AO2 RAB06 SLP156 P0005 60005 T00890050 56002 TSNO
KTEB 230851Z 24004KT 10SM OVC110 06/M06 A3017 RMK AO2 SLP218 T00561056 55001
KTEW 230931Z AUTO 22005KT 7SM -RA OVC021 10/07 A2989 RMK AO2 T00950072
KTEX 230935Z AUTO 26015G22KT 1SM SN OVC004 M02/M03 A2984 RMK AO2 T10231029
KTFP 230935Z AUTO 25004KT 10SM CLR 16/15 A2973 RMK AO2 T01620147
KTHA 230935Z AUTO 16012KT 10SM BKN045 12/06 A2996 RMK
KTHV 230853Z AUTO 00000KT 10SM CLR 06/M07 A3016 RMK AO2 SLP217 T00611072 58007
KTIF 230935Z AUTO 32018G26KT 10SM CLR 05/01 A2954 RMK AO2 T00530014
KTIK 230909Z AUTO 18010KT 10SM OVC006 12/12 A2958 RMK AO2
KTIP 230910Z AUTO 16009KT 10SM RA SCT060 OVC070 09/07 A2984 RMK AO2 T00870068
KTIW 230853Z AUTO 19013KT 10SM -RA BKN031 OVC046 08/06 A3015 RMK AO2 RAE30B45 SLP213 P0010 60017 T00780061 51012
KTKC 230933Z AUTO 21013G16KT 7SM SCT120 07/06 A2941 RMK AO2 T00720060
KTKI 230928Z AUTO 16004KT 6SM BR OVC002 14/14 A2962 RMK AO2 T01390139
KTKV 230935Z AUTO 00000KT 1/2SM FG OVC002 04/03 A2955 RMK AO2 T00390034
KTLH 230853Z AUTO 13007KT 10SM OVC007 20/18 A2996 RMK AO2 RAE24 CIG 004V012 SLP143 P0008 60088 T02000178 57021 $
KTMA 230935Z AUTO 07008KT 5SM RA BKN004 BKN012 OVC024 15/15 A3000 RMK AO2 T01510150
KTMB 230853Z AUTO 12008KT 10SM SCT021 BKN026 BKN032 24/22 A3001 RMK AO2 SLP161 T02440222 56014
KTME 230915Z AUTO 14007KT 10SM OVC007 17/ A2965 RMK AO2
KTMK 230935Z AUTO 00000KT 10SM SCT070 BKN110 07/06 A3027 RMK AO2
KTNB 230935Z AUTO 00000KT 10SM SCT017 BKN023 08/01 A3022 RMK AO2 T00760010
KTNU 230935Z AUTO 17010KT 10SM SCT013 BKN018 OVC024 11/10 A2959 RMK AO2
KTOA 230347Z 22005KT 10SM SKC 16/12 A3003 RMK LAST
KTOB 230934Z AUTO 19013KT 2 1/2SM BR OVC005 09/09 A2950 RMK AO2
KTOC 230935Z AUTO 03005KT 10SM RA OVC017 07/04 A3020 RMK AO2 T00680039
KTOI 230924Z AUTO 10008KT 10SM OVC005 16/14 A2994 RMK AO2 T01560144
KTOL 230852Z 20006KT 7SM -RA FEW050 SCT070 OVC085 07/06 A2997 RMK AO2 SLP153 P0006 60006 T00720056 56002
KTOP 230903Z AUTO 15005KT 3SM BR OVC011 13/12 A2958 RMK AO2 T01280122
KTOR 230853Z AUTO 28003KT 10SM OVC065 02/M03 A2966 RMK AO2 SLP033 T00221033 51034
KTPA 230853Z 13005KT 8SM OVC011 22/20 A3000 RMK AO2 SLP157 60001 T02170200 58020
KTPF 230935Z AUTO 14008KT 10SM BKN010 BKN024 23/21 A2999 RMK AO2
KTPH 230856Z AUTO 33018G24KT 10SM CLR 03/M07 A3018 RMK AO2 SLP200 T00281067 51017
KTPL 230935Z AUTO 29003KT 10SM CLR 13/11 A2965 RMK AO1
KTQE 230854Z AUTO 16008KT 10SM SCT013 BKN021 OVC036 12/10 A2949 RMK AO2 SLP982 T01220100 56013
KTQH 230935Z AUTO 00000KT 10SM OVC010 13/12 A2962 RMK AO2
KTRI 230853Z 04003KT 10SM CLR 01/M03 A3018 RMK AO2 SLP209 T00111028 56004
KTRK 230935Z AUTO 00000KT 1/2SM FZFG BKN002 M04/M04 A3029 RMK AO2
KTRL 230926Z AUTO 14003KT 4SM BR OVC014 14/14 A2963 RMK AO2 T01440139
KTRM 230852Z AUTO 00000KT 10SM CLR 08/03 A2991 RMK AO2 SLP129 T00830028 53012 TSNO
KTSP 230935Z AUTO 30023G29KT 5SM BR BKN004 OVC010 07/07 A3016 RMK AO2
KTTA 230935Z AUTO 00000KT 10SM SCT060 02/00 A3026 RMK AO2 T00210003
KTTD 230853Z AUTO 22007KT 8SM -RA FEW039 BKN060 OVC070 09/06 A3027 RMK AO2 RAB39 SLP249 P0000 60000 T00890061 53020
KTTF 230935Z AUTO 21007KT 10SM OVC030 08/06 A2995 RMK AO2
KTTN 230853Z AUTO 24005KT 10SM FEW100 04/M05 A3020 RMK AO2 SLP221 T00391050 55005
KTTS 230858Z AUTO 11013G20KT 10SM BKN037 OVC047 22/18 A3015 RMK AO2 SLP213
KTUL 230853Z 14008KT 6SM BR OVC005 13/13 A2959 RMK AO2 DZE43 SLP019 P0000 60000 T01330128 56030
KTUP 230901Z 8SM OVC014 14/12 A2988 RMK AO2 T01440122 $
KTUS 230853Z 14004KT 10SM CLR 09/M02 A3001 RMK AO2 SLP137 T00891022 56009
KTVC 230929Z AUTO 13003KT 2SM BR OVC004 06/05 A2975 RMK AO2 CIG 004V007 T00610050
KTVF 230935Z AUTO 18008KT 3SM OVC005 01/01 A2936 RMK AO1
KTVI 230935Z AUTO 10006KT 7SM -RA SCT005 BKN013 OVC019 17/17 A2998 RMK AO2
KTVK 230910Z AUTO 17009KT 10SM OVC003 11/11 A2965 RMK AO2
KTVL 230853Z AUTO 00000KT 10SM CLR M02/M05 A3025 RMK AO2 SLP232 I1001 I3002 T10171050 51012
KTVR 230853Z AUTO 14011KT 10SM -RA OVC014 17/14 A2976 RMK AO2 RAB24 SLP085 P0000 60000 T01670144 56025
KTWF 230853Z AUTO 25017G28KT 10SM SCT037 01/M04 A3006 RMK AO2 PK WND 26028/0849 SLP175 T00061039 51024
KTWM 230934Z AUTO 06004KT 1SM DZ OVC002 03/00 A2943 RMK AO2
KTXK 230909Z AUTO 13012G20KT 10SM -RA BKN008 OVC016 15/14 A2962 RMK AO2 RAB0855 P0000 T01500144
KTYQ 230935Z AUTO 16008KT 10SM SCT065 SCT095 09/04 A2991 RMK AO2 T00870038
KTYR 230903Z AUTO 14012KT 10SM SCT007 16/14 A2960 RMK AO2 T01610144
KTYS 230853Z VRB05KT 10SM BKN060 BKN100 BKN250 05/00 A3011 RMK AO2 SLP196 T00500000 58014
KTZR 230935Z AUTO 15003KT 10SM OVC070 07/03 A3004 RMK AO2 T00730030
KU16 230758Z AUTO 30015G21KT 10SM UP SCT070 03/M04 A2999 RMK AO2 RAB03E04 SLP783 P0000 T00281044 TSNO $
KU68 230935Z AUTO 30011KT 10SM CLR 00/M06 A2972 RMK AO2 PWINO
KUAO 230853Z AUTO 19009KT 10SM FEW042 BKN065 OVC080 08/06 A3028 RMK AO2 RAB37E46 SLP256 P0000 60002 T00830061 51019
KUBE 230935Z AUTO 17004KT M1/4SM FG OVC003 03/03 A2946 RMK AO2
KUCP 230856Z AUTO 00000KT 10SM 08/00 A3008 RMK AO2 TSNO 58002 T00770000 SLP208 $
KUCY 230935Z AUTO 14005KT 10SM BKN023 BKN030 OVC037 12/09 A2987 RMK
KUDG 230935Z AUTO 33005KT 10SM BKN110 07/04 A3027 RMK AO1 P0002
KUES 230915Z AUTO 20012G16KT 3SM BR OVC004 08/07 A2973 RMK AO2
KUGN 230855Z AUTO 20015KT 6SM BR OVC009 10/08 A2976 RMK AO2 PK WND 22027/0824 SLP080 60000 T01000083 58017
KUIL 230903Z AUTO 18005KT 7SM -RA FEW025 BKN045 OVC065 08/07 A3009 RMK AO2 P0001 T00780072
KUIN 230854Z AUTO 17008KT 10SM SCT048 11/08 A2972 RMK AO2 SLP062 T01110083 58022
KUKF 230935Z AUTO 00000KT 10SM OVC050 03/M01 A3030 RMK AO2
KUKI 230914Z AUTO 00000KT 4SM BR SCT002 06/05 A3030 RMK AO2 T00560050
KUKT 230935Z AUTO 00000KT 10SM BKN090 OVC110 04/M05 A3018 RMK AO1
KULM 230934Z AUTO 19009KT 4SM BR SCT013 08/08 A2943 RMK AO2
KUNI 230935Z AUTO 00000KT 10SM OVC100 04/M01 A3008 RMK AO2 T00371013
KUNO 230936Z AUTO 14007KT 10SM OVC030 12/09 A2975 RMK AO2 T01170089
KUNU 230935Z AUTO 18012KT 3/4SM BR OVC004 08/08 A2970 RMK AO2 T00820080
KUNV 230935Z AUTO 00000KT 7SM SCT050 BKN060 OVC090 00/M01 A3012 RMK AO2 T00001013
KUOX 230915Z AUTO 12006KT 8SM OVC010 14/12 A2986 RMK AO2 PWINO PNO
KUSE 230935Z AUTO 19007KT 8SM OVC030 07/07 A2995 RMK AO2
KUTA 230935Z AUTO 12010KT 10SM OVC018 15/12 A2980 RMK AO2
KUTS 230935Z AUTO 19006KT 10SM FEW005 FEW120 16/15 A2962 RMK AO2 T01560150
KUUU 230853Z AUTO VRB04KT 10SM BKN060 BKN110 08/M02 A3014 RMK AO2 SLP206 T00781017 53004
KUVA 230935Z AUTO 00000KT 10SM CLR 09/08 A2973 RMK AO2 T00890081
KUXL 230935Z AUTO 32008KT 1SM +VCTSRA OVC007 18/18 A2967 RMK AO2 LTG DSNT S P0091 T01820179
KUYF 230935Z AUTO 19007KT 10SM SCT050 SCT065 OVC080 07/02 A3002 RMK AO2
KUZA 230914Z AUTO 00000KT 5SM -RA FEW009 BKN085 OVC100 06/03 A3024 RMK AO2 P0001 T00610028
KVAD 230938Z AUTO 06006KT 6SM R36/5000FT -RA BR OVC003 16/16 A2998 RMK AO2
KVAF 230935Z AUTO 16007KT 5SM HZ FEW004 SCT046 BKN070 19/15 A2975 RMK A01
KVAY 230854Z AUTO 21004KT 10SM CLR 04/M06 A3020 RMK AO2 SLP228 T00391056 58010
KVBG 230855Z AUTO 36012KT 10SM CLR 14/11 A3014 RMK AO2 SLP197 T01390111 51006 TSNO $
KVBS 230935Z AUTO 02014G21KT 10SM FEW004 OVC037 16/16 A2966 RMK A01
KVBT 230935Z AUTO 18010G16KT 10SM OVC018 15/12 A2966 RMK AO1
KVCB 230853Z AUTO 00000KT 10SM CLR 08/06 A3027 RMK AO2 SLP249 T00780061 50008 TSNO
KVCT 230851Z AUTO 25006KT 10SM CLR 16/14 A2971 RMK AO2 SLP058 T01610139 50003
KVCV 230935Z AUTO 28013G17KT 10SM CLR 11/06 A3008 RMK AO2
KVDF 230935Z AUTO 14005KT 7SM OVC010 23/21 A3000 RMK AO2
KVDI 230935Z AUTO 07008KT 5SM RA OVC004 14/14 A3009 RMK AO2
KVEL 230924Z AUTO 25003KT 10SM SCT003 OVC008 00/M01 A2984 RMK AO2 CIG 005V010 T00001006
KVER 230915Z AUTO 15008KT 10SM OVC070 13/10 A2966 RMK AO2 T01270102
KVES 230915Z AUTO 17006KT 10SM OVC047 07/03 A2998 RMK AO2
KVGT 230853Z 35014G25KT 10SM CLR 16/M07 A2999 RMK AO2 PK WND 33028/0841 SLP161 T01611067 51024
KVIH 230921Z AUTO 16007KT 10SM SCT022 11/08 A2970 RMK AO2 T01110078
KVIS 230935Z 29005KT 5SM OVC015 12/08 A3018 RMK AO1
KVJI 230935Z AUTO 09007KT 10SM CLR 04/M04 A3018 RMK AO2 T00411040
KVKY 230935Z AUTO 00000KT 10SM FEW004 SCT007 BKN012 23/22 A2978 RMK A01
KVLD 230853Z AUTO VRB05KT 5SM -RA BR BKN005 OVC013 17/16 A3000 RMK AO2 SLP165 P0006 60026 T01720161 58025 $
KVLL 230939Z AUTO 21009KT 10SM OVC026 10/05 A2994 RMK AO2
KVNC 230935Z AUTO 13008G15KT 10SM SCT011 SCT022 22/22 A2999 RMK AO2 TSNO
KVNY 230851Z 35021G29KT 10SM CLR 18/06 A3003 RMK AO2 PK WND 01031/0828 SLP163 T01780061 58003
KVOA 230935Z AUTO 15019KT 4SM BR SCT012 BKN050 BKN075 24/23 A2979 RMK A01
KVOK 230918Z AUTO 18006KT 9SM BKN009 OVC013 11/11 A2960 RMK AO2
KVPC 230853Z AUTO 08007G15KT 10SM -RA BKN022 OVC034 10/03 A3011 RMK AO2 RAB49 SLP188 P0000 60000 T01000033 56022
KVPS 230855Z 12012G20KT 6SM BR BKN006 OVC012 18/17 A2987 RMK AO2A SLP121 60004 T01820174 56033 $
KVPZ 230856Z AUTO 18008KT 6SM -RA BR SCT032 BKN048 OVC060 08/07 A2986 RMK AO2 RAB51 SLP115 P0000 60000 T00830072 58014 TSNO
KVQQ 230915Z AUTO 12003KT 2SM -RA BKN001 OVC008 19/19 A3001 RMK AO2 P0002
KVQT 230935Z AUTO 29033KT 1 1/4SM BR FEW004 BKN015 OVC029 19/17 A2977 RMK A01
KVRB 230853Z AUTO 11016G22KT 6SM -RA SCT018 BKN043 OVC070 22/19 A3003 RMK AO2 RAB21 SLP167 P0000 60000 T02220194 56018
KVSF 230911Z AUTO 20005KT 10SM BKN027 BKN065 OVC075 06/04 A3003 RMK AO2 RAE04 P0000 T00560039
KVSH 230935Z AUTO 08007KT 5SM OVC003 16/14 A2977 RMK AO1
KVTA 230854Z AUTO 00000KT 10SM BKN060 BKN080 OVC095 04/01 A3006 RMK AO2 SLP182 T00440011 56004
KVTI 230935Z AUTO 18009KT 5SM BR OVC009 11/10 A2961 RMK AO2 T01080095
KVTN 230852Z AUTO 32016G25KT 10SM SCT110 04/01 A2951 RMK AO2 PK WND 32026/0821 SLP995 T00440011 53025
KVTP 230932Z AUTO 19021G37KT 170V240 10SM CLR M03/M08 A2965 RMK AO2
KVUJ 230915Z AUTO 00000KT 10SM SCT010 SCT025 OVC050 06/01 A3029 RMK AO2 T00620011
KVUO 230853Z AUTO 00000KT 10SM SCT040 BKN060 BKN080 08/06 A3027 RMK AO2 SLP251 T00830056 53023
KVVG 230935Z AUTO 11008KT 6SM BR 21/21 A2990 RMK A01
KVVV 230921Z AUTO 28006KT 10SM SCT080 04/M01 A2939 RMK AO2
KVWU 230931Z AUTO 00000KT 3SM BR OVC004 01/00 A2939 RMK AO2
KVYS 230935Z AUTO 18011KT 10SM OVC046 09/08 A2977 RMK AO2 T00940079
KW13 230935Z AUTO 16003KT 10SM CLR M02/M07 A3018 RMK AO1 T10191067
KW22 230935Z AUTO 00000KT 10SM CLR 09/M04 A3012 RMK AO2
KW29 230919Z AUTO 18007KT 10SM 07/M06 A3021 RMK AO1
KW31 230935Z AUTO 00000KT 10SM CLR 01/M03 A3026 RMK AO1 T00111035
KW63 230935Z AUTO 00000KT 10SM CLR 00/M02 A3027 RMK AO1
KW75 230935Z AUTO 21004KT 10SM CLR 04/M05 A3027 RMK AO1 T00351050
KW78 230935Z AUTO 00000KT 10SM CLR M02/M04 A3028 RMK AO1 T10171041
KW81 230935Z AUTO 00000KT 10SM CLR 00/M04 A3026 RMK AO1 T10051042
KW96 230935Z AUTO 19007KT 10SM CLR M01/M04 A3027 RMK AO1 T10091042
KW99 230935Z AUTO 00000KT 10SM CLR 05/M07 A3014 RMK AO2 T00471068
KWAL 230854Z AUTO 25007KT 10SM CLR 06/M04 A3029 RMK AO2 SLP252 T00561039 58007
KWDG 230935Z AUTO 16013KT 10SM CLR 12/11 A2949 RMK AO2
KWDR 230935Z AUTO 06006KT 4SM -SN OVC012 07/07 A3017 RMK AO2 T00700065
KWHP 230347Z 00000KT 10SM SKC 15/09 A3006 RMK LAST
KWJF 230856Z AUTO 28028G35KT 10SM CLR 12/06 A3007 RMK AO2 PK WND 25035/0851 SLP179 T01170061 58003
KWLD 230911Z AUTO 17010KT 10SM SCT011 OVC020 13/12 A2953 RMK AO2 T01280117
KWMC 230856Z AUTO VRB04KT 10SM CLR M01/M04 A3023 RMK AO2 SLP247 T10111044 51018
KWRB 230926Z AUTO 09003KT 5SM R33/4500FT RA BR BKN008 OVC012 13/13 A3007 RMK AO2 CIG 007V009
KWRI 230858Z AUTO 22007KT 10SM BKN220 03/M06 A3017 RMK AO2 SLP221 T00331058 58008
KWRL 230853Z AUTO 00000KT 10SM CLR M07/M08 A2971 RMK AO2 SLP090 T10671078 51018
KWST 230853Z AUTO 25010G18KT 10SM OVC090 08/M01 A3015 RMK AO2 SLP211 T00781011 58001
KWVI 230934Z AUTO VRB05KT 1SM BR VV002 09/08 A3022 RMK AO2 T00890083
KWVL 230935Z 18005KT 10SM OVC032 02/M08 A2993 RMK AO1
KWWD 230935Z AUTO 22010KT 10SM FEW110 06/M04 A3022 RMK AO1
KWWR 230935Z AUTO 19007KT 10SM CLR 09/07 A2945 RMK AO2
KXBP 230935Z AUTO 00000KT 10SM CLR 11/11 A2963 RMK AO2 T01070107
KXIH 230935Z AUTO 18011KT 9SM FEW065 FEW075 FEW095 17/16 A2968 RMK A01
KXLL 230935Z AUTO 00000KT 10SM OVC085 03/M03 A3019 RMK AO2
KXMR 230928Z AUTO 10016G22KT 10SM SCT023 BKN029 OVC037 22/19 A3016 RMK AO2
KXNA 230853Z AUTO 17015G23KT 10SM OVC013 15/13 A2966 RMK AO2 SLP037 T01500128 57012 $
KXPY 230935Z AUTO 11012KT 7SM FEW005 SCT120 20/19 A2976 RMK A01
KXSA 230935Z AUTO 16004KT 10SM CLR 02/M09 A3026 RMK AO2 T00221091
KXVG 230936Z AUTO 00000KT 1/4SM FG OVC002 01/01 A2938 RMK AO2
KY19 230935Z AUTO 26012KT 10SM FEW100 03/00 A2943 RMK AO2
KY23 230935Z AUTO 13005KT 1/4SM FG OVC002 04/04 A2950 RMK AO2 T00400040
KY49 230935Z AUTO 17003KT 1/4SM FG OVC002 00/00 A2938 RMK AO2 T00000000
KY50 230856Z AUTO 17007KT 7SM OVC007 09/09 A2965 RMK AO2 TSNO 56019 T00940094 CIG 006V010 SLP040
KY51 230915Z AUTO 18011G14KT 2 1/2SM OVC005 10/10 A2960 RMK AO1 T00950095
KY63 230938Z AUTO 27004KT 10SM 01/00 A2940 RMK AO2 T00080000
KY70 230933Z AUTO 21011G16KT 10SM OVC014 09/07 A2984 RMK AO2 T00910072
KYIP 230853Z AUTO 21011KT 10SM OVC025 10/04 A2995 RMK AO2 SLP142 T01000044 58003 TSNO
KYKM 230853Z AUTO 12004KT 10SM CLR 01/M03 A3010 RMK AO2 SLP200 T00111028 51021
KYKN 230935Z AUTO 15006KT 10SM CLR 05/02 A2943 RMK AO1
KYNG 230851Z 21009KT 10SM OVC041 09/M01 A3005 RMK AO2 SLP181 T00941006 56005
KZPH 230935Z AUTO 00000KT 10SM OVC009 21/20 A3001 RMK AO2
KZZV 230853Z AUTO 18006KT 10SM CLR 08/M01 A3007 RMK AO2 SLP185 T00831011 58004